<?xml version="1.0" encoding="UTF-8" standalone="no" ?>
<gpx xmlns="http://www.topografix.com/GPX/1/1" xmlns:xsi="http://www.w3.org/2001/XMLSchema-instance" xsi:schemaLocation="http://www.topografix.com/GPX/1/1 http://www.topografix.com/GPX/1/1/gpx.xsd" version="1.1" creator="VisuGPX - https://www.visugpx.com">
  <metadata>
    <name>STE BAUME</name>
    <desc><![CDATA[Difficulté moyenne,falaises de Cugens,magnifiques.
Retour par le vallon de Betton très reposant. ]]></desc>
  </metadata>
  <trk>
    <name><![CDATA[2013-05-22-01]]></name>
    <trkseg>
      <trkpt lat="43.32387" lon="5.70726">
        <ele>698</ele>
        <time>2013-05-22T06:54:27Z</time>
      </trkpt>
      <trkpt lat="43.32387" lon="5.70726">
        <ele>697.7</ele>
        <time>2013-05-22T06:54:28Z</time>
      </trkpt>
      <trkpt lat="43.32384" lon="5.70714">
        <ele>693.7</ele>
        <time>2013-05-22T06:59:02Z</time>
      </trkpt>
      <trkpt lat="43.32376" lon="5.70694">
        <ele>691</ele>
        <time>2013-05-22T06:59:28Z</time>
      </trkpt>
      <trkpt lat="43.32371" lon="5.70684">
        <ele>691.4</ele>
        <time>2013-05-22T06:59:39Z</time>
      </trkpt>
      <trkpt lat="43.32366" lon="5.70674">
        <ele>690.5</ele>
        <time>2013-05-22T06:59:48Z</time>
      </trkpt>
      <trkpt lat="43.32361" lon="5.70665">
        <ele>694.5</ele>
        <time>2013-05-22T07:00:19Z</time>
      </trkpt>
      <trkpt lat="43.3236" lon="5.70664">
        <ele>694.2</ele>
        <time>2013-05-22T07:00:20Z</time>
      </trkpt>
      <trkpt lat="43.32353" lon="5.70644">
        <ele>692.4</ele>
        <time>2013-05-22T07:00:44Z</time>
      </trkpt>
      <trkpt lat="43.32351" lon="5.70632">
        <ele>691</ele>
        <time>2013-05-22T07:01:00Z</time>
      </trkpt>
      <trkpt lat="43.32347" lon="5.70622">
        <ele>690.9</ele>
        <time>2013-05-22T07:01:11Z</time>
      </trkpt>
      <trkpt lat="43.32342" lon="5.70613">
        <ele>689.2</ele>
        <time>2013-05-22T07:01:20Z</time>
      </trkpt>
      <trkpt lat="43.32341" lon="5.70612">
        <ele>688.5</ele>
        <time>2013-05-22T07:01:21Z</time>
      </trkpt>
      <trkpt lat="43.32333" lon="5.70594">
        <ele>682</ele>
        <time>2013-05-22T07:01:38Z</time>
      </trkpt>
      <trkpt lat="43.32332" lon="5.70581">
        <ele>682.5</ele>
        <time>2013-05-22T07:01:48Z</time>
      </trkpt>
      <trkpt lat="43.32332" lon="5.70569">
        <ele>692.2</ele>
        <time>2013-05-22T07:02:00Z</time>
      </trkpt>
      <trkpt lat="43.32329" lon="5.70559">
        <ele>690.2</ele>
        <time>2013-05-22T07:02:09Z</time>
      </trkpt>
      <trkpt lat="43.32324" lon="5.7055">
        <ele>684.7</ele>
        <time>2013-05-22T07:02:17Z</time>
      </trkpt>
      <trkpt lat="43.32318" lon="5.70544">
        <ele>685.7</ele>
        <time>2013-05-22T07:02:25Z</time>
      </trkpt>
      <trkpt lat="43.32317" lon="5.70543">
        <ele>685.2</ele>
        <time>2013-05-22T07:02:26Z</time>
      </trkpt>
      <trkpt lat="43.32312" lon="5.70523">
        <ele>685.7</ele>
        <time>2013-05-22T07:02:46Z</time>
      </trkpt>
      <trkpt lat="43.32308" lon="5.70512">
        <ele>684</ele>
        <time>2013-05-22T07:02:55Z</time>
      </trkpt>
      <trkpt lat="43.32304" lon="5.70503">
        <ele>687.2</ele>
        <time>2013-05-22T07:03:04Z</time>
      </trkpt>
      <trkpt lat="43.32299" lon="5.70494">
        <ele>689.2</ele>
        <time>2013-05-22T07:03:11Z</time>
      </trkpt>
      <trkpt lat="43.32293" lon="5.70485">
        <ele>689</ele>
        <time>2013-05-22T07:03:19Z</time>
      </trkpt>
      <trkpt lat="43.32287" lon="5.70477">
        <ele>687.9</ele>
        <time>2013-05-22T07:03:31Z</time>
      </trkpt>
      <trkpt lat="43.32286" lon="5.70476">
        <ele>688</ele>
        <time>2013-05-22T07:03:32Z</time>
      </trkpt>
      <trkpt lat="43.32284" lon="5.70455">
        <ele>692.5</ele>
        <time>2013-05-22T07:03:51Z</time>
      </trkpt>
      <trkpt lat="43.32282" lon="5.70443">
        <ele>693</ele>
        <time>2013-05-22T07:04:00Z</time>
      </trkpt>
      <trkpt lat="43.32281" lon="5.70431">
        <ele>693</ele>
        <time>2013-05-22T07:04:09Z</time>
      </trkpt>
      <trkpt lat="43.3228" lon="5.7042">
        <ele>688.5</ele>
        <time>2013-05-22T07:04:19Z</time>
      </trkpt>
      <trkpt lat="43.32283" lon="5.70408">
        <ele>691.2</ele>
        <time>2013-05-22T07:04:28Z</time>
      </trkpt>
      <trkpt lat="43.32283" lon="5.70396">
        <ele>693.4</ele>
        <time>2013-05-22T07:04:37Z</time>
      </trkpt>
      <trkpt lat="43.32283" lon="5.70395">
        <ele>693.5</ele>
        <time>2013-05-22T07:04:38Z</time>
      </trkpt>
      <trkpt lat="43.32284" lon="5.70374">
        <ele>693.2</ele>
        <time>2013-05-22T07:04:57Z</time>
      </trkpt>
      <trkpt lat="43.32281" lon="5.70363">
        <ele>694.5</ele>
        <time>2013-05-22T07:05:04Z</time>
      </trkpt>
      <trkpt lat="43.32276" lon="5.70353">
        <ele>698.7</ele>
        <time>2013-05-22T07:05:11Z</time>
      </trkpt>
      <trkpt lat="43.32271" lon="5.70344">
        <ele>702</ele>
        <time>2013-05-22T07:05:18Z</time>
      </trkpt>
      <trkpt lat="43.32265" lon="5.70335">
        <ele>702.4</ele>
        <time>2013-05-22T07:05:27Z</time>
      </trkpt>
      <trkpt lat="43.32259" lon="5.70326">
        <ele>698.4</ele>
        <time>2013-05-22T07:05:37Z</time>
      </trkpt>
      <trkpt lat="43.32254" lon="5.70317">
        <ele>700.7</ele>
        <time>2013-05-22T07:05:46Z</time>
      </trkpt>
      <trkpt lat="43.32254" lon="5.70316">
        <ele>701</ele>
        <time>2013-05-22T07:05:47Z</time>
      </trkpt>
      <trkpt lat="43.32247" lon="5.70297">
        <ele>700.2</ele>
        <time>2013-05-22T07:06:02Z</time>
      </trkpt>
      <trkpt lat="43.32242" lon="5.70287">
        <ele>698</ele>
        <time>2013-05-22T07:06:15Z</time>
      </trkpt>
      <trkpt lat="43.32237" lon="5.70279">
        <ele>695</ele>
        <time>2013-05-22T07:06:24Z</time>
      </trkpt>
      <trkpt lat="43.32231" lon="5.7027">
        <ele>694</ele>
        <time>2013-05-22T07:06:33Z</time>
      </trkpt>
      <trkpt lat="43.32225" lon="5.70263">
        <ele>693.7</ele>
        <time>2013-05-22T07:06:41Z</time>
      </trkpt>
      <trkpt lat="43.32218" lon="5.70256">
        <ele>694.4</ele>
        <time>2013-05-22T07:06:49Z</time>
      </trkpt>
      <trkpt lat="43.32217" lon="5.70254">
        <ele>694.7</ele>
        <time>2013-05-22T07:06:50Z</time>
      </trkpt>
      <trkpt lat="43.32207" lon="5.70239">
        <ele>693.4</ele>
        <time>2013-05-22T07:07:03Z</time>
      </trkpt>
      <trkpt lat="43.32201" lon="5.70231">
        <ele>693.4</ele>
        <time>2013-05-22T07:07:09Z</time>
      </trkpt>
      <trkpt lat="43.32195" lon="5.70222">
        <ele>694.7</ele>
        <time>2013-05-22T07:07:17Z</time>
      </trkpt>
      <trkpt lat="43.3219" lon="5.70214">
        <ele>696.7</ele>
        <time>2013-05-22T07:07:25Z</time>
      </trkpt>
      <trkpt lat="43.32185" lon="5.70205">
        <ele>696.7</ele>
        <time>2013-05-22T07:07:32Z</time>
      </trkpt>
      <trkpt lat="43.32179" lon="5.70197">
        <ele>697.5</ele>
        <time>2013-05-22T07:07:40Z</time>
      </trkpt>
      <trkpt lat="43.32174" lon="5.70188">
        <ele>697.9</ele>
        <time>2013-05-22T07:07:47Z</time>
      </trkpt>
      <trkpt lat="43.32168" lon="5.70181">
        <ele>696.9</ele>
        <time>2013-05-22T07:07:55Z</time>
      </trkpt>
      <trkpt lat="43.32167" lon="5.7018">
        <ele>696.7</ele>
        <time>2013-05-22T07:07:56Z</time>
      </trkpt>
      <trkpt lat="43.32158" lon="5.70162">
        <ele>696</ele>
        <time>2013-05-22T07:08:15Z</time>
      </trkpt>
      <trkpt lat="43.3215" lon="5.70156">
        <ele>694.5</ele>
        <time>2013-05-22T07:08:38Z</time>
      </trkpt>
      <trkpt lat="43.32145" lon="5.70147">
        <ele>693.4</ele>
        <time>2013-05-22T07:08:47Z</time>
      </trkpt>
      <trkpt lat="43.3214" lon="5.70136">
        <ele>693.2</ele>
        <time>2013-05-22T07:08:56Z</time>
      </trkpt>
      <trkpt lat="43.3214" lon="5.70136">
        <ele>693.4</ele>
        <time>2013-05-22T07:08:57Z</time>
      </trkpt>
      <trkpt lat="43.32126" lon="5.70122">
        <ele>691</ele>
        <time>2013-05-22T07:09:10Z</time>
      </trkpt>
      <trkpt lat="43.32118" lon="5.70116">
        <ele>694</ele>
        <time>2013-05-22T07:09:17Z</time>
      </trkpt>
      <trkpt lat="43.32113" lon="5.70109">
        <ele>699.7</ele>
        <time>2013-05-22T07:09:24Z</time>
      </trkpt>
      <trkpt lat="43.32105" lon="5.70103">
        <ele>697.9</ele>
        <time>2013-05-22T07:09:32Z</time>
      </trkpt>
      <trkpt lat="43.321" lon="5.70093">
        <ele>699.7</ele>
        <time>2013-05-22T07:09:41Z</time>
      </trkpt>
      <trkpt lat="43.32096" lon="5.70082">
        <ele>705.5</ele>
        <time>2013-05-22T07:10:06Z</time>
      </trkpt>
      <trkpt lat="43.32096" lon="5.70081">
        <ele>705</ele>
        <time>2013-05-22T07:10:07Z</time>
      </trkpt>
      <trkpt lat="43.32094" lon="5.70059">
        <ele>697.2</ele>
        <time>2013-05-22T07:10:36Z</time>
      </trkpt>
      <trkpt lat="43.32096" lon="5.70047">
        <ele>699.5</ele>
        <time>2013-05-22T07:10:49Z</time>
      </trkpt>
      <trkpt lat="43.32101" lon="5.70037">
        <ele>708</ele>
        <time>2013-05-22T07:11:00Z</time>
      </trkpt>
      <trkpt lat="43.32107" lon="5.70029">
        <ele>712.4</ele>
        <time>2013-05-22T07:11:09Z</time>
      </trkpt>
      <trkpt lat="43.32108" lon="5.70028">
        <ele>713.4</ele>
        <time>2013-05-22T07:11:10Z</time>
      </trkpt>
      <trkpt lat="43.32115" lon="5.70012">
        <ele>717</ele>
        <time>2013-05-22T07:11:45Z</time>
      </trkpt>
      <trkpt lat="43.32108" lon="5.70003">
        <ele>714</ele>
        <time>2013-05-22T07:12:08Z</time>
      </trkpt>
      <trkpt lat="43.32103" lon="5.69994">
        <ele>713.7</ele>
        <time>2013-05-22T07:12:22Z</time>
      </trkpt>
      <trkpt lat="43.32103" lon="5.69993">
        <ele>714</ele>
        <time>2013-05-22T07:12:23Z</time>
      </trkpt>
      <trkpt lat="43.3209" lon="5.69978">
        <ele>711.9</ele>
        <time>2013-05-22T07:12:43Z</time>
      </trkpt>
      <trkpt lat="43.32085" lon="5.69968">
        <ele>708.2</ele>
        <time>2013-05-22T07:12:54Z</time>
      </trkpt>
      <trkpt lat="43.32079" lon="5.69958">
        <ele>712.5</ele>
        <time>2013-05-22T07:13:04Z</time>
      </trkpt>
      <trkpt lat="43.32073" lon="5.6995">
        <ele>717.2</ele>
        <time>2013-05-22T07:13:15Z</time>
      </trkpt>
      <trkpt lat="43.32067" lon="5.69942">
        <ele>715.7</ele>
        <time>2013-05-22T07:13:27Z</time>
      </trkpt>
      <trkpt lat="43.32066" lon="5.69941">
        <ele>715.5</ele>
        <time>2013-05-22T07:13:28Z</time>
      </trkpt>
      <trkpt lat="43.32054" lon="5.69927">
        <ele>720.2</ele>
        <time>2013-05-22T07:13:45Z</time>
      </trkpt>
      <trkpt lat="43.32047" lon="5.6992">
        <ele>721.7</ele>
        <time>2013-05-22T07:13:55Z</time>
      </trkpt>
      <trkpt lat="43.32041" lon="5.69912">
        <ele>728.7</ele>
        <time>2013-05-22T07:14:07Z</time>
      </trkpt>
      <trkpt lat="43.32035" lon="5.69904">
        <ele>725.4</ele>
        <time>2013-05-22T07:14:17Z</time>
      </trkpt>
      <trkpt lat="43.32029" lon="5.69895">
        <ele>726.7</ele>
        <time>2013-05-22T07:14:28Z</time>
      </trkpt>
      <trkpt lat="43.32029" lon="5.69894">
        <ele>726.5</ele>
        <time>2013-05-22T07:14:29Z</time>
      </trkpt>
      <trkpt lat="43.32017" lon="5.69878">
        <ele>726</ele>
        <time>2013-05-22T07:14:50Z</time>
      </trkpt>
      <trkpt lat="43.3201" lon="5.6987">
        <ele>723.5</ele>
        <time>2013-05-22T07:15:01Z</time>
      </trkpt>
      <trkpt lat="43.32005" lon="5.69861">
        <ele>722.5</ele>
        <time>2013-05-22T07:15:10Z</time>
      </trkpt>
      <trkpt lat="43.31999" lon="5.69853">
        <ele>722.5</ele>
        <time>2013-05-22T07:15:20Z</time>
      </trkpt>
      <trkpt lat="43.31992" lon="5.69848">
        <ele>721</ele>
        <time>2013-05-22T07:15:28Z</time>
      </trkpt>
      <trkpt lat="43.31987" lon="5.69839">
        <ele>723.5</ele>
        <time>2013-05-22T07:15:38Z</time>
      </trkpt>
      <trkpt lat="43.31987" lon="5.69838">
        <ele>722.7</ele>
        <time>2013-05-22T07:15:39Z</time>
      </trkpt>
      <trkpt lat="43.3198" lon="5.69818">
        <ele>724.7</ele>
        <time>2013-05-22T07:16:01Z</time>
      </trkpt>
      <trkpt lat="43.31973" lon="5.69811">
        <ele>728.9</ele>
        <time>2013-05-22T07:16:10Z</time>
      </trkpt>
      <trkpt lat="43.31967" lon="5.69803">
        <ele>735.5</ele>
        <time>2013-05-22T07:16:20Z</time>
      </trkpt>
      <trkpt lat="43.3196" lon="5.69795">
        <ele>740.7</ele>
        <time>2013-05-22T07:16:30Z</time>
      </trkpt>
      <trkpt lat="43.31954" lon="5.69786">
        <ele>735.5</ele>
        <time>2013-05-22T07:16:41Z</time>
      </trkpt>
      <trkpt lat="43.31954" lon="5.69785">
        <ele>736</ele>
        <time>2013-05-22T07:16:42Z</time>
      </trkpt>
      <trkpt lat="43.31945" lon="5.69766">
        <ele>740.9</ele>
        <time>2013-05-22T07:17:02Z</time>
      </trkpt>
      <trkpt lat="43.31937" lon="5.6976">
        <ele>741.4</ele>
        <time>2013-05-22T07:17:12Z</time>
      </trkpt>
      <trkpt lat="43.3193" lon="5.69753">
        <ele>734.4</ele>
        <time>2013-05-22T07:17:21Z</time>
      </trkpt>
      <trkpt lat="43.31924" lon="5.69745">
        <ele>731</ele>
        <time>2013-05-22T07:17:30Z</time>
      </trkpt>
      <trkpt lat="43.31918" lon="5.69736">
        <ele>729.5</ele>
        <time>2013-05-22T07:17:39Z</time>
      </trkpt>
      <trkpt lat="43.31914" lon="5.69727">
        <ele>737</ele>
        <time>2013-05-22T07:17:49Z</time>
      </trkpt>
      <trkpt lat="43.31913" lon="5.69725">
        <ele>737.2</ele>
        <time>2013-05-22T07:17:50Z</time>
      </trkpt>
      <trkpt lat="43.31904" lon="5.69708">
        <ele>743.4</ele>
        <time>2013-05-22T07:18:11Z</time>
      </trkpt>
      <trkpt lat="43.319" lon="5.69698">
        <ele>747</ele>
        <time>2013-05-22T07:18:22Z</time>
      </trkpt>
      <trkpt lat="43.31894" lon="5.69689">
        <ele>746.5</ele>
        <time>2013-05-22T07:18:32Z</time>
      </trkpt>
      <trkpt lat="43.3189" lon="5.69679">
        <ele>751.5</ele>
        <time>2013-05-22T07:18:42Z</time>
      </trkpt>
      <trkpt lat="43.31887" lon="5.69668">
        <ele>750</ele>
        <time>2013-05-22T07:18:52Z</time>
      </trkpt>
      <trkpt lat="43.31887" lon="5.69667">
        <ele>749.7</ele>
        <time>2013-05-22T07:18:53Z</time>
      </trkpt>
      <trkpt lat="43.31879" lon="5.69647">
        <ele>756.7</ele>
        <time>2013-05-22T07:19:08Z</time>
      </trkpt>
      <trkpt lat="43.31873" lon="5.69639">
        <ele>755.2</ele>
        <time>2013-05-22T07:19:18Z</time>
      </trkpt>
      <trkpt lat="43.31869" lon="5.69628">
        <ele>757.2</ele>
        <time>2013-05-22T07:19:28Z</time>
      </trkpt>
      <trkpt lat="43.31865" lon="5.69618">
        <ele>755.9</ele>
        <time>2013-05-22T07:19:39Z</time>
      </trkpt>
      <trkpt lat="43.3186" lon="5.69609">
        <ele>757.7</ele>
        <time>2013-05-22T07:19:50Z</time>
      </trkpt>
      <trkpt lat="43.31855" lon="5.69599">
        <ele>755</ele>
        <time>2013-05-22T07:20:01Z</time>
      </trkpt>
      <trkpt lat="43.31855" lon="5.69598">
        <ele>755.7</ele>
        <time>2013-05-22T07:20:02Z</time>
      </trkpt>
      <trkpt lat="43.31847" lon="5.69578">
        <ele>760.7</ele>
        <time>2013-05-22T07:20:20Z</time>
      </trkpt>
      <trkpt lat="43.31841" lon="5.69569">
        <ele>766</ele>
        <time>2013-05-22T07:20:30Z</time>
      </trkpt>
      <trkpt lat="43.31836" lon="5.6956">
        <ele>761.4</ele>
        <time>2013-05-22T07:20:40Z</time>
      </trkpt>
      <trkpt lat="43.31831" lon="5.6955">
        <ele>761.7</ele>
        <time>2013-05-22T07:20:51Z</time>
      </trkpt>
      <trkpt lat="43.31826" lon="5.6954">
        <ele>759.7</ele>
        <time>2013-05-22T07:21:00Z</time>
      </trkpt>
      <trkpt lat="43.31824" lon="5.69529">
        <ele>756.9</ele>
        <time>2013-05-22T07:21:11Z</time>
      </trkpt>
      <trkpt lat="43.31823" lon="5.69528">
        <ele>758.4</ele>
        <time>2013-05-22T07:21:12Z</time>
      </trkpt>
      <trkpt lat="43.31814" lon="5.6951">
        <ele>764.2</ele>
        <time>2013-05-22T07:21:29Z</time>
      </trkpt>
      <trkpt lat="43.31808" lon="5.69502">
        <ele>781.7</ele>
        <time>2013-05-22T07:23:42Z</time>
      </trkpt>
      <trkpt lat="43.31808" lon="5.69501">
        <ele>782</ele>
        <time>2013-05-22T07:23:43Z</time>
      </trkpt>
      <trkpt lat="43.31797" lon="5.69483">
        <ele>780</ele>
        <time>2013-05-22T07:24:45Z</time>
      </trkpt>
      <trkpt lat="43.31796" lon="5.69482">
        <ele>779.7</ele>
        <time>2013-05-22T07:24:46Z</time>
      </trkpt>
      <trkpt lat="43.31788" lon="5.69463">
        <ele>779.2</ele>
        <time>2013-05-22T07:25:28Z</time>
      </trkpt>
      <trkpt lat="43.31787" lon="5.69452">
        <ele>780</ele>
        <time>2013-05-22T07:25:37Z</time>
      </trkpt>
      <trkpt lat="43.31781" lon="5.69444">
        <ele>784.5</ele>
        <time>2013-05-22T07:25:50Z</time>
      </trkpt>
      <trkpt lat="43.31781" lon="5.69443">
        <ele>784.4</ele>
        <time>2013-05-22T07:25:51Z</time>
      </trkpt>
      <trkpt lat="43.3177" lon="5.69426">
        <ele>782.2</ele>
        <time>2013-05-22T07:26:10Z</time>
      </trkpt>
      <trkpt lat="43.31768" lon="5.69415">
        <ele>786.2</ele>
        <time>2013-05-22T07:26:24Z</time>
      </trkpt>
      <trkpt lat="43.31763" lon="5.69405">
        <ele>785.7</ele>
        <time>2013-05-22T07:26:33Z</time>
      </trkpt>
      <trkpt lat="43.31757" lon="5.69398">
        <ele>784.5</ele>
        <time>2013-05-22T07:26:41Z</time>
      </trkpt>
      <trkpt lat="43.31752" lon="5.69388">
        <ele>784.7</ele>
        <time>2013-05-22T07:26:51Z</time>
      </trkpt>
      <trkpt lat="43.31751" lon="5.69387">
        <ele>785</ele>
        <time>2013-05-22T07:26:52Z</time>
      </trkpt>
      <trkpt lat="43.31742" lon="5.69369">
        <ele>787.2</ele>
        <time>2013-05-22T07:27:12Z</time>
      </trkpt>
      <trkpt lat="43.31738" lon="5.69358">
        <ele>790.2</ele>
        <time>2013-05-22T07:27:24Z</time>
      </trkpt>
      <trkpt lat="43.31736" lon="5.69346">
        <ele>791.9</ele>
        <time>2013-05-22T07:27:37Z</time>
      </trkpt>
      <trkpt lat="43.31731" lon="5.69335">
        <ele>790</ele>
        <time>2013-05-22T07:27:51Z</time>
      </trkpt>
      <trkpt lat="43.31727" lon="5.69324">
        <ele>791.5</ele>
        <time>2013-05-22T07:28:03Z</time>
      </trkpt>
      <trkpt lat="43.31726" lon="5.69324">
        <ele>791.7</ele>
        <time>2013-05-22T07:28:04Z</time>
      </trkpt>
      <trkpt lat="43.31717" lon="5.69305">
        <ele>791.2</ele>
        <time>2013-05-22T07:28:31Z</time>
      </trkpt>
      <trkpt lat="43.31711" lon="5.69297">
        <ele>792.2</ele>
        <time>2013-05-22T07:28:42Z</time>
      </trkpt>
      <trkpt lat="43.31707" lon="5.69286">
        <ele>795.7</ele>
        <time>2013-05-22T07:28:56Z</time>
      </trkpt>
      <trkpt lat="43.31702" lon="5.69277">
        <ele>799.2</ele>
        <time>2013-05-22T07:29:06Z</time>
      </trkpt>
      <trkpt lat="43.31702" lon="5.69276">
        <ele>799.7</ele>
        <time>2013-05-22T07:29:07Z</time>
      </trkpt>
      <trkpt lat="43.31693" lon="5.69257">
        <ele>803.5</ele>
        <time>2013-05-22T07:29:29Z</time>
      </trkpt>
      <trkpt lat="43.31687" lon="5.69248">
        <ele>805.9</ele>
        <time>2013-05-22T07:29:48Z</time>
      </trkpt>
      <trkpt lat="43.31684" lon="5.69237">
        <ele>811.9</ele>
        <time>2013-05-22T07:30:11Z</time>
      </trkpt>
      <trkpt lat="43.31683" lon="5.69237">
        <ele>812</ele>
        <time>2013-05-22T07:30:12Z</time>
      </trkpt>
      <trkpt lat="43.31673" lon="5.69218">
        <ele>815.7</ele>
        <time>2013-05-22T07:30:45Z</time>
      </trkpt>
      <trkpt lat="43.31669" lon="5.69208">
        <ele>816.4</ele>
        <time>2013-05-22T07:31:01Z</time>
      </trkpt>
      <trkpt lat="43.31665" lon="5.69198">
        <ele>817.9</ele>
        <time>2013-05-22T07:31:19Z</time>
      </trkpt>
      <trkpt lat="43.31665" lon="5.69197">
        <ele>818.5</ele>
        <time>2013-05-22T07:31:20Z</time>
      </trkpt>
      <trkpt lat="43.31656" lon="5.69177">
        <ele>819.2</ele>
        <time>2013-05-22T07:31:50Z</time>
      </trkpt>
      <trkpt lat="43.31651" lon="5.69168">
        <ele>824.2</ele>
        <time>2013-05-22T07:32:10Z</time>
      </trkpt>
      <trkpt lat="43.31646" lon="5.69157">
        <ele>824.7</ele>
        <time>2013-05-22T07:32:25Z</time>
      </trkpt>
      <trkpt lat="43.31646" lon="5.69157">
        <ele>824.9</ele>
        <time>2013-05-22T07:32:26Z</time>
      </trkpt>
      <trkpt lat="43.31639" lon="5.69136">
        <ele>829</ele>
        <time>2013-05-22T07:32:58Z</time>
      </trkpt>
      <trkpt lat="43.31635" lon="5.69125">
        <ele>832</ele>
        <time>2013-05-22T07:33:13Z</time>
      </trkpt>
      <trkpt lat="43.31629" lon="5.69118">
        <ele>833.2</ele>
        <time>2013-05-22T07:33:26Z</time>
      </trkpt>
      <trkpt lat="43.31628" lon="5.69118">
        <ele>833.7</ele>
        <time>2013-05-22T07:33:27Z</time>
      </trkpt>
      <trkpt lat="43.31619" lon="5.69098">
        <ele>837.9</ele>
        <time>2013-05-22T07:34:08Z</time>
      </trkpt>
      <trkpt lat="43.31614" lon="5.69088">
        <ele>839</ele>
        <time>2013-05-22T07:34:23Z</time>
      </trkpt>
      <trkpt lat="43.3161" lon="5.69078">
        <ele>841.5</ele>
        <time>2013-05-22T07:34:39Z</time>
      </trkpt>
      <trkpt lat="43.31609" lon="5.69078">
        <ele>841.7</ele>
        <time>2013-05-22T07:34:40Z</time>
      </trkpt>
      <trkpt lat="43.31601" lon="5.69058">
        <ele>847.4</ele>
        <time>2013-05-22T07:35:10Z</time>
      </trkpt>
      <trkpt lat="43.31595" lon="5.69049">
        <ele>850.2</ele>
        <time>2013-05-22T07:35:25Z</time>
      </trkpt>
      <trkpt lat="43.31591" lon="5.69039">
        <ele>853.2</ele>
        <time>2013-05-22T07:35:52Z</time>
      </trkpt>
      <trkpt lat="43.3159" lon="5.69039">
        <ele>853.2</ele>
        <time>2013-05-22T07:35:53Z</time>
      </trkpt>
      <trkpt lat="43.31583" lon="5.69017">
        <ele>857</ele>
        <time>2013-05-22T07:36:30Z</time>
      </trkpt>
      <trkpt lat="43.31578" lon="5.69008">
        <ele>856</ele>
        <time>2013-05-22T07:36:43Z</time>
      </trkpt>
      <trkpt lat="43.31572" lon="5.68999">
        <ele>853.7</ele>
        <time>2013-05-22T07:36:58Z</time>
      </trkpt>
      <trkpt lat="43.31571" lon="5.68998">
        <ele>853.9</ele>
        <time>2013-05-22T07:36:59Z</time>
      </trkpt>
      <trkpt lat="43.31561" lon="5.68982">
        <ele>852.4</ele>
        <time>2013-05-22T07:37:24Z</time>
      </trkpt>
      <trkpt lat="43.31558" lon="5.68971">
        <ele>863.9</ele>
        <time>2013-05-22T07:38:05Z</time>
      </trkpt>
      <trkpt lat="43.31557" lon="5.6897">
        <ele>863.5</ele>
        <time>2013-05-22T07:38:06Z</time>
      </trkpt>
      <trkpt lat="43.31552" lon="5.6896">
        <ele>865.7</ele>
        <time>2013-05-22T07:44:14Z</time>
      </trkpt>
      <trkpt lat="43.31543" lon="5.68961">
        <ele>868.2</ele>
        <time>2013-05-22T07:45:45Z</time>
      </trkpt>
      <trkpt lat="43.31527" lon="5.68957">
        <ele>869.2</ele>
        <time>2013-05-22T07:46:04Z</time>
      </trkpt>
      <trkpt lat="43.31521" lon="5.6895">
        <ele>869.9</ele>
        <time>2013-05-22T07:46:16Z</time>
      </trkpt>
      <trkpt lat="43.31512" lon="5.68947">
        <ele>867.9</ele>
        <time>2013-05-22T07:46:28Z</time>
      </trkpt>
      <trkpt lat="43.31505" lon="5.68954">
        <ele>866.5</ele>
        <time>2013-05-22T07:46:43Z</time>
      </trkpt>
      <trkpt lat="43.31497" lon="5.68949">
        <ele>869</ele>
        <time>2013-05-22T07:47:31Z</time>
      </trkpt>
      <trkpt lat="43.31496" lon="5.68949">
        <ele>869</ele>
        <time>2013-05-22T07:47:32Z</time>
      </trkpt>
      <trkpt lat="43.3148" lon="5.6894">
        <ele>861.7</ele>
        <time>2013-05-22T07:47:56Z</time>
      </trkpt>
      <trkpt lat="43.31472" lon="5.68936">
        <ele>863</ele>
        <time>2013-05-22T07:48:05Z</time>
      </trkpt>
      <trkpt lat="43.31464" lon="5.68931">
        <ele>858.5</ele>
        <time>2013-05-22T07:48:18Z</time>
      </trkpt>
      <trkpt lat="43.31459" lon="5.68922">
        <ele>864.7</ele>
        <time>2013-05-22T07:48:42Z</time>
      </trkpt>
      <trkpt lat="43.31458" lon="5.68922">
        <ele>865.2</ele>
        <time>2013-05-22T07:48:43Z</time>
      </trkpt>
      <trkpt lat="43.31443" lon="5.68913">
        <ele>861.7</ele>
        <time>2013-05-22T07:49:05Z</time>
      </trkpt>
      <trkpt lat="43.31435" lon="5.68908">
        <ele>859.5</ele>
        <time>2013-05-22T07:49:18Z</time>
      </trkpt>
      <trkpt lat="43.31426" lon="5.68906">
        <ele>858.2</ele>
        <time>2013-05-22T07:49:28Z</time>
      </trkpt>
      <trkpt lat="43.31418" lon="5.68902">
        <ele>854.5</ele>
        <time>2013-05-22T07:49:40Z</time>
      </trkpt>
      <trkpt lat="43.3141" lon="5.68897">
        <ele>853</ele>
        <time>2013-05-22T07:49:51Z</time>
      </trkpt>
      <trkpt lat="43.3141" lon="5.68896">
        <ele>852.9</ele>
        <time>2013-05-22T07:49:52Z</time>
      </trkpt>
      <trkpt lat="43.31397" lon="5.68881">
        <ele>851.7</ele>
        <time>2013-05-22T07:50:13Z</time>
      </trkpt>
      <trkpt lat="43.31392" lon="5.68872">
        <ele>850.7</ele>
        <time>2013-05-22T07:50:24Z</time>
      </trkpt>
      <trkpt lat="43.31389" lon="5.68861">
        <ele>850.7</ele>
        <time>2013-05-22T07:50:34Z</time>
      </trkpt>
      <trkpt lat="43.31383" lon="5.68853">
        <ele>849.5</ele>
        <time>2013-05-22T07:50:45Z</time>
      </trkpt>
      <trkpt lat="43.31376" lon="5.68846">
        <ele>848.2</ele>
        <time>2013-05-22T07:50:56Z</time>
      </trkpt>
      <trkpt lat="43.31375" lon="5.68846">
        <ele>847.7</ele>
        <time>2013-05-22T07:50:57Z</time>
      </trkpt>
      <trkpt lat="43.31363" lon="5.6883">
        <ele>848.5</ele>
        <time>2013-05-22T07:51:56Z</time>
      </trkpt>
      <trkpt lat="43.31355" lon="5.6883">
        <ele>848.7</ele>
        <time>2013-05-22T07:52:49Z</time>
      </trkpt>
      <trkpt lat="43.31354" lon="5.6883">
        <ele>848.4</ele>
        <time>2013-05-22T07:52:50Z</time>
      </trkpt>
      <trkpt lat="43.31339" lon="5.68821">
        <ele>841</ele>
        <time>2013-05-22T07:53:22Z</time>
      </trkpt>
      <trkpt lat="43.31332" lon="5.68814">
        <ele>839.4</ele>
        <time>2013-05-22T07:53:31Z</time>
      </trkpt>
      <trkpt lat="43.31327" lon="5.68806">
        <ele>837.4</ele>
        <time>2013-05-22T07:53:39Z</time>
      </trkpt>
      <trkpt lat="43.31321" lon="5.68798">
        <ele>833.7</ele>
        <time>2013-05-22T07:53:51Z</time>
      </trkpt>
      <trkpt lat="43.3132" lon="5.68796">
        <ele>833.7</ele>
        <time>2013-05-22T07:53:52Z</time>
      </trkpt>
      <trkpt lat="43.31309" lon="5.6878">
        <ele>831.2</ele>
        <time>2013-05-22T07:54:16Z</time>
      </trkpt>
      <trkpt lat="43.31302" lon="5.68775">
        <ele>825</ele>
        <time>2013-05-22T07:54:31Z</time>
      </trkpt>
      <trkpt lat="43.31294" lon="5.68769">
        <ele>815.9</ele>
        <time>2013-05-22T07:54:49Z</time>
      </trkpt>
      <trkpt lat="43.31286" lon="5.68763">
        <ele>812</ele>
        <time>2013-05-22T07:55:02Z</time>
      </trkpt>
      <trkpt lat="43.31286" lon="5.68763">
        <ele>812.2</ele>
        <time>2013-05-22T07:55:03Z</time>
      </trkpt>
      <trkpt lat="43.31274" lon="5.68749">
        <ele>815.5</ele>
        <time>2013-05-22T07:55:16Z</time>
      </trkpt>
      <trkpt lat="43.31267" lon="5.68741">
        <ele>818</ele>
        <time>2013-05-22T07:55:23Z</time>
      </trkpt>
      <trkpt lat="43.31261" lon="5.68735">
        <ele>818.9</ele>
        <time>2013-05-22T07:55:31Z</time>
      </trkpt>
      <trkpt lat="43.31255" lon="5.68726">
        <ele>820.9</ele>
        <time>2013-05-22T07:55:38Z</time>
      </trkpt>
      <trkpt lat="43.31249" lon="5.68718">
        <ele>821.2</ele>
        <time>2013-05-22T07:55:46Z</time>
      </trkpt>
      <trkpt lat="43.31242" lon="5.68711">
        <ele>820.5</ele>
        <time>2013-05-22T07:55:56Z</time>
      </trkpt>
      <trkpt lat="43.31236" lon="5.68704">
        <ele>821</ele>
        <time>2013-05-22T07:56:05Z</time>
      </trkpt>
      <trkpt lat="43.31235" lon="5.68704">
        <ele>820.7</ele>
        <time>2013-05-22T07:56:06Z</time>
      </trkpt>
      <trkpt lat="43.31223" lon="5.6869">
        <ele>820</ele>
        <time>2013-05-22T07:56:25Z</time>
      </trkpt>
      <trkpt lat="43.31214" lon="5.68685">
        <ele>815.7</ele>
        <time>2013-05-22T07:56:38Z</time>
      </trkpt>
      <trkpt lat="43.31207" lon="5.6868">
        <ele>813.9</ele>
        <time>2013-05-22T07:56:49Z</time>
      </trkpt>
      <trkpt lat="43.31199" lon="5.68675">
        <ele>812.7</ele>
        <time>2013-05-22T07:57:03Z</time>
      </trkpt>
      <trkpt lat="43.3119" lon="5.68671">
        <ele>811.9</ele>
        <time>2013-05-22T07:57:14Z</time>
      </trkpt>
      <trkpt lat="43.31189" lon="5.68671">
        <ele>812</ele>
        <time>2013-05-22T07:57:15Z</time>
      </trkpt>
      <trkpt lat="43.31175" lon="5.68663">
        <ele>808.2</ele>
        <time>2013-05-22T07:57:36Z</time>
      </trkpt>
      <trkpt lat="43.31168" lon="5.68656">
        <ele>809.7</ele>
        <time>2013-05-22T07:57:45Z</time>
      </trkpt>
      <trkpt lat="43.31161" lon="5.6865">
        <ele>809</ele>
        <time>2013-05-22T07:57:56Z</time>
      </trkpt>
      <trkpt lat="43.31154" lon="5.68644">
        <ele>808.7</ele>
        <time>2013-05-22T07:58:09Z</time>
      </trkpt>
      <trkpt lat="43.31146" lon="5.68639">
        <ele>807.4</ele>
        <time>2013-05-22T07:58:22Z</time>
      </trkpt>
      <trkpt lat="43.31145" lon="5.68639">
        <ele>807</ele>
        <time>2013-05-22T07:58:23Z</time>
      </trkpt>
      <trkpt lat="43.31129" lon="5.68633">
        <ele>806.7</ele>
        <time>2013-05-22T07:58:43Z</time>
      </trkpt>
      <trkpt lat="43.3112" lon="5.6863">
        <ele>803.7</ele>
        <time>2013-05-22T07:58:53Z</time>
      </trkpt>
      <trkpt lat="43.31112" lon="5.68628">
        <ele>801.2</ele>
        <time>2013-05-22T07:59:03Z</time>
      </trkpt>
      <trkpt lat="43.31104" lon="5.68624">
        <ele>798.4</ele>
        <time>2013-05-22T07:59:15Z</time>
      </trkpt>
      <trkpt lat="43.31096" lon="5.68629">
        <ele>794.5</ele>
        <time>2013-05-22T07:59:25Z</time>
      </trkpt>
      <trkpt lat="43.31095" lon="5.68629">
        <ele>794.2</ele>
        <time>2013-05-22T07:59:26Z</time>
      </trkpt>
      <trkpt lat="43.31079" lon="5.68626">
        <ele>788.7</ele>
        <time>2013-05-22T07:59:52Z</time>
      </trkpt>
      <trkpt lat="43.3107" lon="5.68623">
        <ele>789.2</ele>
        <time>2013-05-22T08:00:00Z</time>
      </trkpt>
      <trkpt lat="43.31062" lon="5.68621">
        <ele>791</ele>
        <time>2013-05-22T08:00:12Z</time>
      </trkpt>
      <trkpt lat="43.31054" lon="5.68615">
        <ele>793</ele>
        <time>2013-05-22T08:00:20Z</time>
      </trkpt>
      <trkpt lat="43.31046" lon="5.68615">
        <ele>793.2</ele>
        <time>2013-05-22T08:00:30Z</time>
      </trkpt>
      <trkpt lat="43.31045" lon="5.68614">
        <ele>793.4</ele>
        <time>2013-05-22T08:00:31Z</time>
      </trkpt>
      <trkpt lat="43.31034" lon="5.68626">
        <ele>786.2</ele>
        <time>2013-05-22T08:00:49Z</time>
      </trkpt>
      <trkpt lat="43.31026" lon="5.68631">
        <ele>787</ele>
        <time>2013-05-22T08:01:01Z</time>
      </trkpt>
      <trkpt lat="43.31022" lon="5.68642">
        <ele>778.5</ele>
        <time>2013-05-22T08:01:16Z</time>
      </trkpt>
      <trkpt lat="43.31015" lon="5.68636">
        <ele>782.5</ele>
        <time>2013-05-22T08:01:32Z</time>
      </trkpt>
      <trkpt lat="43.31007" lon="5.68632">
        <ele>785.2</ele>
        <time>2013-05-22T08:01:41Z</time>
      </trkpt>
      <trkpt lat="43.31006" lon="5.68633">
        <ele>785</ele>
        <time>2013-05-22T08:01:42Z</time>
      </trkpt>
      <trkpt lat="43.30992" lon="5.68643">
        <ele>786.7</ele>
        <time>2013-05-22T08:02:14Z</time>
      </trkpt>
      <trkpt lat="43.30985" lon="5.6865">
        <ele>785</ele>
        <time>2013-05-22T08:02:26Z</time>
      </trkpt>
      <trkpt lat="43.30977" lon="5.68651">
        <ele>786</ele>
        <time>2013-05-22T08:02:37Z</time>
      </trkpt>
      <trkpt lat="43.30969" lon="5.68657">
        <ele>784.2</ele>
        <time>2013-05-22T08:02:46Z</time>
      </trkpt>
      <trkpt lat="43.30968" lon="5.68658">
        <ele>783.2</ele>
        <time>2013-05-22T08:02:47Z</time>
      </trkpt>
      <trkpt lat="43.30953" lon="5.68665">
        <ele>783.5</ele>
        <time>2013-05-22T08:03:09Z</time>
      </trkpt>
      <trkpt lat="43.30944" lon="5.68666">
        <ele>783.9</ele>
        <time>2013-05-22T08:03:24Z</time>
      </trkpt>
      <trkpt lat="43.30937" lon="5.68659">
        <ele>794.2</ele>
        <time>2013-05-22T08:04:06Z</time>
      </trkpt>
      <trkpt lat="43.30936" lon="5.68659">
        <ele>794.7</ele>
        <time>2013-05-22T08:04:07Z</time>
      </trkpt>
      <trkpt lat="43.30943" lon="5.68669">
        <ele>789.9</ele>
        <time>2013-05-22T08:07:29Z</time>
      </trkpt>
      <trkpt lat="43.30934" lon="5.68675">
        <ele>801.7</ele>
        <time>2013-05-22T08:08:58Z</time>
      </trkpt>
      <trkpt lat="43.30921" lon="5.68678">
        <ele>807.5</ele>
        <time>2013-05-22T08:10:05Z</time>
      </trkpt>
      <trkpt lat="43.30921" lon="5.68679">
        <ele>807.4</ele>
        <time>2013-05-22T08:10:06Z</time>
      </trkpt>
      <trkpt lat="43.30929" lon="5.68671">
        <ele>801</ele>
        <time>2013-05-22T08:11:29Z</time>
      </trkpt>
      <trkpt lat="43.30914" lon="5.68683">
        <ele>793.5</ele>
        <time>2013-05-22T08:12:23Z</time>
      </trkpt>
      <trkpt lat="43.30906" lon="5.68688">
        <ele>791.2</ele>
        <time>2013-05-22T08:12:35Z</time>
      </trkpt>
      <trkpt lat="43.30905" lon="5.68688">
        <ele>791.4</ele>
        <time>2013-05-22T08:12:36Z</time>
      </trkpt>
      <trkpt lat="43.30896" lon="5.68707">
        <ele>788.5</ele>
        <time>2013-05-22T08:12:59Z</time>
      </trkpt>
      <trkpt lat="43.30891" lon="5.68716">
        <ele>787.5</ele>
        <time>2013-05-22T08:13:10Z</time>
      </trkpt>
      <trkpt lat="43.30886" lon="5.68724">
        <ele>788</ele>
        <time>2013-05-22T08:13:18Z</time>
      </trkpt>
      <trkpt lat="43.30879" lon="5.68731">
        <ele>786.9</ele>
        <time>2013-05-22T08:13:28Z</time>
      </trkpt>
      <trkpt lat="43.30873" lon="5.68738">
        <ele>785.4</ele>
        <time>2013-05-22T08:13:40Z</time>
      </trkpt>
      <trkpt lat="43.30872" lon="5.68739">
        <ele>785.2</ele>
        <time>2013-05-22T08:13:41Z</time>
      </trkpt>
      <trkpt lat="43.30865" lon="5.68758">
        <ele>782.5</ele>
        <time>2013-05-22T08:13:58Z</time>
      </trkpt>
      <trkpt lat="43.30867" lon="5.6877">
        <ele>782.5</ele>
        <time>2013-05-22T08:14:08Z</time>
      </trkpt>
      <trkpt lat="43.3087" lon="5.68781">
        <ele>777.7</ele>
        <time>2013-05-22T08:14:29Z</time>
      </trkpt>
      <trkpt lat="43.30868" lon="5.68793">
        <ele>775.2</ele>
        <time>2013-05-22T08:15:14Z</time>
      </trkpt>
      <trkpt lat="43.30867" lon="5.68793">
        <ele>775.2</ele>
        <time>2013-05-22T08:15:15Z</time>
      </trkpt>
      <trkpt lat="43.30851" lon="5.68797">
        <ele>769</ele>
        <time>2013-05-22T08:15:59Z</time>
      </trkpt>
      <trkpt lat="43.30845" lon="5.68805">
        <ele>766.2</ele>
        <time>2013-05-22T08:16:13Z</time>
      </trkpt>
      <trkpt lat="43.30836" lon="5.68804">
        <ele>766.5</ele>
        <time>2013-05-22T08:16:23Z</time>
      </trkpt>
      <trkpt lat="43.30835" lon="5.68804">
        <ele>766.2</ele>
        <time>2013-05-22T08:16:24Z</time>
      </trkpt>
      <trkpt lat="43.3082" lon="5.688">
        <ele>763.4</ele>
        <time>2013-05-22T08:16:43Z</time>
      </trkpt>
      <trkpt lat="43.30811" lon="5.68801">
        <ele>763.2</ele>
        <time>2013-05-22T08:16:52Z</time>
      </trkpt>
      <trkpt lat="43.30804" lon="5.68795">
        <ele>761.7</ele>
        <time>2013-05-22T08:17:01Z</time>
      </trkpt>
      <trkpt lat="43.30797" lon="5.68789">
        <ele>761.5</ele>
        <time>2013-05-22T08:17:09Z</time>
      </trkpt>
      <trkpt lat="43.3079" lon="5.68781">
        <ele>757.7</ele>
        <time>2013-05-22T08:17:25Z</time>
      </trkpt>
      <trkpt lat="43.30789" lon="5.68781">
        <ele>757.5</ele>
        <time>2013-05-22T08:17:26Z</time>
      </trkpt>
      <trkpt lat="43.30775" lon="5.6877">
        <ele>752.2</ele>
        <time>2013-05-22T08:17:56Z</time>
      </trkpt>
      <trkpt lat="43.30767" lon="5.68767">
        <ele>752.4</ele>
        <time>2013-05-22T08:18:05Z</time>
      </trkpt>
      <trkpt lat="43.30759" lon="5.68761">
        <ele>752.9</ele>
        <time>2013-05-22T08:18:15Z</time>
      </trkpt>
      <trkpt lat="43.30752" lon="5.68756">
        <ele>752.4</ele>
        <time>2013-05-22T08:18:24Z</time>
      </trkpt>
      <trkpt lat="43.30744" lon="5.68752">
        <ele>751.7</ele>
        <time>2013-05-22T08:18:34Z</time>
      </trkpt>
      <trkpt lat="43.30743" lon="5.68751">
        <ele>751.5</ele>
        <time>2013-05-22T08:18:35Z</time>
      </trkpt>
      <trkpt lat="43.30728" lon="5.68748">
        <ele>749.2</ele>
        <time>2013-05-22T08:18:51Z</time>
      </trkpt>
      <trkpt lat="43.30719" lon="5.68749">
        <ele>747.7</ele>
        <time>2013-05-22T08:18:58Z</time>
      </trkpt>
      <trkpt lat="43.30711" lon="5.68749">
        <ele>752.7</ele>
        <time>2013-05-22T08:19:08Z</time>
      </trkpt>
      <trkpt lat="43.30703" lon="5.6875">
        <ele>756.5</ele>
        <time>2013-05-22T08:19:18Z</time>
      </trkpt>
      <trkpt lat="43.30695" lon="5.68748">
        <ele>757.2</ele>
        <time>2013-05-22T08:19:27Z</time>
      </trkpt>
      <trkpt lat="43.30687" lon="5.68753">
        <ele>755.5</ele>
        <time>2013-05-22T08:19:33Z</time>
      </trkpt>
      <trkpt lat="43.30678" lon="5.68754">
        <ele>752.2</ele>
        <time>2013-05-22T08:19:43Z</time>
      </trkpt>
      <trkpt lat="43.30678" lon="5.68754">
        <ele>751.5</ele>
        <time>2013-05-22T08:19:44Z</time>
      </trkpt>
      <trkpt lat="43.30662" lon="5.68743">
        <ele>757.2</ele>
        <time>2013-05-22T08:20:09Z</time>
      </trkpt>
      <trkpt lat="43.30654" lon="5.68743">
        <ele>751.2</ele>
        <time>2013-05-22T08:20:26Z</time>
      </trkpt>
      <trkpt lat="43.30646" lon="5.68738">
        <ele>747.5</ele>
        <time>2013-05-22T08:20:39Z</time>
      </trkpt>
      <trkpt lat="43.3064" lon="5.68729">
        <ele>752.2</ele>
        <time>2013-05-22T08:20:49Z</time>
      </trkpt>
      <trkpt lat="43.3064" lon="5.68726">
        <ele>755</ele>
        <time>2013-05-22T08:20:50Z</time>
      </trkpt>
      <trkpt lat="43.30627" lon="5.68715">
        <ele>765.2</ele>
        <time>2013-05-22T08:21:13Z</time>
      </trkpt>
      <trkpt lat="43.30619" lon="5.68712">
        <ele>767</ele>
        <time>2013-05-22T08:21:26Z</time>
      </trkpt>
      <trkpt lat="43.30611" lon="5.68706">
        <ele>772.4</ele>
        <time>2013-05-22T08:21:41Z</time>
      </trkpt>
      <trkpt lat="43.30603" lon="5.68703">
        <ele>774.4</ele>
        <time>2013-05-22T08:22:00Z</time>
      </trkpt>
      <trkpt lat="43.30602" lon="5.68704">
        <ele>773.7</ele>
        <time>2013-05-22T08:22:01Z</time>
      </trkpt>
      <trkpt lat="43.30586" lon="5.687">
        <ele>779.2</ele>
        <time>2013-05-22T08:22:32Z</time>
      </trkpt>
      <trkpt lat="43.30579" lon="5.68693">
        <ele>782.9</ele>
        <time>2013-05-22T08:22:45Z</time>
      </trkpt>
      <trkpt lat="43.3057" lon="5.68693">
        <ele>784</ele>
        <time>2013-05-22T08:23:03Z</time>
      </trkpt>
      <trkpt lat="43.30569" lon="5.68693">
        <ele>783.7</ele>
        <time>2013-05-22T08:23:04Z</time>
      </trkpt>
      <trkpt lat="43.30554" lon="5.68687">
        <ele>783.9</ele>
        <time>2013-05-22T08:23:49Z</time>
      </trkpt>
      <trkpt lat="43.30558" lon="5.68697">
        <ele>793.2</ele>
        <time>2013-05-22T08:24:25Z</time>
      </trkpt>
      <trkpt lat="43.30559" lon="5.68697">
        <ele>793.7</ele>
        <time>2013-05-22T08:24:26Z</time>
      </trkpt>
      <trkpt lat="43.30572" lon="5.68713">
        <ele>796.2</ele>
        <time>2013-05-22T08:25:14Z</time>
      </trkpt>
      <trkpt lat="43.30577" lon="5.68723">
        <ele>794.2</ele>
        <time>2013-05-22T08:25:42Z</time>
      </trkpt>
      <trkpt lat="43.30577" lon="5.68724">
        <ele>794.5</ele>
        <time>2013-05-22T08:25:43Z</time>
      </trkpt>
      <trkpt lat="43.30587" lon="5.68742">
        <ele>806.5</ele>
        <time>2013-05-22T08:26:23Z</time>
      </trkpt>
      <trkpt lat="43.30592" lon="5.68752">
        <ele>807.2</ele>
        <time>2013-05-22T08:26:38Z</time>
      </trkpt>
      <trkpt lat="43.30589" lon="5.68764">
        <ele>802.9</ele>
        <time>2013-05-22T08:27:02Z</time>
      </trkpt>
      <trkpt lat="43.3059" lon="5.68764">
        <ele>802.5</ele>
        <time>2013-05-22T08:27:03Z</time>
      </trkpt>
      <trkpt lat="43.30596" lon="5.68785">
        <ele>818.7</ele>
        <time>2013-05-22T08:27:53Z</time>
      </trkpt>
      <trkpt lat="43.30588" lon="5.68785">
        <ele>813.9</ele>
        <time>2013-05-22T08:28:21Z</time>
      </trkpt>
      <trkpt lat="43.30587" lon="5.68785">
        <ele>813.7</ele>
        <time>2013-05-22T08:28:22Z</time>
      </trkpt>
      <trkpt lat="43.30575" lon="5.68771">
        <ele>814</ele>
        <time>2013-05-22T08:28:44Z</time>
      </trkpt>
      <trkpt lat="43.30569" lon="5.68762">
        <ele>817.2</ele>
        <time>2013-05-22T08:28:56Z</time>
      </trkpt>
      <trkpt lat="43.30565" lon="5.68752">
        <ele>820.5</ele>
        <time>2013-05-22T08:29:07Z</time>
      </trkpt>
      <trkpt lat="43.30559" lon="5.68744">
        <ele>822.5</ele>
        <time>2013-05-22T08:29:17Z</time>
      </trkpt>
      <trkpt lat="43.30553" lon="5.68736">
        <ele>822.2</ele>
        <time>2013-05-22T08:29:26Z</time>
      </trkpt>
      <trkpt lat="43.30552" lon="5.68735">
        <ele>822.9</ele>
        <time>2013-05-22T08:29:27Z</time>
      </trkpt>
      <trkpt lat="43.30543" lon="5.68717">
        <ele>823.2</ele>
        <time>2013-05-22T08:31:09Z</time>
      </trkpt>
      <trkpt lat="43.30542" lon="5.68716">
        <ele>822.9</ele>
        <time>2013-05-22T08:31:10Z</time>
      </trkpt>
      <trkpt lat="43.30532" lon="5.68699">
        <ele>817.7</ele>
        <time>2013-05-22T08:31:29Z</time>
      </trkpt>
      <trkpt lat="43.30526" lon="5.68692">
        <ele>816.7</ele>
        <time>2013-05-22T08:31:38Z</time>
      </trkpt>
      <trkpt lat="43.30521" lon="5.68682">
        <ele>815.9</ele>
        <time>2013-05-22T08:31:57Z</time>
      </trkpt>
      <trkpt lat="43.30516" lon="5.68672">
        <ele>811.5</ele>
        <time>2013-05-22T08:32:43Z</time>
      </trkpt>
      <trkpt lat="43.30516" lon="5.68671">
        <ele>811.5</ele>
        <time>2013-05-22T08:32:44Z</time>
      </trkpt>
      <trkpt lat="43.30518" lon="5.6865">
        <ele>811</ele>
        <time>2013-05-22T08:33:03Z</time>
      </trkpt>
      <trkpt lat="43.30511" lon="5.68643">
        <ele>806.4</ele>
        <time>2013-05-22T08:33:25Z</time>
      </trkpt>
      <trkpt lat="43.30503" lon="5.68646">
        <ele>801.9</ele>
        <time>2013-05-22T08:34:58Z</time>
      </trkpt>
      <trkpt lat="43.30502" lon="5.68647">
        <ele>801.5</ele>
        <time>2013-05-22T08:34:59Z</time>
      </trkpt>
      <trkpt lat="43.30491" lon="5.68631">
        <ele>795</ele>
        <time>2013-05-22T08:35:38Z</time>
      </trkpt>
      <trkpt lat="43.3049" lon="5.68619">
        <ele>794</ele>
        <time>2013-05-22T08:35:46Z</time>
      </trkpt>
      <trkpt lat="43.30486" lon="5.68608">
        <ele>793.2</ele>
        <time>2013-05-22T08:35:56Z</time>
      </trkpt>
      <trkpt lat="43.30483" lon="5.68597">
        <ele>790.4</ele>
        <time>2013-05-22T08:36:11Z</time>
      </trkpt>
      <trkpt lat="43.30483" lon="5.68596">
        <ele>790.4</ele>
        <time>2013-05-22T08:36:12Z</time>
      </trkpt>
      <trkpt lat="43.30476" lon="5.68576">
        <ele>788.5</ele>
        <time>2013-05-22T08:36:33Z</time>
      </trkpt>
      <trkpt lat="43.30471" lon="5.68565">
        <ele>787.2</ele>
        <time>2013-05-22T08:36:43Z</time>
      </trkpt>
      <trkpt lat="43.30466" lon="5.68556">
        <ele>787.5</ele>
        <time>2013-05-22T08:36:51Z</time>
      </trkpt>
      <trkpt lat="43.30462" lon="5.68546">
        <ele>785.7</ele>
        <time>2013-05-22T08:36:58Z</time>
      </trkpt>
      <trkpt lat="43.30458" lon="5.68535">
        <ele>784.5</ele>
        <time>2013-05-22T08:37:08Z</time>
      </trkpt>
      <trkpt lat="43.30454" lon="5.68525">
        <ele>784</ele>
        <time>2013-05-22T08:37:16Z</time>
      </trkpt>
      <trkpt lat="43.30453" lon="5.68524">
        <ele>784</ele>
        <time>2013-05-22T08:37:17Z</time>
      </trkpt>
      <trkpt lat="43.30446" lon="5.68503">
        <ele>783</ele>
        <time>2013-05-22T08:37:34Z</time>
      </trkpt>
      <trkpt lat="43.30443" lon="5.68492">
        <ele>782.7</ele>
        <time>2013-05-22T08:37:42Z</time>
      </trkpt>
      <trkpt lat="43.30439" lon="5.68482">
        <ele>781.5</ele>
        <time>2013-05-22T08:37:51Z</time>
      </trkpt>
      <trkpt lat="43.30431" lon="5.68476">
        <ele>779.5</ele>
        <time>2013-05-22T08:38:01Z</time>
      </trkpt>
      <trkpt lat="43.30424" lon="5.68469">
        <ele>777.9</ele>
        <time>2013-05-22T08:38:11Z</time>
      </trkpt>
      <trkpt lat="43.30418" lon="5.68461">
        <ele>776.5</ele>
        <time>2013-05-22T08:38:21Z</time>
      </trkpt>
      <trkpt lat="43.30418" lon="5.6846">
        <ele>776.4</ele>
        <time>2013-05-22T08:38:22Z</time>
      </trkpt>
      <trkpt lat="43.30407" lon="5.68444">
        <ele>772.2</ele>
        <time>2013-05-22T08:38:41Z</time>
      </trkpt>
      <trkpt lat="43.30401" lon="5.68436">
        <ele>770.7</ele>
        <time>2013-05-22T08:38:51Z</time>
      </trkpt>
      <trkpt lat="43.30395" lon="5.68427">
        <ele>769.4</ele>
        <time>2013-05-22T08:38:59Z</time>
      </trkpt>
      <trkpt lat="43.30389" lon="5.68418">
        <ele>769</ele>
        <time>2013-05-22T08:39:07Z</time>
      </trkpt>
      <trkpt lat="43.30384" lon="5.68408">
        <ele>768.2</ele>
        <time>2013-05-22T08:39:16Z</time>
      </trkpt>
      <trkpt lat="43.30378" lon="5.68399">
        <ele>768</ele>
        <time>2013-05-22T08:39:25Z</time>
      </trkpt>
      <trkpt lat="43.30377" lon="5.68398">
        <ele>768</ele>
        <time>2013-05-22T08:39:26Z</time>
      </trkpt>
      <trkpt lat="43.30366" lon="5.68384">
        <ele>766.7</ele>
        <time>2013-05-22T08:39:40Z</time>
      </trkpt>
      <trkpt lat="43.3036" lon="5.68376">
        <ele>766.2</ele>
        <time>2013-05-22T08:39:47Z</time>
      </trkpt>
      <trkpt lat="43.30355" lon="5.68369">
        <ele>765.5</ele>
        <time>2013-05-22T08:39:54Z</time>
      </trkpt>
      <trkpt lat="43.30349" lon="5.6836">
        <ele>765</ele>
        <time>2013-05-22T08:40:02Z</time>
      </trkpt>
      <trkpt lat="43.30343" lon="5.68351">
        <ele>764.7</ele>
        <time>2013-05-22T08:40:11Z</time>
      </trkpt>
      <trkpt lat="43.30338" lon="5.68342">
        <ele>764.4</ele>
        <time>2013-05-22T08:40:19Z</time>
      </trkpt>
      <trkpt lat="43.30334" lon="5.68331">
        <ele>763.7</ele>
        <time>2013-05-22T08:40:28Z</time>
      </trkpt>
      <trkpt lat="43.30333" lon="5.6833">
        <ele>763.7</ele>
        <time>2013-05-22T08:40:29Z</time>
      </trkpt>
      <trkpt lat="43.30324" lon="5.68312">
        <ele>761</ele>
        <time>2013-05-22T08:40:47Z</time>
      </trkpt>
      <trkpt lat="43.30317" lon="5.68305">
        <ele>758.5</ele>
        <time>2013-05-22T08:40:59Z</time>
      </trkpt>
      <trkpt lat="43.30311" lon="5.68297">
        <ele>756.2</ele>
        <time>2013-05-22T08:41:09Z</time>
      </trkpt>
      <trkpt lat="43.30305" lon="5.68289">
        <ele>755.2</ele>
        <time>2013-05-22T08:41:20Z</time>
      </trkpt>
      <trkpt lat="43.30298" lon="5.68281">
        <ele>754</ele>
        <time>2013-05-22T08:41:33Z</time>
      </trkpt>
      <trkpt lat="43.30298" lon="5.6828">
        <ele>753.9</ele>
        <time>2013-05-22T08:41:34Z</time>
      </trkpt>
      <trkpt lat="43.30291" lon="5.6826">
        <ele>750</ele>
        <time>2013-05-22T08:42:10Z</time>
      </trkpt>
      <trkpt lat="43.30283" lon="5.68254">
        <ele>748.7</ele>
        <time>2013-05-22T08:42:26Z</time>
      </trkpt>
      <trkpt lat="43.30277" lon="5.68245">
        <ele>745.5</ele>
        <time>2013-05-22T08:42:40Z</time>
      </trkpt>
      <trkpt lat="43.30276" lon="5.68245">
        <ele>745.2</ele>
        <time>2013-05-22T08:42:41Z</time>
      </trkpt>
      <trkpt lat="43.30265" lon="5.6823">
        <ele>742.4</ele>
        <time>2013-05-22T08:43:07Z</time>
      </trkpt>
      <trkpt lat="43.30258" lon="5.68224">
        <ele>740.2</ele>
        <time>2013-05-22T08:43:19Z</time>
      </trkpt>
      <trkpt lat="43.30252" lon="5.68216">
        <ele>738</ele>
        <time>2013-05-22T08:43:30Z</time>
      </trkpt>
      <trkpt lat="43.30245" lon="5.68208">
        <ele>736.2</ele>
        <time>2013-05-22T08:43:46Z</time>
      </trkpt>
      <trkpt lat="43.30245" lon="5.68207">
        <ele>736</ele>
        <time>2013-05-22T08:43:47Z</time>
      </trkpt>
      <trkpt lat="43.3023" lon="5.68196">
        <ele>731.2</ele>
        <time>2013-05-22T08:44:09Z</time>
      </trkpt>
      <trkpt lat="43.30224" lon="5.68188">
        <ele>728.4</ele>
        <time>2013-05-22T08:44:22Z</time>
      </trkpt>
      <trkpt lat="43.30217" lon="5.68181">
        <ele>725.2</ele>
        <time>2013-05-22T08:44:35Z</time>
      </trkpt>
      <trkpt lat="43.30209" lon="5.68176">
        <ele>722</ele>
        <time>2013-05-22T08:44:48Z</time>
      </trkpt>
      <trkpt lat="43.30208" lon="5.68175">
        <ele>721.7</ele>
        <time>2013-05-22T08:44:49Z</time>
      </trkpt>
      <trkpt lat="43.30193" lon="5.68167">
        <ele>717.4</ele>
        <time>2013-05-22T08:45:14Z</time>
      </trkpt>
      <trkpt lat="43.30185" lon="5.68161">
        <ele>717</ele>
        <time>2013-05-22T08:45:27Z</time>
      </trkpt>
      <trkpt lat="43.30176" lon="5.6816">
        <ele>715</ele>
        <time>2013-05-22T08:45:38Z</time>
      </trkpt>
      <trkpt lat="43.30168" lon="5.68159">
        <ele>713.2</ele>
        <time>2013-05-22T08:45:51Z</time>
      </trkpt>
      <trkpt lat="43.30167" lon="5.68159">
        <ele>713</ele>
        <time>2013-05-22T08:45:52Z</time>
      </trkpt>
      <trkpt lat="43.30151" lon="5.68157">
        <ele>710</ele>
        <time>2013-05-22T08:46:13Z</time>
      </trkpt>
      <trkpt lat="43.30143" lon="5.68153">
        <ele>706.9</ele>
        <time>2013-05-22T08:46:26Z</time>
      </trkpt>
      <trkpt lat="43.30134" lon="5.68153">
        <ele>706.7</ele>
        <time>2013-05-22T08:46:37Z</time>
      </trkpt>
      <trkpt lat="43.30126" lon="5.68148">
        <ele>704.5</ele>
        <time>2013-05-22T08:46:50Z</time>
      </trkpt>
      <trkpt lat="43.30118" lon="5.68145">
        <ele>700.7</ele>
        <time>2013-05-22T08:47:05Z</time>
      </trkpt>
      <trkpt lat="43.30117" lon="5.68145">
        <ele>700.9</ele>
        <time>2013-05-22T08:47:06Z</time>
      </trkpt>
      <trkpt lat="43.301" lon="5.68144">
        <ele>698.5</ele>
        <time>2013-05-22T08:47:34Z</time>
      </trkpt>
      <trkpt lat="43.30092" lon="5.68144">
        <ele>697.7</ele>
        <time>2013-05-22T08:47:43Z</time>
      </trkpt>
      <trkpt lat="43.30083" lon="5.68147">
        <ele>699.2</ele>
        <time>2013-05-22T08:47:53Z</time>
      </trkpt>
      <trkpt lat="43.30076" lon="5.68153">
        <ele>700.7</ele>
        <time>2013-05-22T08:48:45Z</time>
      </trkpt>
      <trkpt lat="43.30076" lon="5.68154">
        <ele>701</ele>
        <time>2013-05-22T08:48:46Z</time>
      </trkpt>
      <trkpt lat="43.30078" lon="5.68166">
        <ele>698</ele>
        <time>2013-05-22T08:51:34Z</time>
      </trkpt>
      <trkpt lat="43.30077" lon="5.68188">
        <ele>697.5</ele>
        <time>2013-05-22T08:51:50Z</time>
      </trkpt>
      <trkpt lat="43.30077" lon="5.68199">
        <ele>699.2</ele>
        <time>2013-05-22T08:51:57Z</time>
      </trkpt>
      <trkpt lat="43.30077" lon="5.6821">
        <ele>699.7</ele>
        <time>2013-05-22T08:52:05Z</time>
      </trkpt>
      <trkpt lat="43.30078" lon="5.68222">
        <ele>699.4</ele>
        <time>2013-05-22T08:52:13Z</time>
      </trkpt>
      <trkpt lat="43.3008" lon="5.68234">
        <ele>697.7</ele>
        <time>2013-05-22T08:52:21Z</time>
      </trkpt>
      <trkpt lat="43.3008" lon="5.68245">
        <ele>699.5</ele>
        <time>2013-05-22T08:52:27Z</time>
      </trkpt>
      <trkpt lat="43.3008" lon="5.68256">
        <ele>700.5</ele>
        <time>2013-05-22T08:52:34Z</time>
      </trkpt>
      <trkpt lat="43.3008" lon="5.68258">
        <ele>701</ele>
        <time>2013-05-22T08:52:35Z</time>
      </trkpt>
      <trkpt lat="43.30086" lon="5.68279">
        <ele>702</ele>
        <time>2013-05-22T08:53:06Z</time>
      </trkpt>
      <trkpt lat="43.30088" lon="5.6829">
        <ele>702</ele>
        <time>2013-05-22T08:53:14Z</time>
      </trkpt>
      <trkpt lat="43.30091" lon="5.68301">
        <ele>700.9</ele>
        <time>2013-05-22T08:53:21Z</time>
      </trkpt>
      <trkpt lat="43.30095" lon="5.68311">
        <ele>703</ele>
        <time>2013-05-22T08:53:28Z</time>
      </trkpt>
      <trkpt lat="43.30098" lon="5.68321">
        <ele>705</ele>
        <time>2013-05-22T08:53:35Z</time>
      </trkpt>
      <trkpt lat="43.30098" lon="5.68323">
        <ele>704.7</ele>
        <time>2013-05-22T08:53:36Z</time>
      </trkpt>
      <trkpt lat="43.30102" lon="5.68344">
        <ele>702.2</ele>
        <time>2013-05-22T08:53:49Z</time>
      </trkpt>
      <trkpt lat="43.30105" lon="5.68356">
        <ele>701.7</ele>
        <time>2013-05-22T08:53:56Z</time>
      </trkpt>
      <trkpt lat="43.30106" lon="5.68367">
        <ele>702.2</ele>
        <time>2013-05-22T08:54:03Z</time>
      </trkpt>
      <trkpt lat="43.3011" lon="5.68377">
        <ele>700.2</ele>
        <time>2013-05-22T08:54:12Z</time>
      </trkpt>
      <trkpt lat="43.30114" lon="5.68388">
        <ele>701.2</ele>
        <time>2013-05-22T08:54:20Z</time>
      </trkpt>
      <trkpt lat="43.30119" lon="5.68396">
        <ele>699</ele>
        <time>2013-05-22T08:54:29Z</time>
      </trkpt>
      <trkpt lat="43.30122" lon="5.68408">
        <ele>700</ele>
        <time>2013-05-22T08:54:38Z</time>
      </trkpt>
      <trkpt lat="43.30122" lon="5.68409">
        <ele>699.9</ele>
        <time>2013-05-22T08:54:39Z</time>
      </trkpt>
      <trkpt lat="43.30129" lon="5.68429">
        <ele>702.7</ele>
        <time>2013-05-22T08:54:57Z</time>
      </trkpt>
      <trkpt lat="43.3013" lon="5.68441">
        <ele>702.2</ele>
        <time>2013-05-22T08:55:05Z</time>
      </trkpt>
      <trkpt lat="43.3013" lon="5.68453">
        <ele>705.7</ele>
        <time>2013-05-22T08:55:12Z</time>
      </trkpt>
      <trkpt lat="43.30132" lon="5.68464">
        <ele>707.7</ele>
        <time>2013-05-22T08:55:20Z</time>
      </trkpt>
      <trkpt lat="43.30135" lon="5.68476">
        <ele>708.2</ele>
        <time>2013-05-22T08:55:30Z</time>
      </trkpt>
      <trkpt lat="43.30138" lon="5.68487">
        <ele>703.7</ele>
        <time>2013-05-22T08:55:41Z</time>
      </trkpt>
      <trkpt lat="43.30138" lon="5.68488">
        <ele>703.7</ele>
        <time>2013-05-22T08:55:42Z</time>
      </trkpt>
      <trkpt lat="43.30143" lon="5.68509">
        <ele>708</ele>
        <time>2013-05-22T08:55:56Z</time>
      </trkpt>
      <trkpt lat="43.30145" lon="5.68521">
        <ele>709.2</ele>
        <time>2013-05-22T08:56:05Z</time>
      </trkpt>
      <trkpt lat="43.30149" lon="5.68531">
        <ele>709.2</ele>
        <time>2013-05-22T08:56:13Z</time>
      </trkpt>
      <trkpt lat="43.30152" lon="5.68541">
        <ele>708.7</ele>
        <time>2013-05-22T08:56:21Z</time>
      </trkpt>
      <trkpt lat="43.30155" lon="5.68553">
        <ele>708.2</ele>
        <time>2013-05-22T08:56:29Z</time>
      </trkpt>
      <trkpt lat="43.30155" lon="5.68564">
        <ele>709.2</ele>
        <time>2013-05-22T08:56:37Z</time>
      </trkpt>
      <trkpt lat="43.30155" lon="5.68576">
        <ele>709.4</ele>
        <time>2013-05-22T08:56:45Z</time>
      </trkpt>
      <trkpt lat="43.30156" lon="5.68577">
        <ele>709.2</ele>
        <time>2013-05-22T08:56:46Z</time>
      </trkpt>
      <trkpt lat="43.30167" lon="5.68594">
        <ele>709.7</ele>
        <time>2013-05-22T08:57:01Z</time>
      </trkpt>
      <trkpt lat="43.3017" lon="5.68604">
        <ele>709.5</ele>
        <time>2013-05-22T08:57:11Z</time>
      </trkpt>
      <trkpt lat="43.30176" lon="5.68613">
        <ele>705.7</ele>
        <time>2013-05-22T08:57:21Z</time>
      </trkpt>
      <trkpt lat="43.30181" lon="5.68622">
        <ele>704.9</ele>
        <time>2013-05-22T08:57:31Z</time>
      </trkpt>
      <trkpt lat="43.30184" lon="5.68633">
        <ele>705</ele>
        <time>2013-05-22T08:57:40Z</time>
      </trkpt>
      <trkpt lat="43.30188" lon="5.68644">
        <ele>708.4</ele>
        <time>2013-05-22T08:57:49Z</time>
      </trkpt>
      <trkpt lat="43.30188" lon="5.68645">
        <ele>708</ele>
        <time>2013-05-22T08:57:50Z</time>
      </trkpt>
      <trkpt lat="43.30196" lon="5.68664">
        <ele>712.4</ele>
        <time>2013-05-22T08:58:06Z</time>
      </trkpt>
      <trkpt lat="43.30202" lon="5.68673">
        <ele>712</ele>
        <time>2013-05-22T08:58:15Z</time>
      </trkpt>
      <trkpt lat="43.30208" lon="5.68682">
        <ele>713.4</ele>
        <time>2013-05-22T08:58:23Z</time>
      </trkpt>
      <trkpt lat="43.30213" lon="5.6869">
        <ele>711.2</ele>
        <time>2013-05-22T08:58:32Z</time>
      </trkpt>
      <trkpt lat="43.30216" lon="5.68701">
        <ele>712.2</ele>
        <time>2013-05-22T08:58:39Z</time>
      </trkpt>
      <trkpt lat="43.30218" lon="5.68712">
        <ele>712</ele>
        <time>2013-05-22T08:58:47Z</time>
      </trkpt>
      <trkpt lat="43.30222" lon="5.68723">
        <ele>714</ele>
        <time>2013-05-22T08:58:55Z</time>
      </trkpt>
      <trkpt lat="43.30222" lon="5.68725">
        <ele>714.2</ele>
        <time>2013-05-22T08:58:56Z</time>
      </trkpt>
      <trkpt lat="43.30229" lon="5.68744">
        <ele>706</ele>
        <time>2013-05-22T08:59:16Z</time>
      </trkpt>
      <trkpt lat="43.30231" lon="5.68755">
        <ele>707.5</ele>
        <time>2013-05-22T08:59:24Z</time>
      </trkpt>
      <trkpt lat="43.30232" lon="5.68767">
        <ele>711.2</ele>
        <time>2013-05-22T08:59:32Z</time>
      </trkpt>
      <trkpt lat="43.30236" lon="5.68777">
        <ele>713.5</ele>
        <time>2013-05-22T08:59:41Z</time>
      </trkpt>
      <trkpt lat="43.30242" lon="5.68787">
        <ele>716</ele>
        <time>2013-05-22T08:59:51Z</time>
      </trkpt>
      <trkpt lat="43.30247" lon="5.68796">
        <ele>717.5</ele>
        <time>2013-05-22T09:00:00Z</time>
      </trkpt>
      <trkpt lat="43.30248" lon="5.68797">
        <ele>717.5</ele>
        <time>2013-05-22T09:00:01Z</time>
      </trkpt>
      <trkpt lat="43.30255" lon="5.68817">
        <ele>717</ele>
        <time>2013-05-22T09:00:20Z</time>
      </trkpt>
      <trkpt lat="43.3026" lon="5.68827">
        <ele>716.7</ele>
        <time>2013-05-22T09:00:30Z</time>
      </trkpt>
      <trkpt lat="43.30261" lon="5.68839">
        <ele>717.9</ele>
        <time>2013-05-22T09:00:40Z</time>
      </trkpt>
      <trkpt lat="43.30262" lon="5.68851">
        <ele>716.2</ele>
        <time>2013-05-22T09:00:51Z</time>
      </trkpt>
      <trkpt lat="43.30264" lon="5.68863">
        <ele>716.9</ele>
        <time>2013-05-22T09:01:01Z</time>
      </trkpt>
      <trkpt lat="43.30264" lon="5.68864">
        <ele>717</ele>
        <time>2013-05-22T09:01:02Z</time>
      </trkpt>
      <trkpt lat="43.30274" lon="5.68881">
        <ele>719</ele>
        <time>2013-05-22T09:01:21Z</time>
      </trkpt>
      <trkpt lat="43.3028" lon="5.6889">
        <ele>718.5</ele>
        <time>2013-05-22T09:01:34Z</time>
      </trkpt>
      <trkpt lat="43.30284" lon="5.689">
        <ele>716</ele>
        <time>2013-05-22T09:01:43Z</time>
      </trkpt>
      <trkpt lat="43.3029" lon="5.68908">
        <ele>711.7</ele>
        <time>2013-05-22T09:01:55Z</time>
      </trkpt>
      <trkpt lat="43.30293" lon="5.68918">
        <ele>715.4</ele>
        <time>2013-05-22T09:02:01Z</time>
      </trkpt>
      <trkpt lat="43.30295" lon="5.6893">
        <ele>717.2</ele>
        <time>2013-05-22T09:02:08Z</time>
      </trkpt>
      <trkpt lat="43.30294" lon="5.68932">
        <ele>719.2</ele>
        <time>2013-05-22T09:02:09Z</time>
      </trkpt>
      <trkpt lat="43.30298" lon="5.68951">
        <ele>716.2</ele>
        <time>2013-05-22T09:02:25Z</time>
      </trkpt>
      <trkpt lat="43.30298" lon="5.68963">
        <ele>719.2</ele>
        <time>2013-05-22T09:02:33Z</time>
      </trkpt>
      <trkpt lat="43.30299" lon="5.68975">
        <ele>724.9</ele>
        <time>2013-05-22T09:02:42Z</time>
      </trkpt>
      <trkpt lat="43.30302" lon="5.68986">
        <ele>721.9</ele>
        <time>2013-05-22T09:02:54Z</time>
      </trkpt>
      <trkpt lat="43.30304" lon="5.68996">
        <ele>721.4</ele>
        <time>2013-05-22T09:03:02Z</time>
      </trkpt>
      <trkpt lat="43.30302" lon="5.69006">
        <ele>726.5</ele>
        <time>2013-05-22T09:03:08Z</time>
      </trkpt>
      <trkpt lat="43.30301" lon="5.69018">
        <ele>729</ele>
        <time>2013-05-22T09:03:15Z</time>
      </trkpt>
      <trkpt lat="43.30301" lon="5.69019">
        <ele>728.5</ele>
        <time>2013-05-22T09:03:16Z</time>
      </trkpt>
      <trkpt lat="43.303" lon="5.69042">
        <ele>730.2</ele>
        <time>2013-05-22T09:03:33Z</time>
      </trkpt>
      <trkpt lat="43.30299" lon="5.69053">
        <ele>727.5</ele>
        <time>2013-05-22T09:03:42Z</time>
      </trkpt>
      <trkpt lat="43.30301" lon="5.69065">
        <ele>728.7</ele>
        <time>2013-05-22T09:03:51Z</time>
      </trkpt>
      <trkpt lat="43.30305" lon="5.69076">
        <ele>730.7</ele>
        <time>2013-05-22T09:04:00Z</time>
      </trkpt>
      <trkpt lat="43.3031" lon="5.69086">
        <ele>732.2</ele>
        <time>2013-05-22T09:04:10Z</time>
      </trkpt>
      <trkpt lat="43.30312" lon="5.69097">
        <ele>735.5</ele>
        <time>2013-05-22T09:04:18Z</time>
      </trkpt>
      <trkpt lat="43.30313" lon="5.69099">
        <ele>735.4</ele>
        <time>2013-05-22T09:04:19Z</time>
      </trkpt>
      <trkpt lat="43.3032" lon="5.69118">
        <ele>722.5</ele>
        <time>2013-05-22T09:04:36Z</time>
      </trkpt>
      <trkpt lat="43.30322" lon="5.6913">
        <ele>726.5</ele>
        <time>2013-05-22T09:04:43Z</time>
      </trkpt>
      <trkpt lat="43.30323" lon="5.69142">
        <ele>729.7</ele>
        <time>2013-05-22T09:04:52Z</time>
      </trkpt>
      <trkpt lat="43.30326" lon="5.69154">
        <ele>732</ele>
        <time>2013-05-22T09:05:02Z</time>
      </trkpt>
      <trkpt lat="43.30329" lon="5.69164">
        <ele>730.2</ele>
        <time>2013-05-22T09:05:12Z</time>
      </trkpt>
      <trkpt lat="43.30334" lon="5.69174">
        <ele>731</ele>
        <time>2013-05-22T09:05:22Z</time>
      </trkpt>
      <trkpt lat="43.30334" lon="5.69175">
        <ele>731</ele>
        <time>2013-05-22T09:05:23Z</time>
      </trkpt>
      <trkpt lat="43.30344" lon="5.69193">
        <ele>735.2</ele>
        <time>2013-05-22T09:05:46Z</time>
      </trkpt>
      <trkpt lat="43.30352" lon="5.69199">
        <ele>736.4</ele>
        <time>2013-05-22T09:05:56Z</time>
      </trkpt>
      <trkpt lat="43.30355" lon="5.6921">
        <ele>737.5</ele>
        <time>2013-05-22T09:06:06Z</time>
      </trkpt>
      <trkpt lat="43.30357" lon="5.69221">
        <ele>740.7</ele>
        <time>2013-05-22T09:06:15Z</time>
      </trkpt>
      <trkpt lat="43.30359" lon="5.69232">
        <ele>742.2</ele>
        <time>2013-05-22T09:06:24Z</time>
      </trkpt>
      <trkpt lat="43.3036" lon="5.69233">
        <ele>741.2</ele>
        <time>2013-05-22T09:06:25Z</time>
      </trkpt>
      <trkpt lat="43.30364" lon="5.69254">
        <ele>741.5</ele>
        <time>2013-05-22T09:06:43Z</time>
      </trkpt>
      <trkpt lat="43.30363" lon="5.69267">
        <ele>741.5</ele>
        <time>2013-05-22T09:06:54Z</time>
      </trkpt>
      <trkpt lat="43.30357" lon="5.69275">
        <ele>741.2</ele>
        <time>2013-05-22T09:07:09Z</time>
      </trkpt>
      <trkpt lat="43.30352" lon="5.69285">
        <ele>741.2</ele>
        <time>2013-05-22T09:07:18Z</time>
      </trkpt>
      <trkpt lat="43.30352" lon="5.69296">
        <ele>742</ele>
        <time>2013-05-22T09:07:26Z</time>
      </trkpt>
      <trkpt lat="43.30352" lon="5.69297">
        <ele>742</ele>
        <time>2013-05-22T09:07:27Z</time>
      </trkpt>
      <trkpt lat="43.30355" lon="5.69319">
        <ele>744.2</ele>
        <time>2013-05-22T09:07:42Z</time>
      </trkpt>
      <trkpt lat="43.30358" lon="5.6933">
        <ele>744.7</ele>
        <time>2013-05-22T09:07:50Z</time>
      </trkpt>
      <trkpt lat="43.30358" lon="5.69342">
        <ele>738.9</ele>
        <time>2013-05-22T09:08:05Z</time>
      </trkpt>
      <trkpt lat="43.30359" lon="5.69354">
        <ele>743</ele>
        <time>2013-05-22T09:08:12Z</time>
      </trkpt>
      <trkpt lat="43.3036" lon="5.69365">
        <ele>744.7</ele>
        <time>2013-05-22T09:08:19Z</time>
      </trkpt>
      <trkpt lat="43.3036" lon="5.69377">
        <ele>743.7</ele>
        <time>2013-05-22T09:08:30Z</time>
      </trkpt>
      <trkpt lat="43.3036" lon="5.69378">
        <ele>743</ele>
        <time>2013-05-22T09:08:31Z</time>
      </trkpt>
      <trkpt lat="43.30361" lon="5.694">
        <ele>746.5</ele>
        <time>2013-05-22T09:08:51Z</time>
      </trkpt>
      <trkpt lat="43.30359" lon="5.69411">
        <ele>748.2</ele>
        <time>2013-05-22T09:09:00Z</time>
      </trkpt>
      <trkpt lat="43.3036" lon="5.69422">
        <ele>748.7</ele>
        <time>2013-05-22T09:09:08Z</time>
      </trkpt>
      <trkpt lat="43.30362" lon="5.69433">
        <ele>749.7</ele>
        <time>2013-05-22T09:09:16Z</time>
      </trkpt>
      <trkpt lat="43.30365" lon="5.69444">
        <ele>750</ele>
        <time>2013-05-22T09:09:24Z</time>
      </trkpt>
      <trkpt lat="43.30365" lon="5.69456">
        <ele>749.4</ele>
        <time>2013-05-22T09:09:34Z</time>
      </trkpt>
      <trkpt lat="43.30364" lon="5.69457">
        <ele>749.5</ele>
        <time>2013-05-22T09:09:35Z</time>
      </trkpt>
      <trkpt lat="43.30367" lon="5.69479">
        <ele>750</ele>
        <time>2013-05-22T09:09:51Z</time>
      </trkpt>
      <trkpt lat="43.30371" lon="5.69489">
        <ele>750.7</ele>
        <time>2013-05-22T09:10:00Z</time>
      </trkpt>
      <trkpt lat="43.30375" lon="5.695">
        <ele>756</ele>
        <time>2013-05-22T09:10:08Z</time>
      </trkpt>
      <trkpt lat="43.30379" lon="5.6951">
        <ele>757.5</ele>
        <time>2013-05-22T09:10:15Z</time>
      </trkpt>
      <trkpt lat="43.30383" lon="5.69521">
        <ele>759.7</ele>
        <time>2013-05-22T09:10:26Z</time>
      </trkpt>
      <trkpt lat="43.30388" lon="5.69529">
        <ele>759.5</ele>
        <time>2013-05-22T09:10:33Z</time>
      </trkpt>
      <trkpt lat="43.30393" lon="5.69538">
        <ele>756.5</ele>
        <time>2013-05-22T09:10:41Z</time>
      </trkpt>
      <trkpt lat="43.30394" lon="5.69539">
        <ele>756.2</ele>
        <time>2013-05-22T09:10:42Z</time>
      </trkpt>
      <trkpt lat="43.30408" lon="5.69551">
        <ele>756.5</ele>
        <time>2013-05-22T09:10:59Z</time>
      </trkpt>
      <trkpt lat="43.30414" lon="5.69558">
        <ele>755.9</ele>
        <time>2013-05-22T09:11:07Z</time>
      </trkpt>
      <trkpt lat="43.30421" lon="5.69564">
        <ele>755.2</ele>
        <time>2013-05-22T09:11:15Z</time>
      </trkpt>
      <trkpt lat="43.30429" lon="5.69571">
        <ele>755</ele>
        <time>2013-05-22T09:11:23Z</time>
      </trkpt>
      <trkpt lat="43.30433" lon="5.6958">
        <ele>756</ele>
        <time>2013-05-22T09:11:35Z</time>
      </trkpt>
      <trkpt lat="43.30434" lon="5.69591">
        <ele>756.7</ele>
        <time>2013-05-22T09:11:42Z</time>
      </trkpt>
      <trkpt lat="43.30433" lon="5.69593">
        <ele>756.9</ele>
        <time>2013-05-22T09:11:43Z</time>
      </trkpt>
      <trkpt lat="43.30432" lon="5.69614">
        <ele>755.5</ele>
        <time>2013-05-22T09:11:59Z</time>
      </trkpt>
      <trkpt lat="43.30433" lon="5.69624">
        <ele>755</ele>
        <time>2013-05-22T09:12:06Z</time>
      </trkpt>
      <trkpt lat="43.30435" lon="5.69635">
        <ele>755.2</ele>
        <time>2013-05-22T09:12:13Z</time>
      </trkpt>
      <trkpt lat="43.30436" lon="5.69646">
        <ele>755</ele>
        <time>2013-05-22T09:12:20Z</time>
      </trkpt>
      <trkpt lat="43.30438" lon="5.69658">
        <ele>754</ele>
        <time>2013-05-22T09:12:28Z</time>
      </trkpt>
      <trkpt lat="43.30438" lon="5.6967">
        <ele>753.2</ele>
        <time>2013-05-22T09:12:37Z</time>
      </trkpt>
      <trkpt lat="43.30439" lon="5.69682">
        <ele>756</ele>
        <time>2013-05-22T09:12:46Z</time>
      </trkpt>
      <trkpt lat="43.30439" lon="5.69683">
        <ele>756.5</ele>
        <time>2013-05-22T09:12:47Z</time>
      </trkpt>
      <trkpt lat="43.30442" lon="5.69704">
        <ele>756.5</ele>
        <time>2013-05-22T09:13:06Z</time>
      </trkpt>
      <trkpt lat="43.30446" lon="5.69715">
        <ele>758</ele>
        <time>2013-05-22T09:13:17Z</time>
      </trkpt>
      <trkpt lat="43.30451" lon="5.69724">
        <ele>762.7</ele>
        <time>2013-05-22T09:13:29Z</time>
      </trkpt>
      <trkpt lat="43.30456" lon="5.69734">
        <ele>762</ele>
        <time>2013-05-22T09:13:38Z</time>
      </trkpt>
      <trkpt lat="43.30464" lon="5.6974">
        <ele>763.5</ele>
        <time>2013-05-22T09:14:23Z</time>
      </trkpt>
      <trkpt lat="43.30464" lon="5.6974">
        <ele>763</ele>
        <time>2013-05-22T09:14:24Z</time>
      </trkpt>
      <trkpt lat="43.3047" lon="5.6975">
        <ele>771.4</ele>
        <time>2013-05-22T09:20:01Z</time>
      </trkpt>
      <trkpt lat="43.30486" lon="5.69752">
        <ele>769.7</ele>
        <time>2013-05-22T09:20:24Z</time>
      </trkpt>
      <trkpt lat="43.30495" lon="5.6975">
        <ele>770.7</ele>
        <time>2013-05-22T09:20:36Z</time>
      </trkpt>
      <trkpt lat="43.30504" lon="5.69749">
        <ele>774.7</ele>
        <time>2013-05-22T09:20:51Z</time>
      </trkpt>
      <trkpt lat="43.30512" lon="5.69745">
        <ele>779.7</ele>
        <time>2013-05-22T09:21:08Z</time>
      </trkpt>
      <trkpt lat="43.30512" lon="5.69744">
        <ele>780</ele>
        <time>2013-05-22T09:21:09Z</time>
      </trkpt>
      <trkpt lat="43.30528" lon="5.69739">
        <ele>783.5</ele>
        <time>2013-05-22T09:21:38Z</time>
      </trkpt>
      <trkpt lat="43.30536" lon="5.69742">
        <ele>784.4</ele>
        <time>2013-05-22T09:21:56Z</time>
      </trkpt>
      <trkpt lat="43.30545" lon="5.69746">
        <ele>785.2</ele>
        <time>2013-05-22T09:22:19Z</time>
      </trkpt>
      <trkpt lat="43.30545" lon="5.69746">
        <ele>785</ele>
        <time>2013-05-22T09:22:20Z</time>
      </trkpt>
      <trkpt lat="43.30562" lon="5.69743">
        <ele>793.7</ele>
        <time>2013-05-22T09:23:08Z</time>
      </trkpt>
      <trkpt lat="43.30571" lon="5.69742">
        <ele>792.4</ele>
        <time>2013-05-22T09:23:24Z</time>
      </trkpt>
      <trkpt lat="43.30571" lon="5.69742">
        <ele>792.2</ele>
        <time>2013-05-22T09:23:25Z</time>
      </trkpt>
      <trkpt lat="43.30585" lon="5.69755">
        <ele>796</ele>
        <time>2013-05-22T09:24:20Z</time>
      </trkpt>
      <trkpt lat="43.30594" lon="5.69751">
        <ele>804.2</ele>
        <time>2013-05-22T09:24:45Z</time>
      </trkpt>
      <trkpt lat="43.30594" lon="5.69751">
        <ele>804.9</ele>
        <time>2013-05-22T09:24:46Z</time>
      </trkpt>
      <trkpt lat="43.30608" lon="5.69755">
        <ele>809.5</ele>
        <time>2013-05-22T09:25:41Z</time>
      </trkpt>
      <trkpt lat="43.30613" lon="5.69745">
        <ele>817</ele>
        <time>2013-05-22T09:26:09Z</time>
      </trkpt>
      <trkpt lat="43.30613" lon="5.69744">
        <ele>817.4</ele>
        <time>2013-05-22T09:26:10Z</time>
      </trkpt>
      <trkpt lat="43.30628" lon="5.69733">
        <ele>823.7</ele>
        <time>2013-05-22T09:27:27Z</time>
      </trkpt>
      <trkpt lat="43.30629" lon="5.69733">
        <ele>824</ele>
        <time>2013-05-22T09:27:28Z</time>
      </trkpt>
      <trkpt lat="43.30642" lon="5.69742">
        <ele>827.5</ele>
        <time>2013-05-22T09:28:12Z</time>
      </trkpt>
      <trkpt lat="43.30648" lon="5.69733">
        <ele>835</ele>
        <time>2013-05-22T09:29:01Z</time>
      </trkpt>
      <trkpt lat="43.30648" lon="5.69733">
        <ele>835.2</ele>
        <time>2013-05-22T09:29:02Z</time>
      </trkpt>
      <trkpt lat="43.30661" lon="5.69722">
        <ele>843.9</ele>
        <time>2013-05-22T09:30:15Z</time>
      </trkpt>
      <trkpt lat="43.30662" lon="5.69721">
        <ele>844</ele>
        <time>2013-05-22T09:30:16Z</time>
      </trkpt>
      <trkpt lat="43.30668" lon="5.69712">
        <ele>845.4</ele>
        <time>2013-05-22T09:31:19Z</time>
      </trkpt>
      <trkpt lat="43.30681" lon="5.69725">
        <ele>847.9</ele>
        <time>2013-05-22T09:31:56Z</time>
      </trkpt>
      <trkpt lat="43.30689" lon="5.6973">
        <ele>850.5</ele>
        <time>2013-05-22T09:32:13Z</time>
      </trkpt>
      <trkpt lat="43.30698" lon="5.69727">
        <ele>855</ele>
        <time>2013-05-22T09:32:32Z</time>
      </trkpt>
      <trkpt lat="43.30698" lon="5.69727">
        <ele>855</ele>
        <time>2013-05-22T09:32:33Z</time>
      </trkpt>
      <trkpt lat="43.30715" lon="5.69725">
        <ele>862.2</ele>
        <time>2013-05-22T09:35:42Z</time>
      </trkpt>
      <trkpt lat="43.30715" lon="5.69725">
        <ele>862.4</ele>
        <time>2013-05-22T09:35:43Z</time>
      </trkpt>
      <trkpt lat="43.30728" lon="5.6974">
        <ele>866.5</ele>
        <time>2013-05-22T09:36:12Z</time>
      </trkpt>
      <trkpt lat="43.30733" lon="5.6975">
        <ele>869</ele>
        <time>2013-05-22T09:36:25Z</time>
      </trkpt>
      <trkpt lat="43.30741" lon="5.69752">
        <ele>869.5</ele>
        <time>2013-05-22T09:36:39Z</time>
      </trkpt>
      <trkpt lat="43.30749" lon="5.69757">
        <ele>870.7</ele>
        <time>2013-05-22T09:36:50Z</time>
      </trkpt>
      <trkpt lat="43.30749" lon="5.69757">
        <ele>870.7</ele>
        <time>2013-05-22T09:36:51Z</time>
      </trkpt>
      <trkpt lat="43.30765" lon="5.69766">
        <ele>870.7</ele>
        <time>2013-05-22T09:37:15Z</time>
      </trkpt>
      <trkpt lat="43.30772" lon="5.69771">
        <ele>870.9</ele>
        <time>2013-05-22T09:37:27Z</time>
      </trkpt>
      <trkpt lat="43.3078" lon="5.69778">
        <ele>873.2</ele>
        <time>2013-05-22T09:37:38Z</time>
      </trkpt>
      <trkpt lat="43.30787" lon="5.69785">
        <ele>879.2</ele>
        <time>2013-05-22T09:37:53Z</time>
      </trkpt>
      <trkpt lat="43.30787" lon="5.69785">
        <ele>880</ele>
        <time>2013-05-22T09:37:54Z</time>
      </trkpt>
      <trkpt lat="43.30804" lon="5.69789">
        <ele>878</ele>
        <time>2013-05-22T09:38:19Z</time>
      </trkpt>
      <trkpt lat="43.30813" lon="5.69789">
        <ele>879</ele>
        <time>2013-05-22T09:38:31Z</time>
      </trkpt>
      <trkpt lat="43.30821" lon="5.6979">
        <ele>880.9</ele>
        <time>2013-05-22T09:38:43Z</time>
      </trkpt>
      <trkpt lat="43.30829" lon="5.6979">
        <ele>881.2</ele>
        <time>2013-05-22T09:38:52Z</time>
      </trkpt>
      <trkpt lat="43.30838" lon="5.6979">
        <ele>882.7</ele>
        <time>2013-05-22T09:39:02Z</time>
      </trkpt>
      <trkpt lat="43.30839" lon="5.69789">
        <ele>882.9</ele>
        <time>2013-05-22T09:39:03Z</time>
      </trkpt>
      <trkpt lat="43.30854" lon="5.6978">
        <ele>894.4</ele>
        <time>2013-05-22T09:39:26Z</time>
      </trkpt>
      <trkpt lat="43.30861" lon="5.69774">
        <ele>899.9</ele>
        <time>2013-05-22T09:39:44Z</time>
      </trkpt>
      <trkpt lat="43.3087" lon="5.6977">
        <ele>895.7</ele>
        <time>2013-05-22T09:39:59Z</time>
      </trkpt>
      <trkpt lat="43.30878" lon="5.6977">
        <ele>892.7</ele>
        <time>2013-05-22T09:40:11Z</time>
      </trkpt>
      <trkpt lat="43.30879" lon="5.6977">
        <ele>892.7</ele>
        <time>2013-05-22T09:40:12Z</time>
      </trkpt>
      <trkpt lat="43.30896" lon="5.69771">
        <ele>902.5</ele>
        <time>2013-05-22T09:41:24Z</time>
      </trkpt>
      <trkpt lat="43.30896" lon="5.69771">
        <ele>902.5</ele>
        <time>2013-05-22T09:41:25Z</time>
      </trkpt>
      <trkpt lat="43.30912" lon="5.69779">
        <ele>901.2</ele>
        <time>2013-05-22T09:41:51Z</time>
      </trkpt>
      <trkpt lat="43.30919" lon="5.69787">
        <ele>904.2</ele>
        <time>2013-05-22T09:42:34Z</time>
      </trkpt>
      <trkpt lat="43.3092" lon="5.69787">
        <ele>903.7</ele>
        <time>2013-05-22T09:42:35Z</time>
      </trkpt>
      <trkpt lat="43.30936" lon="5.69786">
        <ele>918.2</ele>
        <time>2013-05-22T09:43:47Z</time>
      </trkpt>
      <trkpt lat="43.30936" lon="5.69786">
        <ele>918</ele>
        <time>2013-05-22T09:43:48Z</time>
      </trkpt>
      <trkpt lat="43.30952" lon="5.69788">
        <ele>913</ele>
        <time>2013-05-22T09:44:14Z</time>
      </trkpt>
      <trkpt lat="43.30961" lon="5.69787">
        <ele>912.7</ele>
        <time>2013-05-22T09:44:26Z</time>
      </trkpt>
      <trkpt lat="43.3097" lon="5.69792">
        <ele>921</ele>
        <time>2013-05-22T09:44:39Z</time>
      </trkpt>
      <trkpt lat="43.30978" lon="5.69788">
        <ele>929.4</ele>
        <time>2013-05-22T09:44:59Z</time>
      </trkpt>
      <trkpt lat="43.30978" lon="5.69788">
        <ele>929.4</ele>
        <time>2013-05-22T09:45:00Z</time>
      </trkpt>
      <trkpt lat="43.30993" lon="5.69796">
        <ele>940.5</ele>
        <time>2013-05-22T09:46:07Z</time>
      </trkpt>
      <trkpt lat="43.30994" lon="5.69795">
        <ele>940.7</ele>
        <time>2013-05-22T09:46:08Z</time>
      </trkpt>
      <trkpt lat="43.31008" lon="5.698">
        <ele>940.2</ele>
        <time>2013-05-22T09:46:35Z</time>
      </trkpt>
      <trkpt lat="43.31013" lon="5.69809">
        <ele>941.5</ele>
        <time>2013-05-22T09:46:46Z</time>
      </trkpt>
      <trkpt lat="43.31021" lon="5.69814">
        <ele>941.7</ele>
        <time>2013-05-22T09:46:59Z</time>
      </trkpt>
      <trkpt lat="43.31029" lon="5.69817">
        <ele>943</ele>
        <time>2013-05-22T09:47:11Z</time>
      </trkpt>
      <trkpt lat="43.3103" lon="5.69816">
        <ele>942.9</ele>
        <time>2013-05-22T09:47:12Z</time>
      </trkpt>
      <trkpt lat="43.31046" lon="5.69821">
        <ele>946.7</ele>
        <time>2013-05-22T09:47:47Z</time>
      </trkpt>
      <trkpt lat="43.31054" lon="5.6982">
        <ele>948.2</ele>
        <time>2013-05-22T09:48:03Z</time>
      </trkpt>
      <trkpt lat="43.31063" lon="5.69816">
        <ele>952.5</ele>
        <time>2013-05-22T09:50:48Z</time>
      </trkpt>
      <trkpt lat="43.31063" lon="5.69815">
        <ele>952.9</ele>
        <time>2013-05-22T09:50:49Z</time>
      </trkpt>
      <trkpt lat="43.31071" lon="5.69809">
        <ele>948.4</ele>
        <time>2013-05-22T09:52:07Z</time>
      </trkpt>
      <trkpt lat="43.31086" lon="5.69802">
        <ele>951.2</ele>
        <time>2013-05-22T09:52:32Z</time>
      </trkpt>
      <trkpt lat="43.31095" lon="5.69798">
        <ele>954.2</ele>
        <time>2013-05-22T09:52:46Z</time>
      </trkpt>
      <trkpt lat="43.31094" lon="5.69786">
        <ele>957.9</ele>
        <time>2013-05-22T09:53:00Z</time>
      </trkpt>
      <trkpt lat="43.31094" lon="5.69774">
        <ele>960.7</ele>
        <time>2013-05-22T09:53:14Z</time>
      </trkpt>
      <trkpt lat="43.31095" lon="5.69773">
        <ele>960.9</ele>
        <time>2013-05-22T09:53:15Z</time>
      </trkpt>
    </trkseg>
  </trk>
  <trk>
    <name><![CDATA[2013-05-22-02]]></name>
    <trkseg>
      <trkpt lat="43.31092" lon="5.69763">
        <ele>959.9</ele>
        <time>2013-05-22T11:28:42Z</time>
      </trkpt>
      <trkpt lat="43.31089" lon="5.69776">
        <ele>964.2</ele>
        <time>2013-05-22T11:30:18Z</time>
      </trkpt>
      <trkpt lat="43.31093" lon="5.69799">
        <ele>958.4</ele>
        <time>2013-05-22T11:31:00Z</time>
      </trkpt>
      <trkpt lat="43.31085" lon="5.69801">
        <ele>956.4</ele>
        <time>2013-05-22T11:31:21Z</time>
      </trkpt>
      <trkpt lat="43.31084" lon="5.69801">
        <ele>956.2</ele>
        <time>2013-05-22T11:31:22Z</time>
      </trkpt>
      <trkpt lat="43.31068" lon="5.6981">
        <ele>952.5</ele>
        <time>2013-05-22T11:32:06Z</time>
      </trkpt>
      <trkpt lat="43.31067" lon="5.69821">
        <ele>952</ele>
        <time>2013-05-22T11:32:16Z</time>
      </trkpt>
      <trkpt lat="43.31069" lon="5.69833">
        <ele>954.2</ele>
        <time>2013-05-22T11:32:28Z</time>
      </trkpt>
      <trkpt lat="43.31069" lon="5.69834">
        <ele>954.4</ele>
        <time>2013-05-22T11:32:29Z</time>
      </trkpt>
      <trkpt lat="43.31074" lon="5.69855">
        <ele>957</ele>
        <time>2013-05-22T11:32:50Z</time>
      </trkpt>
      <trkpt lat="43.31077" lon="5.69866">
        <ele>956</ele>
        <time>2013-05-22T11:33:02Z</time>
      </trkpt>
      <trkpt lat="43.31079" lon="5.69877">
        <ele>957.4</ele>
        <time>2013-05-22T11:33:15Z</time>
      </trkpt>
      <trkpt lat="43.31082" lon="5.69888">
        <ele>958.7</ele>
        <time>2013-05-22T11:33:29Z</time>
      </trkpt>
      <trkpt lat="43.31082" lon="5.69889">
        <ele>958.9</ele>
        <time>2013-05-22T11:33:30Z</time>
      </trkpt>
      <trkpt lat="43.31088" lon="5.6991">
        <ele>960.2</ele>
        <time>2013-05-22T11:33:52Z</time>
      </trkpt>
      <trkpt lat="43.31092" lon="5.69921">
        <ele>962.2</ele>
        <time>2013-05-22T11:34:15Z</time>
      </trkpt>
      <trkpt lat="43.31094" lon="5.69933">
        <ele>963</ele>
        <time>2013-05-22T11:34:31Z</time>
      </trkpt>
      <trkpt lat="43.31094" lon="5.69933">
        <ele>963.2</ele>
        <time>2013-05-22T11:34:32Z</time>
      </trkpt>
      <trkpt lat="43.31099" lon="5.69955">
        <ele>963</ele>
        <time>2013-05-22T11:34:56Z</time>
      </trkpt>
      <trkpt lat="43.31102" lon="5.69966">
        <ele>963.4</ele>
        <time>2013-05-22T11:35:06Z</time>
      </trkpt>
      <trkpt lat="43.31105" lon="5.69977">
        <ele>963</ele>
        <time>2013-05-22T11:35:16Z</time>
      </trkpt>
      <trkpt lat="43.31107" lon="5.69988">
        <ele>962.5</ele>
        <time>2013-05-22T11:35:28Z</time>
      </trkpt>
      <trkpt lat="43.3111" lon="5.69999">
        <ele>962.2</ele>
        <time>2013-05-22T11:35:39Z</time>
      </trkpt>
      <trkpt lat="43.31111" lon="5.7">
        <ele>962.2</ele>
        <time>2013-05-22T11:35:40Z</time>
      </trkpt>
      <trkpt lat="43.31116" lon="5.70021">
        <ele>962</ele>
        <time>2013-05-22T11:35:58Z</time>
      </trkpt>
      <trkpt lat="43.31119" lon="5.70032">
        <ele>961.5</ele>
        <time>2013-05-22T11:36:07Z</time>
      </trkpt>
      <trkpt lat="43.31122" lon="5.70043">
        <ele>961</ele>
        <time>2013-05-22T11:36:17Z</time>
      </trkpt>
      <trkpt lat="43.31126" lon="5.70053">
        <ele>960.5</ele>
        <time>2013-05-22T11:36:26Z</time>
      </trkpt>
      <trkpt lat="43.31131" lon="5.70063">
        <ele>960</ele>
        <time>2013-05-22T11:36:35Z</time>
      </trkpt>
      <trkpt lat="43.31135" lon="5.70073">
        <ele>958.7</ele>
        <time>2013-05-22T11:36:43Z</time>
      </trkpt>
      <trkpt lat="43.31136" lon="5.70074">
        <ele>958.5</ele>
        <time>2013-05-22T11:36:44Z</time>
      </trkpt>
      <trkpt lat="43.31139" lon="5.70095">
        <ele>959.5</ele>
        <time>2013-05-22T11:36:59Z</time>
      </trkpt>
      <trkpt lat="43.31143" lon="5.70105">
        <ele>959.5</ele>
        <time>2013-05-22T11:37:08Z</time>
      </trkpt>
      <trkpt lat="43.31148" lon="5.70115">
        <ele>959.5</ele>
        <time>2013-05-22T11:37:18Z</time>
      </trkpt>
      <trkpt lat="43.31151" lon="5.70126">
        <ele>958.5</ele>
        <time>2013-05-22T11:37:31Z</time>
      </trkpt>
      <trkpt lat="43.31153" lon="5.70138">
        <ele>958.2</ele>
        <time>2013-05-22T11:37:40Z</time>
      </trkpt>
      <trkpt lat="43.31154" lon="5.7015">
        <ele>959</ele>
        <time>2013-05-22T11:37:49Z</time>
      </trkpt>
      <trkpt lat="43.31155" lon="5.70151">
        <ele>958.9</ele>
        <time>2013-05-22T11:37:50Z</time>
      </trkpt>
      <trkpt lat="43.3116" lon="5.70171">
        <ele>959.7</ele>
        <time>2013-05-22T11:38:06Z</time>
      </trkpt>
      <trkpt lat="43.31162" lon="5.70182">
        <ele>959.9</ele>
        <time>2013-05-22T11:38:14Z</time>
      </trkpt>
      <trkpt lat="43.31165" lon="5.70193">
        <ele>960.9</ele>
        <time>2013-05-22T11:38:22Z</time>
      </trkpt>
      <trkpt lat="43.31167" lon="5.70204">
        <ele>961.7</ele>
        <time>2013-05-22T11:38:30Z</time>
      </trkpt>
      <trkpt lat="43.31171" lon="5.70215">
        <ele>961.5</ele>
        <time>2013-05-22T11:38:38Z</time>
      </trkpt>
      <trkpt lat="43.31174" lon="5.70226">
        <ele>962</ele>
        <time>2013-05-22T11:38:46Z</time>
      </trkpt>
      <trkpt lat="43.31178" lon="5.70237">
        <ele>962</ele>
        <time>2013-05-22T11:38:54Z</time>
      </trkpt>
      <trkpt lat="43.31178" lon="5.70238">
        <ele>962</ele>
        <time>2013-05-22T11:38:55Z</time>
      </trkpt>
      <trkpt lat="43.31183" lon="5.70258">
        <ele>962.9</ele>
        <time>2013-05-22T11:39:10Z</time>
      </trkpt>
      <trkpt lat="43.31186" lon="5.70269">
        <ele>964.5</ele>
        <time>2013-05-22T11:39:19Z</time>
      </trkpt>
      <trkpt lat="43.31189" lon="5.7028">
        <ele>964.7</ele>
        <time>2013-05-22T11:39:27Z</time>
      </trkpt>
      <trkpt lat="43.31191" lon="5.70292">
        <ele>965</ele>
        <time>2013-05-22T11:39:35Z</time>
      </trkpt>
      <trkpt lat="43.31192" lon="5.70303">
        <ele>965.2</ele>
        <time>2013-05-22T11:39:43Z</time>
      </trkpt>
      <trkpt lat="43.31193" lon="5.70314">
        <ele>965.2</ele>
        <time>2013-05-22T11:39:51Z</time>
      </trkpt>
      <trkpt lat="43.31194" lon="5.70326">
        <ele>965.7</ele>
        <time>2013-05-22T11:39:59Z</time>
      </trkpt>
      <trkpt lat="43.31194" lon="5.70328">
        <ele>965.7</ele>
        <time>2013-05-22T11:40:00Z</time>
      </trkpt>
      <trkpt lat="43.31199" lon="5.70348">
        <ele>966.7</ele>
        <time>2013-05-22T11:40:15Z</time>
      </trkpt>
      <trkpt lat="43.31201" lon="5.7036">
        <ele>967</ele>
        <time>2013-05-22T11:40:23Z</time>
      </trkpt>
      <trkpt lat="43.31203" lon="5.70371">
        <ele>967.2</ele>
        <time>2013-05-22T11:40:31Z</time>
      </trkpt>
      <trkpt lat="43.31205" lon="5.70383">
        <ele>967.7</ele>
        <time>2013-05-22T11:40:39Z</time>
      </trkpt>
      <trkpt lat="43.31207" lon="5.70395">
        <ele>968.2</ele>
        <time>2013-05-22T11:40:47Z</time>
      </trkpt>
      <trkpt lat="43.31208" lon="5.70405">
        <ele>968.2</ele>
        <time>2013-05-22T11:40:54Z</time>
      </trkpt>
      <trkpt lat="43.31209" lon="5.70416">
        <ele>968.5</ele>
        <time>2013-05-22T11:41:01Z</time>
      </trkpt>
      <trkpt lat="43.31209" lon="5.70418">
        <ele>968.5</ele>
        <time>2013-05-22T11:41:02Z</time>
      </trkpt>
      <trkpt lat="43.31209" lon="5.70442">
        <ele>968.7</ele>
        <time>2013-05-22T11:41:16Z</time>
      </trkpt>
      <trkpt lat="43.3121" lon="5.70453">
        <ele>969</ele>
        <time>2013-05-22T11:41:24Z</time>
      </trkpt>
      <trkpt lat="43.31212" lon="5.70465">
        <ele>968.7</ele>
        <time>2013-05-22T11:41:32Z</time>
      </trkpt>
      <trkpt lat="43.31213" lon="5.70477">
        <ele>968.2</ele>
        <time>2013-05-22T11:41:40Z</time>
      </trkpt>
      <trkpt lat="43.31215" lon="5.70489">
        <ele>967.5</ele>
        <time>2013-05-22T11:41:48Z</time>
      </trkpt>
      <trkpt lat="43.31217" lon="5.705">
        <ele>967</ele>
        <time>2013-05-22T11:41:56Z</time>
      </trkpt>
      <trkpt lat="43.31221" lon="5.7051">
        <ele>966.5</ele>
        <time>2013-05-22T11:42:04Z</time>
      </trkpt>
      <trkpt lat="43.31221" lon="5.70511">
        <ele>966.5</ele>
        <time>2013-05-22T11:42:05Z</time>
      </trkpt>
      <trkpt lat="43.31227" lon="5.70533">
        <ele>964.7</ele>
        <time>2013-05-22T11:42:23Z</time>
      </trkpt>
      <trkpt lat="43.31229" lon="5.70543">
        <ele>965.7</ele>
        <time>2013-05-22T11:42:32Z</time>
      </trkpt>
      <trkpt lat="43.31232" lon="5.70555">
        <ele>965.7</ele>
        <time>2013-05-22T11:42:40Z</time>
      </trkpt>
      <trkpt lat="43.31233" lon="5.70566">
        <ele>964.9</ele>
        <time>2013-05-22T11:42:48Z</time>
      </trkpt>
      <trkpt lat="43.31234" lon="5.70577">
        <ele>964.7</ele>
        <time>2013-05-22T11:42:56Z</time>
      </trkpt>
      <trkpt lat="43.31236" lon="5.70589">
        <ele>964.5</ele>
        <time>2013-05-22T11:43:04Z</time>
      </trkpt>
      <trkpt lat="43.31237" lon="5.70602">
        <ele>964.4</ele>
        <time>2013-05-22T11:43:12Z</time>
      </trkpt>
      <trkpt lat="43.31237" lon="5.70603">
        <ele>964.2</ele>
        <time>2013-05-22T11:43:13Z</time>
      </trkpt>
      <trkpt lat="43.3124" lon="5.70623">
        <ele>963</ele>
        <time>2013-05-22T11:43:28Z</time>
      </trkpt>
      <trkpt lat="43.31241" lon="5.70635">
        <ele>962.2</ele>
        <time>2013-05-22T11:43:36Z</time>
      </trkpt>
      <trkpt lat="43.31243" lon="5.70646">
        <ele>961.5</ele>
        <time>2013-05-22T11:43:45Z</time>
      </trkpt>
      <trkpt lat="43.31246" lon="5.70657">
        <ele>961.4</ele>
        <time>2013-05-22T11:43:54Z</time>
      </trkpt>
      <trkpt lat="43.31251" lon="5.70667">
        <ele>962.7</ele>
        <time>2013-05-22T11:44:06Z</time>
      </trkpt>
      <trkpt lat="43.31258" lon="5.70673">
        <ele>964.7</ele>
        <time>2013-05-22T11:44:17Z</time>
      </trkpt>
      <trkpt lat="43.31259" lon="5.70674">
        <ele>964.7</ele>
        <time>2013-05-22T11:44:18Z</time>
      </trkpt>
      <trkpt lat="43.3127" lon="5.70689">
        <ele>966</ele>
        <time>2013-05-22T11:44:35Z</time>
      </trkpt>
      <trkpt lat="43.31276" lon="5.70698">
        <ele>966.7</ele>
        <time>2013-05-22T11:44:44Z</time>
      </trkpt>
      <trkpt lat="43.3128" lon="5.70708">
        <ele>966.5</ele>
        <time>2013-05-22T11:44:53Z</time>
      </trkpt>
      <trkpt lat="43.31287" lon="5.70716">
        <ele>966.4</ele>
        <time>2013-05-22T11:45:02Z</time>
      </trkpt>
      <trkpt lat="43.31291" lon="5.70727">
        <ele>965</ele>
        <time>2013-05-22T11:45:11Z</time>
      </trkpt>
      <trkpt lat="43.31296" lon="5.70736">
        <ele>964</ele>
        <time>2013-05-22T11:45:19Z</time>
      </trkpt>
      <trkpt lat="43.31296" lon="5.70737">
        <ele>963.7</ele>
        <time>2013-05-22T11:45:20Z</time>
      </trkpt>
      <trkpt lat="43.31304" lon="5.70757">
        <ele>964.2</ele>
        <time>2013-05-22T11:45:37Z</time>
      </trkpt>
      <trkpt lat="43.31309" lon="5.70766">
        <ele>964.7</ele>
        <time>2013-05-22T11:45:46Z</time>
      </trkpt>
      <trkpt lat="43.31316" lon="5.70774">
        <ele>965</ele>
        <time>2013-05-22T11:45:56Z</time>
      </trkpt>
      <trkpt lat="43.31322" lon="5.70783">
        <ele>965.4</ele>
        <time>2013-05-22T11:46:06Z</time>
      </trkpt>
      <trkpt lat="43.31326" lon="5.70793">
        <ele>964.9</ele>
        <time>2013-05-22T11:46:15Z</time>
      </trkpt>
      <trkpt lat="43.31329" lon="5.70804">
        <ele>964.9</ele>
        <time>2013-05-22T11:46:24Z</time>
      </trkpt>
      <trkpt lat="43.31329" lon="5.70805">
        <ele>964.7</ele>
        <time>2013-05-22T11:46:25Z</time>
      </trkpt>
      <trkpt lat="43.31336" lon="5.70825">
        <ele>964.2</ele>
        <time>2013-05-22T11:46:43Z</time>
      </trkpt>
      <trkpt lat="43.31339" lon="5.70837">
        <ele>966.5</ele>
        <time>2013-05-22T11:46:52Z</time>
      </trkpt>
      <trkpt lat="43.31343" lon="5.70847">
        <ele>971</ele>
        <time>2013-05-22T11:47:01Z</time>
      </trkpt>
      <trkpt lat="43.31347" lon="5.70857">
        <ele>970.4</ele>
        <time>2013-05-22T11:47:11Z</time>
      </trkpt>
      <trkpt lat="43.3135" lon="5.70868">
        <ele>970.7</ele>
        <time>2013-05-22T11:47:20Z</time>
      </trkpt>
      <trkpt lat="43.31352" lon="5.70879">
        <ele>972</ele>
        <time>2013-05-22T11:47:29Z</time>
      </trkpt>
      <trkpt lat="43.31352" lon="5.7088">
        <ele>972</ele>
        <time>2013-05-22T11:47:30Z</time>
      </trkpt>
      <trkpt lat="43.31358" lon="5.70901">
        <ele>974.2</ele>
        <time>2013-05-22T11:47:49Z</time>
      </trkpt>
      <trkpt lat="43.31363" lon="5.70911">
        <ele>977.7</ele>
        <time>2013-05-22T11:48:06Z</time>
      </trkpt>
      <trkpt lat="43.31366" lon="5.70922">
        <ele>976.4</ele>
        <time>2013-05-22T11:48:16Z</time>
      </trkpt>
      <trkpt lat="43.3137" lon="5.70932">
        <ele>976.9</ele>
        <time>2013-05-22T11:48:26Z</time>
      </trkpt>
      <trkpt lat="43.31372" lon="5.70943">
        <ele>977.2</ele>
        <time>2013-05-22T11:48:35Z</time>
      </trkpt>
      <trkpt lat="43.31372" lon="5.70944">
        <ele>977</ele>
        <time>2013-05-22T11:48:36Z</time>
      </trkpt>
      <trkpt lat="43.31379" lon="5.70964">
        <ele>976.5</ele>
        <time>2013-05-22T11:48:53Z</time>
      </trkpt>
      <trkpt lat="43.31384" lon="5.70974">
        <ele>977.2</ele>
        <time>2013-05-22T11:49:06Z</time>
      </trkpt>
      <trkpt lat="43.31389" lon="5.70983">
        <ele>977</ele>
        <time>2013-05-22T11:49:19Z</time>
      </trkpt>
      <trkpt lat="43.3139" lon="5.70995">
        <ele>977</ele>
        <time>2013-05-22T11:49:29Z</time>
      </trkpt>
      <trkpt lat="43.31394" lon="5.71005">
        <ele>976.7</ele>
        <time>2013-05-22T11:49:39Z</time>
      </trkpt>
      <trkpt lat="43.31394" lon="5.71006">
        <ele>977.2</ele>
        <time>2013-05-22T11:49:40Z</time>
      </trkpt>
      <trkpt lat="43.314" lon="5.71026">
        <ele>977.4</ele>
        <time>2013-05-22T11:49:59Z</time>
      </trkpt>
      <trkpt lat="43.31405" lon="5.71036">
        <ele>979.7</ele>
        <time>2013-05-22T11:50:09Z</time>
      </trkpt>
      <trkpt lat="43.31409" lon="5.71047">
        <ele>982.4</ele>
        <time>2013-05-22T11:50:37Z</time>
      </trkpt>
      <trkpt lat="43.31413" lon="5.71058">
        <ele>984</ele>
        <time>2013-05-22T11:50:50Z</time>
      </trkpt>
      <trkpt lat="43.31413" lon="5.71059">
        <ele>984</ele>
        <time>2013-05-22T11:50:51Z</time>
      </trkpt>
      <trkpt lat="43.31418" lon="5.71081">
        <ele>982.5</ele>
        <time>2013-05-22T11:51:13Z</time>
      </trkpt>
      <trkpt lat="43.31422" lon="5.71091">
        <ele>979.2</ele>
        <time>2013-05-22T11:51:26Z</time>
      </trkpt>
      <trkpt lat="43.31428" lon="5.71101">
        <ele>977</ele>
        <time>2013-05-22T11:51:40Z</time>
      </trkpt>
      <trkpt lat="43.31431" lon="5.71112">
        <ele>980</ele>
        <time>2013-05-22T11:51:56Z</time>
      </trkpt>
      <trkpt lat="43.31431" lon="5.71113">
        <ele>980.2</ele>
        <time>2013-05-22T11:51:57Z</time>
      </trkpt>
      <trkpt lat="43.31438" lon="5.71133">
        <ele>982.2</ele>
        <time>2013-05-22T11:52:16Z</time>
      </trkpt>
      <trkpt lat="43.31442" lon="5.71144">
        <ele>983.5</ele>
        <time>2013-05-22T11:52:28Z</time>
      </trkpt>
      <trkpt lat="43.31442" lon="5.71156">
        <ele>983</ele>
        <time>2013-05-22T11:52:42Z</time>
      </trkpt>
      <trkpt lat="43.31443" lon="5.71167">
        <ele>984.5</ele>
        <time>2013-05-22T11:52:51Z</time>
      </trkpt>
      <trkpt lat="43.31443" lon="5.71179">
        <ele>982.7</ele>
        <time>2013-05-22T11:53:03Z</time>
      </trkpt>
      <trkpt lat="43.31443" lon="5.7118">
        <ele>982.5</ele>
        <time>2013-05-22T11:53:04Z</time>
      </trkpt>
      <trkpt lat="43.3145" lon="5.71202">
        <ele>981.2</ele>
        <time>2013-05-22T11:53:26Z</time>
      </trkpt>
      <trkpt lat="43.31452" lon="5.71213">
        <ele>982.4</ele>
        <time>2013-05-22T11:53:35Z</time>
      </trkpt>
      <trkpt lat="43.31458" lon="5.71223">
        <ele>981.7</ele>
        <time>2013-05-22T11:53:46Z</time>
      </trkpt>
      <trkpt lat="43.31461" lon="5.71234">
        <ele>983.5</ele>
        <time>2013-05-22T11:53:55Z</time>
      </trkpt>
      <trkpt lat="43.31465" lon="5.71245">
        <ele>985.5</ele>
        <time>2013-05-22T11:54:06Z</time>
      </trkpt>
      <trkpt lat="43.31465" lon="5.71246">
        <ele>985.9</ele>
        <time>2013-05-22T11:54:07Z</time>
      </trkpt>
      <trkpt lat="43.31473" lon="5.71264">
        <ele>984.2</ele>
        <time>2013-05-22T11:54:27Z</time>
      </trkpt>
      <trkpt lat="43.31479" lon="5.71273">
        <ele>987</ele>
        <time>2013-05-22T11:54:48Z</time>
      </trkpt>
      <trkpt lat="43.31486" lon="5.71281">
        <ele>988.9</ele>
        <time>2013-05-22T11:55:02Z</time>
      </trkpt>
      <trkpt lat="43.31492" lon="5.7129">
        <ele>988</ele>
        <time>2013-05-22T11:55:16Z</time>
      </trkpt>
      <trkpt lat="43.31492" lon="5.71291">
        <ele>987.9</ele>
        <time>2013-05-22T11:55:17Z</time>
      </trkpt>
      <trkpt lat="43.31505" lon="5.71306">
        <ele>992</ele>
        <time>2013-05-22T11:55:49Z</time>
      </trkpt>
      <trkpt lat="43.31509" lon="5.71317">
        <ele>993.5</ele>
        <time>2013-05-22T11:55:59Z</time>
      </trkpt>
      <trkpt lat="43.31513" lon="5.71327">
        <ele>992.9</ele>
        <time>2013-05-22T11:56:10Z</time>
      </trkpt>
      <trkpt lat="43.31518" lon="5.71336">
        <ele>992.5</ele>
        <time>2013-05-22T11:56:24Z</time>
      </trkpt>
      <trkpt lat="43.31519" lon="5.71337">
        <ele>992.5</ele>
        <time>2013-05-22T11:56:25Z</time>
      </trkpt>
      <trkpt lat="43.31531" lon="5.71352">
        <ele>995.2</ele>
        <time>2013-05-22T11:56:48Z</time>
      </trkpt>
      <trkpt lat="43.31536" lon="5.71362">
        <ele>992.4</ele>
        <time>2013-05-22T11:57:00Z</time>
      </trkpt>
      <trkpt lat="43.31535" lon="5.71374">
        <ele>992.7</ele>
        <time>2013-05-22T11:57:14Z</time>
      </trkpt>
      <trkpt lat="43.31535" lon="5.71386">
        <ele>993.5</ele>
        <time>2013-05-22T11:57:28Z</time>
      </trkpt>
      <trkpt lat="43.31535" lon="5.71387">
        <ele>993.9</ele>
        <time>2013-05-22T11:57:29Z</time>
      </trkpt>
      <trkpt lat="43.31539" lon="5.7141">
        <ele>998.2</ele>
        <time>2013-05-22T11:58:00Z</time>
      </trkpt>
      <trkpt lat="43.3154" lon="5.71421">
        <ele>1000.7</ele>
        <time>2013-05-22T11:58:14Z</time>
      </trkpt>
      <trkpt lat="43.31541" lon="5.71433">
        <ele>1001.5</ele>
        <time>2013-05-22T11:58:24Z</time>
      </trkpt>
      <trkpt lat="43.31542" lon="5.71444">
        <ele>1002.9</ele>
        <time>2013-05-22T11:58:33Z</time>
      </trkpt>
      <trkpt lat="43.31542" lon="5.71445">
        <ele>1003</ele>
        <time>2013-05-22T11:58:34Z</time>
      </trkpt>
      <trkpt lat="43.31548" lon="5.71466">
        <ele>1006</ele>
        <time>2013-05-22T11:58:57Z</time>
      </trkpt>
      <trkpt lat="43.31549" lon="5.71477">
        <ele>1006.9</ele>
        <time>2013-05-22T11:59:07Z</time>
      </trkpt>
      <trkpt lat="43.31551" lon="5.71489">
        <ele>1007.7</ele>
        <time>2013-05-22T11:59:19Z</time>
      </trkpt>
      <trkpt lat="43.31552" lon="5.71501">
        <ele>1009.4</ele>
        <time>2013-05-22T11:59:31Z</time>
      </trkpt>
      <trkpt lat="43.31553" lon="5.71513">
        <ele>1011</ele>
        <time>2013-05-22T11:59:42Z</time>
      </trkpt>
      <trkpt lat="43.31554" lon="5.71514">
        <ele>1011</ele>
        <time>2013-05-22T11:59:43Z</time>
      </trkpt>
      <trkpt lat="43.31563" lon="5.71531">
        <ele>1009.2</ele>
        <time>2013-05-22T12:00:00Z</time>
      </trkpt>
      <trkpt lat="43.31567" lon="5.71541">
        <ele>1008.5</ele>
        <time>2013-05-22T12:00:10Z</time>
      </trkpt>
      <trkpt lat="43.31572" lon="5.7155">
        <ele>1009.7</ele>
        <time>2013-05-22T12:00:25Z</time>
      </trkpt>
      <trkpt lat="43.31576" lon="5.71561">
        <ele>1010.5</ele>
        <time>2013-05-22T12:00:40Z</time>
      </trkpt>
      <trkpt lat="43.31575" lon="5.71572">
        <ele>1012.9</ele>
        <time>2013-05-22T12:00:50Z</time>
      </trkpt>
      <trkpt lat="43.31575" lon="5.71573">
        <ele>1013.2</ele>
        <time>2013-05-22T12:00:51Z</time>
      </trkpt>
      <trkpt lat="43.31574" lon="5.71596">
        <ele>1014.9</ele>
        <time>2013-05-22T12:01:14Z</time>
      </trkpt>
      <trkpt lat="43.31575" lon="5.71608">
        <ele>1018.2</ele>
        <time>2013-05-22T12:01:26Z</time>
      </trkpt>
      <trkpt lat="43.31576" lon="5.7162">
        <ele>1020.4</ele>
        <time>2013-05-22T12:02:43Z</time>
      </trkpt>
      <trkpt lat="43.31576" lon="5.71621">
        <ele>1020.7</ele>
        <time>2013-05-22T12:02:44Z</time>
      </trkpt>
      <trkpt lat="43.31583" lon="5.71641">
        <ele>1022.9</ele>
        <time>2013-05-22T12:03:09Z</time>
      </trkpt>
      <trkpt lat="43.31589" lon="5.7165">
        <ele>1024.4</ele>
        <time>2013-05-22T12:03:21Z</time>
      </trkpt>
      <trkpt lat="43.31593" lon="5.71661">
        <ele>1025</ele>
        <time>2013-05-22T12:03:34Z</time>
      </trkpt>
      <trkpt lat="43.31595" lon="5.71673">
        <ele>1023.7</ele>
        <time>2013-05-22T12:03:44Z</time>
      </trkpt>
      <trkpt lat="43.31596" lon="5.71674">
        <ele>1023.7</ele>
        <time>2013-05-22T12:03:45Z</time>
      </trkpt>
      <trkpt lat="43.31604" lon="5.71694">
        <ele>1026</ele>
        <time>2013-05-22T12:04:06Z</time>
      </trkpt>
      <trkpt lat="43.31607" lon="5.71705">
        <ele>1025</ele>
        <time>2013-05-22T12:04:16Z</time>
      </trkpt>
      <trkpt lat="43.3161" lon="5.71716">
        <ele>1028.4</ele>
        <time>2013-05-22T12:04:27Z</time>
      </trkpt>
      <trkpt lat="43.31614" lon="5.71727">
        <ele>1031.3</ele>
        <time>2013-05-22T12:04:39Z</time>
      </trkpt>
      <trkpt lat="43.31616" lon="5.71738">
        <ele>1032</ele>
        <time>2013-05-22T12:04:51Z</time>
      </trkpt>
      <trkpt lat="43.31616" lon="5.71739">
        <ele>1032.3</ele>
        <time>2013-05-22T12:04:52Z</time>
      </trkpt>
      <trkpt lat="43.31621" lon="5.71761">
        <ele>1036</ele>
        <time>2013-05-22T12:05:15Z</time>
      </trkpt>
      <trkpt lat="43.31624" lon="5.71772">
        <ele>1037.3</ele>
        <time>2013-05-22T12:05:26Z</time>
      </trkpt>
      <trkpt lat="43.31628" lon="5.71782">
        <ele>1038.9</ele>
        <time>2013-05-22T12:05:36Z</time>
      </trkpt>
      <trkpt lat="43.31632" lon="5.71793">
        <ele>1040.5</ele>
        <time>2013-05-22T12:05:46Z</time>
      </trkpt>
      <trkpt lat="43.31636" lon="5.71803">
        <ele>1037.5</ele>
        <time>2013-05-22T12:05:56Z</time>
      </trkpt>
      <trkpt lat="43.31636" lon="5.71804">
        <ele>1037.5</ele>
        <time>2013-05-22T12:05:57Z</time>
      </trkpt>
      <trkpt lat="43.31641" lon="5.71826">
        <ele>1037.4</ele>
        <time>2013-05-22T12:06:19Z</time>
      </trkpt>
      <trkpt lat="43.31645" lon="5.71836">
        <ele>1037</ele>
        <time>2013-05-22T12:06:30Z</time>
      </trkpt>
      <trkpt lat="43.31649" lon="5.71847">
        <ele>1034.5</ele>
        <time>2013-05-22T12:07:36Z</time>
      </trkpt>
      <trkpt lat="43.31649" lon="5.71847">
        <ele>1034.5</ele>
        <time>2013-05-22T12:07:37Z</time>
      </trkpt>
      <trkpt lat="43.31659" lon="5.71867">
        <ele>1033.8</ele>
        <time>2013-05-22T12:08:27Z</time>
      </trkpt>
      <trkpt lat="43.31661" lon="5.71879">
        <ele>1029.5</ele>
        <time>2013-05-22T12:08:48Z</time>
      </trkpt>
      <trkpt lat="43.3166" lon="5.7188">
        <ele>1029.4</ele>
        <time>2013-05-22T12:08:49Z</time>
      </trkpt>
      <trkpt lat="43.31667" lon="5.719">
        <ele>1028.3</ele>
        <time>2013-05-22T12:09:13Z</time>
      </trkpt>
      <trkpt lat="43.31667" lon="5.71913">
        <ele>1025</ele>
        <time>2013-05-22T12:09:38Z</time>
      </trkpt>
      <trkpt lat="43.31674" lon="5.7192">
        <ele>1025.3</ele>
        <time>2013-05-22T12:09:53Z</time>
      </trkpt>
      <trkpt lat="43.31674" lon="5.71921">
        <ele>1025.3</ele>
        <time>2013-05-22T12:09:54Z</time>
      </trkpt>
      <trkpt lat="43.31674" lon="5.71944">
        <ele>1025</ele>
        <time>2013-05-22T12:10:21Z</time>
      </trkpt>
      <trkpt lat="43.31675" lon="5.71956">
        <ele>1025</ele>
        <time>2013-05-22T12:11:35Z</time>
      </trkpt>
      <trkpt lat="43.31675" lon="5.71957">
        <ele>1024.9</ele>
        <time>2013-05-22T12:11:36Z</time>
      </trkpt>
      <trkpt lat="43.31679" lon="5.71979">
        <ele>1024.4</ele>
        <time>2013-05-22T12:12:00Z</time>
      </trkpt>
      <trkpt lat="43.31679" lon="5.71991">
        <ele>1023.5</ele>
        <time>2013-05-22T12:12:11Z</time>
      </trkpt>
      <trkpt lat="43.31681" lon="5.72002">
        <ele>1023.5</ele>
        <time>2013-05-22T12:12:24Z</time>
      </trkpt>
      <trkpt lat="43.31685" lon="5.72013">
        <ele>1023</ele>
        <time>2013-05-22T12:12:35Z</time>
      </trkpt>
      <trkpt lat="43.31688" lon="5.72024">
        <ele>1022.4</ele>
        <time>2013-05-22T12:12:47Z</time>
      </trkpt>
      <trkpt lat="43.31689" lon="5.72025">
        <ele>1022.2</ele>
        <time>2013-05-22T12:12:48Z</time>
      </trkpt>
      <trkpt lat="43.31693" lon="5.72046">
        <ele>1019.5</ele>
        <time>2013-05-22T12:13:09Z</time>
      </trkpt>
      <trkpt lat="43.31695" lon="5.72058">
        <ele>1019.9</ele>
        <time>2013-05-22T12:13:19Z</time>
      </trkpt>
      <trkpt lat="43.31698" lon="5.72068">
        <ele>1019.7</ele>
        <time>2013-05-22T12:13:28Z</time>
      </trkpt>
      <trkpt lat="43.31701" lon="5.72078">
        <ele>1020.7</ele>
        <time>2013-05-22T12:13:36Z</time>
      </trkpt>
      <trkpt lat="43.31703" lon="5.7209">
        <ele>1018.2</ele>
        <time>2013-05-22T12:13:46Z</time>
      </trkpt>
      <trkpt lat="43.31704" lon="5.72101">
        <ele>1016.7</ele>
        <time>2013-05-22T12:13:56Z</time>
      </trkpt>
      <trkpt lat="43.31704" lon="5.72102">
        <ele>1016.4</ele>
        <time>2013-05-22T12:13:57Z</time>
      </trkpt>
      <trkpt lat="43.31703" lon="5.72124">
        <ele>1015.4</ele>
        <time>2013-05-22T12:14:16Z</time>
      </trkpt>
      <trkpt lat="43.31704" lon="5.72136">
        <ele>1016.5</ele>
        <time>2013-05-22T12:14:25Z</time>
      </trkpt>
      <trkpt lat="43.31705" lon="5.72147">
        <ele>1017.5</ele>
        <time>2013-05-22T12:14:36Z</time>
      </trkpt>
      <trkpt lat="43.31706" lon="5.72159">
        <ele>1018.2</ele>
        <time>2013-05-22T12:14:47Z</time>
      </trkpt>
      <trkpt lat="43.31706" lon="5.72171">
        <ele>1017.2</ele>
        <time>2013-05-22T12:14:58Z</time>
      </trkpt>
      <trkpt lat="43.31706" lon="5.72172">
        <ele>1017</ele>
        <time>2013-05-22T12:14:59Z</time>
      </trkpt>
      <trkpt lat="43.31701" lon="5.72195">
        <ele>1014.5</ele>
        <time>2013-05-22T12:16:11Z</time>
      </trkpt>
      <trkpt lat="43.317" lon="5.72195">
        <ele>1014.5</ele>
        <time>2013-05-22T12:16:12Z</time>
      </trkpt>
      <trkpt lat="43.31704" lon="5.72218">
        <ele>1016.2</ele>
        <time>2013-05-22T12:16:51Z</time>
      </trkpt>
      <trkpt lat="43.31707" lon="5.7223">
        <ele>1015</ele>
        <time>2013-05-22T12:17:02Z</time>
      </trkpt>
      <trkpt lat="43.31708" lon="5.72241">
        <ele>1015.2</ele>
        <time>2013-05-22T12:17:13Z</time>
      </trkpt>
      <trkpt lat="43.31708" lon="5.72242">
        <ele>1015</ele>
        <time>2013-05-22T12:17:14Z</time>
      </trkpt>
      <trkpt lat="43.3171" lon="5.72265">
        <ele>1016.5</ele>
        <time>2013-05-22T12:17:38Z</time>
      </trkpt>
      <trkpt lat="43.31707" lon="5.72276">
        <ele>1014.9</ele>
        <time>2013-05-22T12:17:51Z</time>
      </trkpt>
      <trkpt lat="43.31704" lon="5.72288">
        <ele>1012.2</ele>
        <time>2013-05-22T12:18:04Z</time>
      </trkpt>
      <trkpt lat="43.31702" lon="5.72299">
        <ele>1007.2</ele>
        <time>2013-05-22T12:18:16Z</time>
      </trkpt>
      <trkpt lat="43.31702" lon="5.723">
        <ele>1007</ele>
        <time>2013-05-22T12:18:17Z</time>
      </trkpt>
      <trkpt lat="43.31703" lon="5.72322">
        <ele>1005.2</ele>
        <time>2013-05-22T12:18:34Z</time>
      </trkpt>
      <trkpt lat="43.31705" lon="5.72333">
        <ele>1007.4</ele>
        <time>2013-05-22T12:18:41Z</time>
      </trkpt>
      <trkpt lat="43.31704" lon="5.72346">
        <ele>1007.5</ele>
        <time>2013-05-22T12:18:51Z</time>
      </trkpt>
      <trkpt lat="43.31702" lon="5.72358">
        <ele>1007.9</ele>
        <time>2013-05-22T12:19:00Z</time>
      </trkpt>
      <trkpt lat="43.31702" lon="5.72369">
        <ele>1008.7</ele>
        <time>2013-05-22T12:19:08Z</time>
      </trkpt>
      <trkpt lat="43.31701" lon="5.72381">
        <ele>1008.9</ele>
        <time>2013-05-22T12:19:16Z</time>
      </trkpt>
      <trkpt lat="43.31699" lon="5.72391">
        <ele>1007.2</ele>
        <time>2013-05-22T12:19:24Z</time>
      </trkpt>
      <trkpt lat="43.31699" lon="5.72393">
        <ele>1007.5</ele>
        <time>2013-05-22T12:19:25Z</time>
      </trkpt>
      <trkpt lat="43.31702" lon="5.72415">
        <ele>1007.2</ele>
        <time>2013-05-22T12:19:45Z</time>
      </trkpt>
      <trkpt lat="43.31704" lon="5.72427">
        <ele>1007.4</ele>
        <time>2013-05-22T12:19:56Z</time>
      </trkpt>
      <trkpt lat="43.31704" lon="5.72439">
        <ele>1005.5</ele>
        <time>2013-05-22T12:20:05Z</time>
      </trkpt>
      <trkpt lat="43.31706" lon="5.7245">
        <ele>1006.9</ele>
        <time>2013-05-22T12:20:14Z</time>
      </trkpt>
      <trkpt lat="43.31705" lon="5.72461">
        <ele>1006.9</ele>
        <time>2013-05-22T12:20:22Z</time>
      </trkpt>
      <trkpt lat="43.31705" lon="5.72473">
        <ele>1010</ele>
        <time>2013-05-22T12:20:32Z</time>
      </trkpt>
      <trkpt lat="43.31705" lon="5.72475">
        <ele>1010.2</ele>
        <time>2013-05-22T12:20:33Z</time>
      </trkpt>
      <trkpt lat="43.317" lon="5.72494">
        <ele>1001</ele>
        <time>2013-05-22T12:20:53Z</time>
      </trkpt>
      <trkpt lat="43.31698" lon="5.72506">
        <ele>998.7</ele>
        <time>2013-05-22T12:21:07Z</time>
      </trkpt>
      <trkpt lat="43.317" lon="5.72517">
        <ele>994.5</ele>
        <time>2013-05-22T12:21:19Z</time>
      </trkpt>
      <trkpt lat="43.31702" lon="5.72529">
        <ele>994</ele>
        <time>2013-05-22T12:21:29Z</time>
      </trkpt>
      <trkpt lat="43.31702" lon="5.7254">
        <ele>993.2</ele>
        <time>2013-05-22T12:21:37Z</time>
      </trkpt>
      <trkpt lat="43.31702" lon="5.72542">
        <ele>993</ele>
        <time>2013-05-22T12:21:38Z</time>
      </trkpt>
      <trkpt lat="43.31704" lon="5.72563">
        <ele>994.7</ele>
        <time>2013-05-22T12:21:58Z</time>
      </trkpt>
      <trkpt lat="43.31705" lon="5.72574">
        <ele>995.2</ele>
        <time>2013-05-22T12:22:06Z</time>
      </trkpt>
      <trkpt lat="43.31707" lon="5.72586">
        <ele>997.2</ele>
        <time>2013-05-22T12:22:25Z</time>
      </trkpt>
      <trkpt lat="43.31709" lon="5.72597">
        <ele>998</ele>
        <time>2013-05-22T12:22:34Z</time>
      </trkpt>
      <trkpt lat="43.3171" lon="5.72609">
        <ele>994.2</ele>
        <time>2013-05-22T12:22:43Z</time>
      </trkpt>
      <trkpt lat="43.3171" lon="5.7261">
        <ele>994.2</ele>
        <time>2013-05-22T12:22:44Z</time>
      </trkpt>
      <trkpt lat="43.31716" lon="5.72631">
        <ele>991.7</ele>
        <time>2013-05-22T12:23:02Z</time>
      </trkpt>
      <trkpt lat="43.3172" lon="5.72641">
        <ele>994.5</ele>
        <time>2013-05-22T12:23:10Z</time>
      </trkpt>
      <trkpt lat="43.31722" lon="5.72652">
        <ele>995.7</ele>
        <time>2013-05-22T12:23:19Z</time>
      </trkpt>
      <trkpt lat="43.31725" lon="5.72663">
        <ele>997</ele>
        <time>2013-05-22T12:23:28Z</time>
      </trkpt>
      <trkpt lat="43.31727" lon="5.72674">
        <ele>997.5</ele>
        <time>2013-05-22T12:23:38Z</time>
      </trkpt>
      <trkpt lat="43.31729" lon="5.72685">
        <ele>997.2</ele>
        <time>2013-05-22T12:23:47Z</time>
      </trkpt>
      <trkpt lat="43.31729" lon="5.72686">
        <ele>996.7</ele>
        <time>2013-05-22T12:23:48Z</time>
      </trkpt>
      <trkpt lat="43.31733" lon="5.72708">
        <ele>996.7</ele>
        <time>2013-05-22T12:24:05Z</time>
      </trkpt>
      <trkpt lat="43.31736" lon="5.72719">
        <ele>996</ele>
        <time>2013-05-22T12:24:14Z</time>
      </trkpt>
      <trkpt lat="43.31739" lon="5.72729">
        <ele>996.7</ele>
        <time>2013-05-22T12:24:22Z</time>
      </trkpt>
      <trkpt lat="43.31741" lon="5.72741">
        <ele>997.5</ele>
        <time>2013-05-22T12:24:35Z</time>
      </trkpt>
      <trkpt lat="43.31743" lon="5.72753">
        <ele>994.7</ele>
        <time>2013-05-22T12:24:45Z</time>
      </trkpt>
      <trkpt lat="43.31746" lon="5.72764">
        <ele>994.9</ele>
        <time>2013-05-22T12:24:55Z</time>
      </trkpt>
      <trkpt lat="43.31746" lon="5.72765">
        <ele>995</ele>
        <time>2013-05-22T12:24:56Z</time>
      </trkpt>
      <trkpt lat="43.31749" lon="5.72787">
        <ele>997</ele>
        <time>2013-05-22T12:25:15Z</time>
      </trkpt>
      <trkpt lat="43.3175" lon="5.72798">
        <ele>997.4</ele>
        <time>2013-05-22T12:25:25Z</time>
      </trkpt>
      <trkpt lat="43.31751" lon="5.7281">
        <ele>996.5</ele>
        <time>2013-05-22T12:25:39Z</time>
      </trkpt>
      <trkpt lat="43.31754" lon="5.72821">
        <ele>993.4</ele>
        <time>2013-05-22T12:25:57Z</time>
      </trkpt>
      <trkpt lat="43.31754" lon="5.72822">
        <ele>993.7</ele>
        <time>2013-05-22T12:25:58Z</time>
      </trkpt>
      <trkpt lat="43.31768" lon="5.72834">
        <ele>995.5</ele>
        <time>2013-05-22T12:26:26Z</time>
      </trkpt>
      <trkpt lat="43.31772" lon="5.72845">
        <ele>999.5</ele>
        <time>2013-05-22T12:27:27Z</time>
      </trkpt>
      <trkpt lat="43.31772" lon="5.72845">
        <ele>999.2</ele>
        <time>2013-05-22T12:27:28Z</time>
      </trkpt>
      <trkpt lat="43.31772" lon="5.72868">
        <ele>993</ele>
        <time>2013-05-22T12:27:55Z</time>
      </trkpt>
      <trkpt lat="43.31775" lon="5.72879">
        <ele>993</ele>
        <time>2013-05-22T12:28:08Z</time>
      </trkpt>
      <trkpt lat="43.3178" lon="5.7289">
        <ele>992.2</ele>
        <time>2013-05-22T12:28:24Z</time>
      </trkpt>
      <trkpt lat="43.31784" lon="5.729">
        <ele>990.9</ele>
        <time>2013-05-22T12:28:39Z</time>
      </trkpt>
      <trkpt lat="43.31784" lon="5.72901">
        <ele>990.7</ele>
        <time>2013-05-22T12:28:40Z</time>
      </trkpt>
      <trkpt lat="43.31782" lon="5.72888">
        <ele>994.5</ele>
        <time>2013-05-22T12:30:01Z</time>
      </trkpt>
      <trkpt lat="43.31773" lon="5.72868">
        <ele>994</ele>
        <time>2013-05-22T12:30:22Z</time>
      </trkpt>
      <trkpt lat="43.3177" lon="5.72858">
        <ele>995.2</ele>
        <time>2013-05-22T12:30:30Z</time>
      </trkpt>
      <trkpt lat="43.31768" lon="5.72847">
        <ele>995</ele>
        <time>2013-05-22T12:30:39Z</time>
      </trkpt>
      <trkpt lat="43.31767" lon="5.72835">
        <ele>993.4</ele>
        <time>2013-05-22T12:30:48Z</time>
      </trkpt>
      <trkpt lat="43.31759" lon="5.7283">
        <ele>995</ele>
        <time>2013-05-22T12:31:01Z</time>
      </trkpt>
      <trkpt lat="43.31759" lon="5.7283">
        <ele>994.9</ele>
        <time>2013-05-22T12:31:02Z</time>
      </trkpt>
      <trkpt lat="43.31754" lon="5.72808">
        <ele>998</ele>
        <time>2013-05-22T12:31:36Z</time>
      </trkpt>
      <trkpt lat="43.3175" lon="5.72798">
        <ele>998</ele>
        <time>2013-05-22T12:31:47Z</time>
      </trkpt>
      <trkpt lat="43.3175" lon="5.72786">
        <ele>995.7</ele>
        <time>2013-05-22T12:32:01Z</time>
      </trkpt>
      <trkpt lat="43.31748" lon="5.72775">
        <ele>995.2</ele>
        <time>2013-05-22T12:32:11Z</time>
      </trkpt>
      <trkpt lat="43.31748" lon="5.72774">
        <ele>995</ele>
        <time>2013-05-22T12:32:12Z</time>
      </trkpt>
      <trkpt lat="43.31743" lon="5.72752">
        <ele>995.2</ele>
        <time>2013-05-22T12:32:31Z</time>
      </trkpt>
      <trkpt lat="43.31742" lon="5.72741">
        <ele>995</ele>
        <time>2013-05-22T12:32:42Z</time>
      </trkpt>
      <trkpt lat="43.3174" lon="5.7273">
        <ele>995</ele>
        <time>2013-05-22T12:32:54Z</time>
      </trkpt>
      <trkpt lat="43.31738" lon="5.72719">
        <ele>995.2</ele>
        <time>2013-05-22T12:33:05Z</time>
      </trkpt>
      <trkpt lat="43.31741" lon="5.72708">
        <ele>995.9</ele>
        <time>2013-05-22T12:33:18Z</time>
      </trkpt>
      <trkpt lat="43.31741" lon="5.72707">
        <ele>995.9</ele>
        <time>2013-05-22T12:33:19Z</time>
      </trkpt>
      <trkpt lat="43.31745" lon="5.72686">
        <ele>997</ele>
        <time>2013-05-22T12:33:36Z</time>
      </trkpt>
      <trkpt lat="43.31742" lon="5.72676">
        <ele>998.9</ele>
        <time>2013-05-22T12:33:44Z</time>
      </trkpt>
      <trkpt lat="43.3174" lon="5.72665">
        <ele>999.9</ele>
        <time>2013-05-22T12:33:53Z</time>
      </trkpt>
      <trkpt lat="43.31738" lon="5.72653">
        <ele>999.7</ele>
        <time>2013-05-22T12:34:26Z</time>
      </trkpt>
      <trkpt lat="43.31738" lon="5.72651">
        <ele>999.7</ele>
        <time>2013-05-22T12:34:27Z</time>
      </trkpt>
      <trkpt lat="43.31733" lon="5.72629">
        <ele>1001</ele>
        <time>2013-05-22T12:34:47Z</time>
      </trkpt>
      <trkpt lat="43.3173" lon="5.72618">
        <ele>1001.4</ele>
        <time>2013-05-22T12:34:55Z</time>
      </trkpt>
      <trkpt lat="43.31728" lon="5.72607">
        <ele>1001.5</ele>
        <time>2013-05-22T12:35:03Z</time>
      </trkpt>
      <trkpt lat="43.31726" lon="5.72595">
        <ele>1002</ele>
        <time>2013-05-22T12:35:11Z</time>
      </trkpt>
      <trkpt lat="43.31724" lon="5.72584">
        <ele>1002.7</ele>
        <time>2013-05-22T12:35:19Z</time>
      </trkpt>
      <trkpt lat="43.31722" lon="5.72573">
        <ele>1002.7</ele>
        <time>2013-05-22T12:35:27Z</time>
      </trkpt>
      <trkpt lat="43.31722" lon="5.72572">
        <ele>1002.9</ele>
        <time>2013-05-22T12:35:28Z</time>
      </trkpt>
      <trkpt lat="43.31721" lon="5.72549">
        <ele>1004.5</ele>
        <time>2013-05-22T12:35:43Z</time>
      </trkpt>
      <trkpt lat="43.31721" lon="5.72537">
        <ele>1005</ele>
        <time>2013-05-22T12:35:51Z</time>
      </trkpt>
      <trkpt lat="43.3172" lon="5.72525">
        <ele>1004.5</ele>
        <time>2013-05-22T12:36:00Z</time>
      </trkpt>
      <trkpt lat="43.3172" lon="5.72514">
        <ele>1005</ele>
        <time>2013-05-22T12:36:08Z</time>
      </trkpt>
      <trkpt lat="43.3172" lon="5.72502">
        <ele>1005.7</ele>
        <time>2013-05-22T12:36:16Z</time>
      </trkpt>
      <trkpt lat="43.31721" lon="5.7249">
        <ele>1006</ele>
        <time>2013-05-22T12:36:24Z</time>
      </trkpt>
      <trkpt lat="43.31721" lon="5.72478">
        <ele>1006.7</ele>
        <time>2013-05-22T12:36:32Z</time>
      </trkpt>
      <trkpt lat="43.31721" lon="5.72477">
        <ele>1006.7</ele>
        <time>2013-05-22T12:36:33Z</time>
      </trkpt>
      <trkpt lat="43.3172" lon="5.72455">
        <ele>1007.7</ele>
        <time>2013-05-22T12:36:48Z</time>
      </trkpt>
      <trkpt lat="43.3172" lon="5.72443">
        <ele>1008.5</ele>
        <time>2013-05-22T12:36:56Z</time>
      </trkpt>
      <trkpt lat="43.3172" lon="5.72431">
        <ele>1009.7</ele>
        <time>2013-05-22T12:37:04Z</time>
      </trkpt>
      <trkpt lat="43.31719" lon="5.7242">
        <ele>1010.5</ele>
        <time>2013-05-22T12:37:12Z</time>
      </trkpt>
      <trkpt lat="43.31718" lon="5.72408">
        <ele>1011.7</ele>
        <time>2013-05-22T12:37:21Z</time>
      </trkpt>
      <trkpt lat="43.31719" lon="5.72397">
        <ele>1011.7</ele>
        <time>2013-05-22T12:37:31Z</time>
      </trkpt>
      <trkpt lat="43.3172" lon="5.72386">
        <ele>1012.5</ele>
        <time>2013-05-22T12:37:39Z</time>
      </trkpt>
      <trkpt lat="43.3172" lon="5.72384">
        <ele>1012.4</ele>
        <time>2013-05-22T12:37:40Z</time>
      </trkpt>
      <trkpt lat="43.31722" lon="5.72362">
        <ele>1012</ele>
        <time>2013-05-22T12:37:55Z</time>
      </trkpt>
      <trkpt lat="43.31724" lon="5.7235">
        <ele>1011.5</ele>
        <time>2013-05-22T12:38:04Z</time>
      </trkpt>
      <trkpt lat="43.31723" lon="5.72339">
        <ele>1012.7</ele>
        <time>2013-05-22T12:38:13Z</time>
      </trkpt>
      <trkpt lat="43.31722" lon="5.72328">
        <ele>1013.4</ele>
        <time>2013-05-22T12:38:20Z</time>
      </trkpt>
      <trkpt lat="43.31723" lon="5.72316">
        <ele>1014.7</ele>
        <time>2013-05-22T12:38:28Z</time>
      </trkpt>
      <trkpt lat="43.31723" lon="5.72305">
        <ele>1019.2</ele>
        <time>2013-05-22T12:38:36Z</time>
      </trkpt>
      <trkpt lat="43.31723" lon="5.72293">
        <ele>1022</ele>
        <time>2013-05-22T12:38:44Z</time>
      </trkpt>
      <trkpt lat="43.31723" lon="5.72292">
        <ele>1021.7</ele>
        <time>2013-05-22T12:38:45Z</time>
      </trkpt>
      <trkpt lat="43.31723" lon="5.7227">
        <ele>1020.2</ele>
        <time>2013-05-22T12:38:59Z</time>
      </trkpt>
      <trkpt lat="43.31723" lon="5.72259">
        <ele>1019.4</ele>
        <time>2013-05-22T12:39:06Z</time>
      </trkpt>
      <trkpt lat="43.31723" lon="5.72247">
        <ele>1020.2</ele>
        <time>2013-05-22T12:39:14Z</time>
      </trkpt>
      <trkpt lat="43.31721" lon="5.72235">
        <ele>1021</ele>
        <time>2013-05-22T12:39:22Z</time>
      </trkpt>
      <trkpt lat="43.31722" lon="5.72223">
        <ele>1024</ele>
        <time>2013-05-22T12:39:29Z</time>
      </trkpt>
      <trkpt lat="43.31722" lon="5.72211">
        <ele>1022.5</ele>
        <time>2013-05-22T12:39:37Z</time>
      </trkpt>
      <trkpt lat="43.31723" lon="5.722">
        <ele>1022.7</ele>
        <time>2013-05-22T12:39:44Z</time>
      </trkpt>
      <trkpt lat="43.31722" lon="5.72188">
        <ele>1022</ele>
        <time>2013-05-22T12:39:52Z</time>
      </trkpt>
      <trkpt lat="43.31722" lon="5.72186">
        <ele>1021.7</ele>
        <time>2013-05-22T12:39:53Z</time>
      </trkpt>
      <trkpt lat="43.31722" lon="5.72166">
        <ele>1022</ele>
        <time>2013-05-22T12:40:06Z</time>
      </trkpt>
      <trkpt lat="43.31721" lon="5.72154">
        <ele>1021.7</ele>
        <time>2013-05-22T12:40:14Z</time>
      </trkpt>
      <trkpt lat="43.31721" lon="5.72141">
        <ele>1024.9</ele>
        <time>2013-05-22T12:40:29Z</time>
      </trkpt>
      <trkpt lat="43.31721" lon="5.72129">
        <ele>1022.2</ele>
        <time>2013-05-22T12:40:38Z</time>
      </trkpt>
      <trkpt lat="43.31724" lon="5.72118">
        <ele>1020.5</ele>
        <time>2013-05-22T12:40:49Z</time>
      </trkpt>
      <trkpt lat="43.31732" lon="5.72111">
        <ele>1016.7</ele>
        <time>2013-05-22T12:41:53Z</time>
      </trkpt>
      <trkpt lat="43.31733" lon="5.72111">
        <ele>1017</ele>
        <time>2013-05-22T12:41:54Z</time>
      </trkpt>
      <trkpt lat="43.31749" lon="5.72105">
        <ele>1018.2</ele>
        <time>2013-05-22T12:43:11Z</time>
      </trkpt>
      <trkpt lat="43.31749" lon="5.72105">
        <ele>1018.5</ele>
        <time>2013-05-22T12:43:12Z</time>
      </trkpt>
      <trkpt lat="43.31756" lon="5.72099">
        <ele>1017.2</ele>
        <time>2013-05-22T12:44:19Z</time>
      </trkpt>
      <trkpt lat="43.31773" lon="5.72093">
        <ele>1008</ele>
        <time>2013-05-22T12:45:12Z</time>
      </trkpt>
      <trkpt lat="43.31781" lon="5.72099">
        <ele>1004.5</ele>
        <time>2013-05-22T12:45:36Z</time>
      </trkpt>
      <trkpt lat="43.31782" lon="5.72099">
        <ele>1004.5</ele>
        <time>2013-05-22T12:45:37Z</time>
      </trkpt>
      <trkpt lat="43.31798" lon="5.72101">
        <ele>1000.4</ele>
        <time>2013-05-22T12:46:27Z</time>
      </trkpt>
      <trkpt lat="43.31806" lon="5.72105">
        <ele>997.5</ele>
        <time>2013-05-22T12:47:10Z</time>
      </trkpt>
      <trkpt lat="43.31807" lon="5.72105">
        <ele>997.4</ele>
        <time>2013-05-22T12:47:11Z</time>
      </trkpt>
      <trkpt lat="43.31812" lon="5.72115">
        <ele>989.4</ele>
        <time>2013-05-22T12:48:13Z</time>
      </trkpt>
      <trkpt lat="43.31821" lon="5.72116">
        <ele>983.7</ele>
        <time>2013-05-22T12:49:23Z</time>
      </trkpt>
      <trkpt lat="43.31838" lon="5.7211">
        <ele>975.2</ele>
        <time>2013-05-22T12:50:03Z</time>
      </trkpt>
      <trkpt lat="43.31845" lon="5.72116">
        <ele>973.7</ele>
        <time>2013-05-22T12:50:20Z</time>
      </trkpt>
      <trkpt lat="43.31851" lon="5.72124">
        <ele>974</ele>
        <time>2013-05-22T12:50:35Z</time>
      </trkpt>
      <trkpt lat="43.31852" lon="5.72125">
        <ele>973.2</ele>
        <time>2013-05-22T12:50:36Z</time>
      </trkpt>
      <trkpt lat="43.31861" lon="5.72142">
        <ele>963.5</ele>
        <time>2013-05-22T12:50:59Z</time>
      </trkpt>
      <trkpt lat="43.31864" lon="5.72153">
        <ele>961.5</ele>
        <time>2013-05-22T12:51:10Z</time>
      </trkpt>
      <trkpt lat="43.31865" lon="5.72165">
        <ele>958.9</ele>
        <time>2013-05-22T12:51:21Z</time>
      </trkpt>
      <trkpt lat="43.31868" lon="5.72175">
        <ele>956</ele>
        <time>2013-05-22T12:51:29Z</time>
      </trkpt>
      <trkpt lat="43.31872" lon="5.72185">
        <ele>959.4</ele>
        <time>2013-05-22T12:51:35Z</time>
      </trkpt>
      <trkpt lat="43.31875" lon="5.72196">
        <ele>957.4</ele>
        <time>2013-05-22T12:51:43Z</time>
      </trkpt>
      <trkpt lat="43.31876" lon="5.72197">
        <ele>957</ele>
        <time>2013-05-22T12:51:44Z</time>
      </trkpt>
      <trkpt lat="43.31876" lon="5.72219">
        <ele>951.9</ele>
        <time>2013-05-22T12:51:58Z</time>
      </trkpt>
      <trkpt lat="43.31878" lon="5.7223">
        <ele>947.7</ele>
        <time>2013-05-22T12:52:05Z</time>
      </trkpt>
      <trkpt lat="43.31876" lon="5.72242">
        <ele>953.5</ele>
        <time>2013-05-22T12:52:12Z</time>
      </trkpt>
      <trkpt lat="43.31876" lon="5.72253">
        <ele>955.7</ele>
        <time>2013-05-22T12:52:20Z</time>
      </trkpt>
      <trkpt lat="43.31876" lon="5.72265">
        <ele>951</ele>
        <time>2013-05-22T12:52:31Z</time>
      </trkpt>
      <trkpt lat="43.31875" lon="5.72276">
        <ele>945</ele>
        <time>2013-05-22T12:52:43Z</time>
      </trkpt>
      <trkpt lat="43.31878" lon="5.72288">
        <ele>944</ele>
        <time>2013-05-22T12:52:55Z</time>
      </trkpt>
      <trkpt lat="43.31879" lon="5.72289">
        <ele>943.4</ele>
        <time>2013-05-22T12:52:56Z</time>
      </trkpt>
      <trkpt lat="43.31881" lon="5.7231">
        <ele>946.2</ele>
        <time>2013-05-22T12:53:20Z</time>
      </trkpt>
      <trkpt lat="43.31873" lon="5.72316">
        <ele>947.2</ele>
        <time>2013-05-22T12:53:30Z</time>
      </trkpt>
      <trkpt lat="43.31875" lon="5.72327">
        <ele>964</ele>
        <time>2013-05-22T12:53:45Z</time>
      </trkpt>
      <trkpt lat="43.31882" lon="5.72334">
        <ele>939.7</ele>
        <time>2013-05-22T12:54:57Z</time>
      </trkpt>
      <trkpt lat="43.31883" lon="5.72335">
        <ele>939.4</ele>
        <time>2013-05-22T12:54:58Z</time>
      </trkpt>
      <trkpt lat="43.31887" lon="5.72356">
        <ele>936.2</ele>
        <time>2013-05-22T12:55:16Z</time>
      </trkpt>
      <trkpt lat="43.31888" lon="5.72367">
        <ele>936.5</ele>
        <time>2013-05-22T12:55:24Z</time>
      </trkpt>
      <trkpt lat="43.31885" lon="5.72377">
        <ele>935</ele>
        <time>2013-05-22T12:55:32Z</time>
      </trkpt>
      <trkpt lat="43.31883" lon="5.72388">
        <ele>932.2</ele>
        <time>2013-05-22T12:55:42Z</time>
      </trkpt>
      <trkpt lat="43.3188" lon="5.72399">
        <ele>928.4</ele>
        <time>2013-05-22T12:55:53Z</time>
      </trkpt>
      <trkpt lat="43.3188" lon="5.72411">
        <ele>923.4</ele>
        <time>2013-05-22T12:56:03Z</time>
      </trkpt>
      <trkpt lat="43.3188" lon="5.72412">
        <ele>923</ele>
        <time>2013-05-22T12:56:04Z</time>
      </trkpt>
      <trkpt lat="43.31879" lon="5.72435">
        <ele>921.2</ele>
        <time>2013-05-22T12:56:25Z</time>
      </trkpt>
      <trkpt lat="43.31883" lon="5.72444">
        <ele>922.2</ele>
        <time>2013-05-22T12:56:33Z</time>
      </trkpt>
      <trkpt lat="43.31883" lon="5.72456">
        <ele>924.2</ele>
        <time>2013-05-22T12:56:43Z</time>
      </trkpt>
      <trkpt lat="43.31886" lon="5.72466">
        <ele>919.7</ele>
        <time>2013-05-22T12:56:55Z</time>
      </trkpt>
      <trkpt lat="43.31888" lon="5.72478">
        <ele>916.2</ele>
        <time>2013-05-22T12:57:06Z</time>
      </trkpt>
      <trkpt lat="43.31889" lon="5.72479">
        <ele>916.7</ele>
        <time>2013-05-22T12:57:07Z</time>
      </trkpt>
      <trkpt lat="43.31892" lon="5.72501">
        <ele>919.5</ele>
        <time>2013-05-22T12:57:34Z</time>
      </trkpt>
      <trkpt lat="43.31896" lon="5.72511">
        <ele>918.9</ele>
        <time>2013-05-22T12:57:43Z</time>
      </trkpt>
      <trkpt lat="43.319" lon="5.72522">
        <ele>909</ele>
        <time>2013-05-22T12:57:54Z</time>
      </trkpt>
      <trkpt lat="43.31902" lon="5.72533">
        <ele>908.7</ele>
        <time>2013-05-22T12:58:02Z</time>
      </trkpt>
      <trkpt lat="43.31903" lon="5.72544">
        <ele>908.2</ele>
        <time>2013-05-22T12:58:10Z</time>
      </trkpt>
      <trkpt lat="43.31904" lon="5.72545">
        <ele>908.7</ele>
        <time>2013-05-22T12:58:11Z</time>
      </trkpt>
      <trkpt lat="43.31911" lon="5.72562">
        <ele>908.5</ele>
        <time>2013-05-22T12:58:27Z</time>
      </trkpt>
      <trkpt lat="43.31917" lon="5.72572">
        <ele>908.4</ele>
        <time>2013-05-22T12:58:39Z</time>
      </trkpt>
      <trkpt lat="43.31922" lon="5.72579">
        <ele>903.2</ele>
        <time>2013-05-22T12:58:47Z</time>
      </trkpt>
      <trkpt lat="43.31924" lon="5.7259">
        <ele>901</ele>
        <time>2013-05-22T12:58:55Z</time>
      </trkpt>
      <trkpt lat="43.31927" lon="5.726">
        <ele>904.2</ele>
        <time>2013-05-22T12:59:02Z</time>
      </trkpt>
      <trkpt lat="43.31931" lon="5.72609">
        <ele>904.5</ele>
        <time>2013-05-22T12:59:09Z</time>
      </trkpt>
      <trkpt lat="43.31935" lon="5.7262">
        <ele>905</ele>
        <time>2013-05-22T12:59:18Z</time>
      </trkpt>
      <trkpt lat="43.31935" lon="5.72621">
        <ele>904</ele>
        <time>2013-05-22T12:59:19Z</time>
      </trkpt>
      <trkpt lat="43.31938" lon="5.72643">
        <ele>901.2</ele>
        <time>2013-05-22T12:59:35Z</time>
      </trkpt>
      <trkpt lat="43.31935" lon="5.72654">
        <ele>897.2</ele>
        <time>2013-05-22T12:59:44Z</time>
      </trkpt>
      <trkpt lat="43.31935" lon="5.72666">
        <ele>893.9</ele>
        <time>2013-05-22T12:59:52Z</time>
      </trkpt>
      <trkpt lat="43.31938" lon="5.72678">
        <ele>890.5</ele>
        <time>2013-05-22T13:00:01Z</time>
      </trkpt>
      <trkpt lat="43.3194" lon="5.72689">
        <ele>892.5</ele>
        <time>2013-05-22T13:00:08Z</time>
      </trkpt>
      <trkpt lat="43.3194" lon="5.727">
        <ele>894</ele>
        <time>2013-05-22T13:00:16Z</time>
      </trkpt>
      <trkpt lat="43.31943" lon="5.72712">
        <ele>894.2</ele>
        <time>2013-05-22T13:00:27Z</time>
      </trkpt>
      <trkpt lat="43.31943" lon="5.72713">
        <ele>893.2</ele>
        <time>2013-05-22T13:00:28Z</time>
      </trkpt>
      <trkpt lat="43.31949" lon="5.72733">
        <ele>890.2</ele>
        <time>2013-05-22T13:00:44Z</time>
      </trkpt>
      <trkpt lat="43.31952" lon="5.72744">
        <ele>890.9</ele>
        <time>2013-05-22T13:00:53Z</time>
      </trkpt>
      <trkpt lat="43.31958" lon="5.72753">
        <ele>888.5</ele>
        <time>2013-05-22T13:01:03Z</time>
      </trkpt>
      <trkpt lat="43.31961" lon="5.72764">
        <ele>887.2</ele>
        <time>2013-05-22T13:01:12Z</time>
      </trkpt>
      <trkpt lat="43.31965" lon="5.72773">
        <ele>886.5</ele>
        <time>2013-05-22T13:01:21Z</time>
      </trkpt>
      <trkpt lat="43.31969" lon="5.72784">
        <ele>886.2</ele>
        <time>2013-05-22T13:01:30Z</time>
      </trkpt>
      <trkpt lat="43.31969" lon="5.72785">
        <ele>886</ele>
        <time>2013-05-22T13:01:31Z</time>
      </trkpt>
      <trkpt lat="43.31973" lon="5.72806">
        <ele>884.7</ele>
        <time>2013-05-22T13:01:47Z</time>
      </trkpt>
      <trkpt lat="43.31978" lon="5.72816">
        <ele>882.9</ele>
        <time>2013-05-22T13:01:56Z</time>
      </trkpt>
      <trkpt lat="43.31983" lon="5.72825">
        <ele>882</ele>
        <time>2013-05-22T13:02:04Z</time>
      </trkpt>
      <trkpt lat="43.31986" lon="5.72837">
        <ele>877</ele>
        <time>2013-05-22T13:02:15Z</time>
      </trkpt>
      <trkpt lat="43.3199" lon="5.72848">
        <ele>876</ele>
        <time>2013-05-22T13:02:24Z</time>
      </trkpt>
      <trkpt lat="43.31995" lon="5.72857">
        <ele>877</ele>
        <time>2013-05-22T13:02:34Z</time>
      </trkpt>
      <trkpt lat="43.31995" lon="5.72858">
        <ele>877</ele>
        <time>2013-05-22T13:02:35Z</time>
      </trkpt>
      <trkpt lat="43.32" lon="5.72878">
        <ele>869.5</ele>
        <time>2013-05-22T13:02:58Z</time>
      </trkpt>
      <trkpt lat="43.32001" lon="5.7289">
        <ele>867.7</ele>
        <time>2013-05-22T13:03:10Z</time>
      </trkpt>
      <trkpt lat="43.32005" lon="5.72902">
        <ele>869.2</ele>
        <time>2013-05-22T13:03:19Z</time>
      </trkpt>
      <trkpt lat="43.32007" lon="5.72912">
        <ele>869</ele>
        <time>2013-05-22T13:03:27Z</time>
      </trkpt>
      <trkpt lat="43.32009" lon="5.72924">
        <ele>864</ele>
        <time>2013-05-22T13:03:37Z</time>
      </trkpt>
      <trkpt lat="43.32009" lon="5.72925">
        <ele>864.4</ele>
        <time>2013-05-22T13:03:38Z</time>
      </trkpt>
      <trkpt lat="43.32012" lon="5.72946">
        <ele>862.7</ele>
        <time>2013-05-22T13:03:54Z</time>
      </trkpt>
      <trkpt lat="43.32016" lon="5.72957">
        <ele>856.4</ele>
        <time>2013-05-22T13:04:04Z</time>
      </trkpt>
      <trkpt lat="43.3202" lon="5.72967">
        <ele>858.4</ele>
        <time>2013-05-22T13:04:12Z</time>
      </trkpt>
      <trkpt lat="43.32023" lon="5.72979">
        <ele>854.5</ele>
        <time>2013-05-22T13:04:21Z</time>
      </trkpt>
      <trkpt lat="43.32026" lon="5.72989">
        <ele>852</ele>
        <time>2013-05-22T13:04:31Z</time>
      </trkpt>
      <trkpt lat="43.3203" lon="5.73">
        <ele>852.9</ele>
        <time>2013-05-22T13:04:39Z</time>
      </trkpt>
      <trkpt lat="43.3203" lon="5.73001">
        <ele>853.4</ele>
        <time>2013-05-22T13:04:40Z</time>
      </trkpt>
      <trkpt lat="43.32031" lon="5.73024">
        <ele>849.4</ele>
        <time>2013-05-22T13:04:59Z</time>
      </trkpt>
      <trkpt lat="43.32034" lon="5.73034">
        <ele>842</ele>
        <time>2013-05-22T13:05:10Z</time>
      </trkpt>
      <trkpt lat="43.32039" lon="5.73044">
        <ele>842.5</ele>
        <time>2013-05-22T13:05:17Z</time>
      </trkpt>
      <trkpt lat="43.32044" lon="5.73053">
        <ele>841.4</ele>
        <time>2013-05-22T13:05:26Z</time>
      </trkpt>
      <trkpt lat="43.32048" lon="5.73064">
        <ele>844</ele>
        <time>2013-05-22T13:05:32Z</time>
      </trkpt>
      <trkpt lat="43.32053" lon="5.73071">
        <ele>847.4</ele>
        <time>2013-05-22T13:05:39Z</time>
      </trkpt>
      <trkpt lat="43.32059" lon="5.73079">
        <ele>849.2</ele>
        <time>2013-05-22T13:05:46Z</time>
      </trkpt>
      <trkpt lat="43.3206" lon="5.7308">
        <ele>848.9</ele>
        <time>2013-05-22T13:05:47Z</time>
      </trkpt>
      <trkpt lat="43.32065" lon="5.73102">
        <ele>839.2</ele>
        <time>2013-05-22T13:06:05Z</time>
      </trkpt>
      <trkpt lat="43.32065" lon="5.73114">
        <ele>836.5</ele>
        <time>2013-05-22T13:06:14Z</time>
      </trkpt>
      <trkpt lat="43.3207" lon="5.73123">
        <ele>834</ele>
        <time>2013-05-22T13:06:22Z</time>
      </trkpt>
      <trkpt lat="43.32075" lon="5.73132">
        <ele>835.7</ele>
        <time>2013-05-22T13:06:29Z</time>
      </trkpt>
      <trkpt lat="43.32079" lon="5.73143">
        <ele>832.5</ele>
        <time>2013-05-22T13:06:36Z</time>
      </trkpt>
      <trkpt lat="43.32081" lon="5.73154">
        <ele>833</ele>
        <time>2013-05-22T13:06:43Z</time>
      </trkpt>
      <trkpt lat="43.32088" lon="5.73162">
        <ele>830.5</ele>
        <time>2013-05-22T13:08:00Z</time>
      </trkpt>
      <trkpt lat="43.32089" lon="5.73161">
        <ele>830</ele>
        <time>2013-05-22T13:08:01Z</time>
      </trkpt>
      <trkpt lat="43.32088" lon="5.73174">
        <ele>831.2</ele>
        <time>2013-05-22T13:09:02Z</time>
      </trkpt>
      <trkpt lat="43.32096" lon="5.73194">
        <ele>825</ele>
        <time>2013-05-22T13:09:32Z</time>
      </trkpt>
      <trkpt lat="43.32096" lon="5.73205">
        <ele>819.5</ele>
        <time>2013-05-22T13:10:25Z</time>
      </trkpt>
      <trkpt lat="43.32096" lon="5.73206">
        <ele>819.2</ele>
        <time>2013-05-22T13:10:26Z</time>
      </trkpt>
      <trkpt lat="43.32097" lon="5.73229">
        <ele>818.9</ele>
        <time>2013-05-22T13:10:45Z</time>
      </trkpt>
      <trkpt lat="43.32095" lon="5.7324">
        <ele>817</ele>
        <time>2013-05-22T13:10:54Z</time>
      </trkpt>
      <trkpt lat="43.32096" lon="5.73252">
        <ele>815.7</ele>
        <time>2013-05-22T13:11:06Z</time>
      </trkpt>
      <trkpt lat="43.321" lon="5.73263">
        <ele>813.2</ele>
        <time>2013-05-22T13:11:16Z</time>
      </trkpt>
      <trkpt lat="43.32099" lon="5.73274">
        <ele>810.9</ele>
        <time>2013-05-22T13:11:27Z</time>
      </trkpt>
      <trkpt lat="43.32099" lon="5.73275">
        <ele>812.5</ele>
        <time>2013-05-22T13:11:28Z</time>
      </trkpt>
      <trkpt lat="43.32092" lon="5.73295">
        <ele>799.5</ele>
        <time>2013-05-22T13:11:44Z</time>
      </trkpt>
      <trkpt lat="43.3209" lon="5.73307">
        <ele>797</ele>
        <time>2013-05-22T13:11:52Z</time>
      </trkpt>
      <trkpt lat="43.32088" lon="5.73318">
        <ele>794.7</ele>
        <time>2013-05-22T13:12:00Z</time>
      </trkpt>
      <trkpt lat="43.32084" lon="5.73329">
        <ele>793.2</ele>
        <time>2013-05-22T13:12:10Z</time>
      </trkpt>
      <trkpt lat="43.32088" lon="5.7334">
        <ele>793.9</ele>
        <time>2013-05-22T13:12:19Z</time>
      </trkpt>
      <trkpt lat="43.3209" lon="5.73351">
        <ele>793.4</ele>
        <time>2013-05-22T13:12:27Z</time>
      </trkpt>
      <trkpt lat="43.32093" lon="5.73362">
        <ele>796.4</ele>
        <time>2013-05-22T13:12:35Z</time>
      </trkpt>
      <trkpt lat="43.32093" lon="5.73364">
        <ele>795.7</ele>
        <time>2013-05-22T13:12:36Z</time>
      </trkpt>
      <trkpt lat="43.32096" lon="5.73384">
        <ele>792.4</ele>
        <time>2013-05-22T13:12:50Z</time>
      </trkpt>
      <trkpt lat="43.321" lon="5.73394">
        <ele>794.4</ele>
        <time>2013-05-22T13:12:58Z</time>
      </trkpt>
      <trkpt lat="43.32105" lon="5.73403">
        <ele>796</ele>
        <time>2013-05-22T13:13:06Z</time>
      </trkpt>
      <trkpt lat="43.3211" lon="5.73413">
        <ele>795.5</ele>
        <time>2013-05-22T13:13:14Z</time>
      </trkpt>
      <trkpt lat="43.32115" lon="5.73422">
        <ele>796.7</ele>
        <time>2013-05-22T13:13:21Z</time>
      </trkpt>
      <trkpt lat="43.32118" lon="5.73433">
        <ele>796</ele>
        <time>2013-05-22T13:13:29Z</time>
      </trkpt>
      <trkpt lat="43.32122" lon="5.73443">
        <ele>796</ele>
        <time>2013-05-22T13:13:36Z</time>
      </trkpt>
      <trkpt lat="43.32122" lon="5.73444">
        <ele>796.4</ele>
        <time>2013-05-22T13:13:37Z</time>
      </trkpt>
      <trkpt lat="43.32127" lon="5.73464">
        <ele>794.9</ele>
        <time>2013-05-22T13:13:52Z</time>
      </trkpt>
      <trkpt lat="43.32132" lon="5.73474">
        <ele>791.7</ele>
        <time>2013-05-22T13:14:01Z</time>
      </trkpt>
      <trkpt lat="43.32139" lon="5.7348">
        <ele>791.7</ele>
        <time>2013-05-22T13:14:08Z</time>
      </trkpt>
      <trkpt lat="43.32147" lon="5.73484">
        <ele>791.5</ele>
        <time>2013-05-22T13:14:14Z</time>
      </trkpt>
      <trkpt lat="43.32154" lon="5.7349">
        <ele>791</ele>
        <time>2013-05-22T13:14:21Z</time>
      </trkpt>
      <trkpt lat="43.32162" lon="5.73496">
        <ele>789.4</ele>
        <time>2013-05-22T13:14:30Z</time>
      </trkpt>
      <trkpt lat="43.32168" lon="5.73503">
        <ele>788.7</ele>
        <time>2013-05-22T13:14:40Z</time>
      </trkpt>
      <trkpt lat="43.32169" lon="5.73504">
        <ele>789</ele>
        <time>2013-05-22T13:14:41Z</time>
      </trkpt>
      <trkpt lat="43.32183" lon="5.73515">
        <ele>786.4</ele>
        <time>2013-05-22T13:15:02Z</time>
      </trkpt>
      <trkpt lat="43.32185" lon="5.73527">
        <ele>778</ele>
        <time>2013-05-22T13:15:17Z</time>
      </trkpt>
      <trkpt lat="43.32193" lon="5.73533">
        <ele>775.7</ele>
        <time>2013-05-22T13:15:27Z</time>
      </trkpt>
      <trkpt lat="43.322" lon="5.7354">
        <ele>773.5</ele>
        <time>2013-05-22T13:15:36Z</time>
      </trkpt>
      <trkpt lat="43.32206" lon="5.73547">
        <ele>776</ele>
        <time>2013-05-22T13:15:43Z</time>
      </trkpt>
      <trkpt lat="43.32207" lon="5.73547">
        <ele>776.5</ele>
        <time>2013-05-22T13:15:44Z</time>
      </trkpt>
      <trkpt lat="43.32219" lon="5.73561">
        <ele>774</ele>
        <time>2013-05-22T13:16:02Z</time>
      </trkpt>
      <trkpt lat="43.32227" lon="5.73568">
        <ele>770.7</ele>
        <time>2013-05-22T13:16:10Z</time>
      </trkpt>
      <trkpt lat="43.32234" lon="5.73575">
        <ele>770.5</ele>
        <time>2013-05-22T13:16:19Z</time>
      </trkpt>
      <trkpt lat="43.32241" lon="5.73583">
        <ele>768.9</ele>
        <time>2013-05-22T13:16:30Z</time>
      </trkpt>
      <trkpt lat="43.32249" lon="5.73586">
        <ele>766.4</ele>
        <time>2013-05-22T13:16:38Z</time>
      </trkpt>
      <trkpt lat="43.32257" lon="5.73585">
        <ele>767.5</ele>
        <time>2013-05-22T13:16:44Z</time>
      </trkpt>
      <trkpt lat="43.32258" lon="5.73585">
        <ele>767.7</ele>
        <time>2013-05-22T13:16:45Z</time>
      </trkpt>
      <trkpt lat="43.32273" lon="5.73589">
        <ele>769.7</ele>
        <time>2013-05-22T13:17:01Z</time>
      </trkpt>
      <trkpt lat="43.32267" lon="5.7358">
        <ele>756</ele>
        <time>2013-05-22T13:17:32Z</time>
      </trkpt>
      <trkpt lat="43.32262" lon="5.73571">
        <ele>751</ele>
        <time>2013-05-22T13:17:42Z</time>
      </trkpt>
      <trkpt lat="43.32259" lon="5.7356">
        <ele>756.9</ele>
        <time>2013-05-22T13:17:45Z</time>
      </trkpt>
      <trkpt lat="43.32259" lon="5.73559">
        <ele>757.2</ele>
        <time>2013-05-22T13:17:46Z</time>
      </trkpt>
      <trkpt lat="43.32251" lon="5.73541">
        <ele>755.2</ele>
        <time>2013-05-22T13:18:01Z</time>
      </trkpt>
      <trkpt lat="43.32248" lon="5.73531">
        <ele>753.2</ele>
        <time>2013-05-22T13:18:11Z</time>
      </trkpt>
      <trkpt lat="43.32244" lon="5.73521">
        <ele>754</ele>
        <time>2013-05-22T13:18:17Z</time>
      </trkpt>
      <trkpt lat="43.3224" lon="5.73511">
        <ele>752.4</ele>
        <time>2013-05-22T13:18:26Z</time>
      </trkpt>
      <trkpt lat="43.32236" lon="5.735">
        <ele>753.7</ele>
        <time>2013-05-22T13:18:33Z</time>
      </trkpt>
      <trkpt lat="43.32233" lon="5.7349">
        <ele>753.5</ele>
        <time>2013-05-22T13:18:41Z</time>
      </trkpt>
      <trkpt lat="43.32228" lon="5.73479">
        <ele>752.5</ele>
        <time>2013-05-22T13:18:50Z</time>
      </trkpt>
      <trkpt lat="43.32228" lon="5.73478">
        <ele>752.4</ele>
        <time>2013-05-22T13:18:51Z</time>
      </trkpt>
      <trkpt lat="43.32218" lon="5.73459">
        <ele>749</ele>
        <time>2013-05-22T13:19:06Z</time>
      </trkpt>
      <trkpt lat="43.32215" lon="5.73449">
        <ele>748.7</ele>
        <time>2013-05-22T13:19:14Z</time>
      </trkpt>
      <trkpt lat="43.3221" lon="5.73439">
        <ele>747.5</ele>
        <time>2013-05-22T13:19:22Z</time>
      </trkpt>
      <trkpt lat="43.32206" lon="5.73429">
        <ele>746.4</ele>
        <time>2013-05-22T13:19:31Z</time>
      </trkpt>
      <trkpt lat="43.32201" lon="5.73419">
        <ele>746.2</ele>
        <time>2013-05-22T13:19:39Z</time>
      </trkpt>
      <trkpt lat="43.32198" lon="5.73408">
        <ele>746</ele>
        <time>2013-05-22T13:19:47Z</time>
      </trkpt>
      <trkpt lat="43.32194" lon="5.73397">
        <ele>746.7</ele>
        <time>2013-05-22T13:19:56Z</time>
      </trkpt>
      <trkpt lat="43.32194" lon="5.73397">
        <ele>746.5</ele>
        <time>2013-05-22T13:19:57Z</time>
      </trkpt>
      <trkpt lat="43.32187" lon="5.73377">
        <ele>746.7</ele>
        <time>2013-05-22T13:20:12Z</time>
      </trkpt>
      <trkpt lat="43.32189" lon="5.73365">
        <ele>755</ele>
        <time>2013-05-22T13:20:28Z</time>
      </trkpt>
      <trkpt lat="43.32197" lon="5.73369">
        <ele>762</ele>
        <time>2013-05-22T13:20:37Z</time>
      </trkpt>
      <trkpt lat="43.32205" lon="5.73366">
        <ele>762.5</ele>
        <time>2013-05-22T13:20:46Z</time>
      </trkpt>
      <trkpt lat="43.32214" lon="5.73364">
        <ele>760.7</ele>
        <time>2013-05-22T13:20:54Z</time>
      </trkpt>
      <trkpt lat="43.32221" lon="5.73361">
        <ele>755.9</ele>
        <time>2013-05-22T13:21:01Z</time>
      </trkpt>
      <trkpt lat="43.32223" lon="5.7336">
        <ele>754</ele>
        <time>2013-05-22T13:21:02Z</time>
      </trkpt>
      <trkpt lat="43.32238" lon="5.73353">
        <ele>744.5</ele>
        <time>2013-05-22T13:21:16Z</time>
      </trkpt>
      <trkpt lat="43.32245" lon="5.73348">
        <ele>742</ele>
        <time>2013-05-22T13:21:24Z</time>
      </trkpt>
      <trkpt lat="43.32251" lon="5.73341">
        <ele>741</ele>
        <time>2013-05-22T13:21:30Z</time>
      </trkpt>
      <trkpt lat="43.32259" lon="5.73336">
        <ele>739</ele>
        <time>2013-05-22T13:21:36Z</time>
      </trkpt>
      <trkpt lat="43.32259" lon="5.73348">
        <ele>722</ele>
        <time>2013-05-22T13:21:52Z</time>
      </trkpt>
      <trkpt lat="43.32252" lon="5.73355">
        <ele>714.7</ele>
        <time>2013-05-22T13:22:00Z</time>
      </trkpt>
      <trkpt lat="43.32245" lon="5.73362">
        <ele>719.4</ele>
        <time>2013-05-22T13:22:09Z</time>
      </trkpt>
      <trkpt lat="43.32244" lon="5.73362">
        <ele>720.7</ele>
        <time>2013-05-22T13:22:10Z</time>
      </trkpt>
      <trkpt lat="43.3223" lon="5.73366">
        <ele>710.5</ele>
        <time>2013-05-22T13:22:23Z</time>
      </trkpt>
      <trkpt lat="43.32223" lon="5.73374">
        <ele>705.5</ele>
        <time>2013-05-22T13:22:36Z</time>
      </trkpt>
      <trkpt lat="43.32228" lon="5.73384">
        <ele>717.2</ele>
        <time>2013-05-22T13:22:45Z</time>
      </trkpt>
      <trkpt lat="43.32233" lon="5.73393">
        <ele>723.9</ele>
        <time>2013-05-22T13:22:53Z</time>
      </trkpt>
      <trkpt lat="43.32241" lon="5.73396">
        <ele>726.4</ele>
        <time>2013-05-22T13:22:59Z</time>
      </trkpt>
      <trkpt lat="43.3225" lon="5.734">
        <ele>725</ele>
        <time>2013-05-22T13:23:10Z</time>
      </trkpt>
      <trkpt lat="43.3225" lon="5.73401">
        <ele>724.9</ele>
        <time>2013-05-22T13:23:11Z</time>
      </trkpt>
      <trkpt lat="43.32266" lon="5.73408">
        <ele>723.5</ele>
        <time>2013-05-22T13:23:31Z</time>
      </trkpt>
      <trkpt lat="43.32274" lon="5.73412">
        <ele>723.5</ele>
        <time>2013-05-22T13:23:43Z</time>
      </trkpt>
      <trkpt lat="43.32281" lon="5.7342">
        <ele>720</ele>
        <time>2013-05-22T13:24:03Z</time>
      </trkpt>
      <trkpt lat="43.32288" lon="5.73415">
        <ele>723.5</ele>
        <time>2013-05-22T13:24:21Z</time>
      </trkpt>
      <trkpt lat="43.32289" lon="5.73414">
        <ele>723.7</ele>
        <time>2013-05-22T13:24:22Z</time>
      </trkpt>
      <trkpt lat="43.32298" lon="5.73399">
        <ele>725.5</ele>
        <time>2013-05-22T13:24:40Z</time>
      </trkpt>
      <trkpt lat="43.32306" lon="5.73394">
        <ele>722</ele>
        <time>2013-05-22T13:24:52Z</time>
      </trkpt>
      <trkpt lat="43.32309" lon="5.73382">
        <ele>725.2</ele>
        <time>2013-05-22T13:25:01Z</time>
      </trkpt>
      <trkpt lat="43.32315" lon="5.73375">
        <ele>724.2</ele>
        <time>2013-05-22T13:25:10Z</time>
      </trkpt>
      <trkpt lat="43.3232" lon="5.73366">
        <ele>722.2</ele>
        <time>2013-05-22T13:25:18Z</time>
      </trkpt>
      <trkpt lat="43.32326" lon="5.73359">
        <ele>722.2</ele>
        <time>2013-05-22T13:25:25Z</time>
      </trkpt>
      <trkpt lat="43.32326" lon="5.73357">
        <ele>722.2</ele>
        <time>2013-05-22T13:25:26Z</time>
      </trkpt>
      <trkpt lat="43.32331" lon="5.73336">
        <ele>718</ele>
        <time>2013-05-22T13:25:47Z</time>
      </trkpt>
      <trkpt lat="43.32338" lon="5.73329">
        <ele>720.7</ele>
        <time>2013-05-22T13:25:54Z</time>
      </trkpt>
      <trkpt lat="43.32346" lon="5.73324">
        <ele>720.9</ele>
        <time>2013-05-22T13:26:01Z</time>
      </trkpt>
      <trkpt lat="43.32354" lon="5.73321">
        <ele>716.5</ele>
        <time>2013-05-22T13:26:09Z</time>
      </trkpt>
      <trkpt lat="43.32362" lon="5.73315">
        <ele>719.2</ele>
        <time>2013-05-22T13:26:27Z</time>
      </trkpt>
      <trkpt lat="43.32362" lon="5.73313">
        <ele>720.2</ele>
        <time>2013-05-22T13:26:28Z</time>
      </trkpt>
      <trkpt lat="43.32357" lon="5.73304">
        <ele>720.7</ele>
        <time>2013-05-22T13:27:58Z</time>
      </trkpt>
      <trkpt lat="43.32365" lon="5.73312">
        <ele>709.9</ele>
        <time>2013-05-22T13:29:05Z</time>
      </trkpt>
      <trkpt lat="43.32366" lon="5.73312">
        <ele>710</ele>
        <time>2013-05-22T13:29:06Z</time>
      </trkpt>
      <trkpt lat="43.32372" lon="5.73291">
        <ele>715.5</ele>
        <time>2013-05-22T13:30:11Z</time>
      </trkpt>
      <trkpt lat="43.32372" lon="5.7329">
        <ele>714.9</ele>
        <time>2013-05-22T13:30:12Z</time>
      </trkpt>
      <trkpt lat="43.3238" lon="5.7327">
        <ele>715.5</ele>
        <time>2013-05-22T13:30:30Z</time>
      </trkpt>
      <trkpt lat="43.32383" lon="5.73259">
        <ele>715.4</ele>
        <time>2013-05-22T13:30:38Z</time>
      </trkpt>
      <trkpt lat="43.32389" lon="5.73249">
        <ele>717.2</ele>
        <time>2013-05-22T13:30:47Z</time>
      </trkpt>
      <trkpt lat="43.32394" lon="5.7324">
        <ele>719.4</ele>
        <time>2013-05-22T13:30:56Z</time>
      </trkpt>
      <trkpt lat="43.32394" lon="5.73229">
        <ele>717</ele>
        <time>2013-05-22T13:31:06Z</time>
      </trkpt>
      <trkpt lat="43.32395" lon="5.73218">
        <ele>721</ele>
        <time>2013-05-22T13:31:13Z</time>
      </trkpt>
      <trkpt lat="43.32395" lon="5.73217">
        <ele>721.2</ele>
        <time>2013-05-22T13:31:14Z</time>
      </trkpt>
      <trkpt lat="43.32396" lon="5.73195">
        <ele>722.5</ele>
        <time>2013-05-22T13:31:30Z</time>
      </trkpt>
      <trkpt lat="43.32398" lon="5.73184">
        <ele>720.5</ele>
        <time>2013-05-22T13:31:37Z</time>
      </trkpt>
      <trkpt lat="43.32397" lon="5.73173">
        <ele>719.2</ele>
        <time>2013-05-22T13:31:46Z</time>
      </trkpt>
      <trkpt lat="43.32395" lon="5.73162">
        <ele>716.5</ele>
        <time>2013-05-22T13:31:54Z</time>
      </trkpt>
      <trkpt lat="43.32393" lon="5.73151">
        <ele>714.2</ele>
        <time>2013-05-22T13:32:01Z</time>
      </trkpt>
      <trkpt lat="43.32392" lon="5.73141">
        <ele>714.7</ele>
        <time>2013-05-22T13:32:08Z</time>
      </trkpt>
      <trkpt lat="43.32392" lon="5.73129">
        <ele>718.9</ele>
        <time>2013-05-22T13:32:14Z</time>
      </trkpt>
      <trkpt lat="43.32392" lon="5.73127">
        <ele>719</ele>
        <time>2013-05-22T13:32:15Z</time>
      </trkpt>
      <trkpt lat="43.32389" lon="5.73105">
        <ele>715.9</ele>
        <time>2013-05-22T13:32:32Z</time>
      </trkpt>
      <trkpt lat="43.32392" lon="5.73094">
        <ele>714.5</ele>
        <time>2013-05-22T13:32:41Z</time>
      </trkpt>
      <trkpt lat="43.32393" lon="5.73083">
        <ele>716</ele>
        <time>2013-05-22T13:32:48Z</time>
      </trkpt>
      <trkpt lat="43.32392" lon="5.73071">
        <ele>718.4</ele>
        <time>2013-05-22T13:32:55Z</time>
      </trkpt>
      <trkpt lat="43.32392" lon="5.7306">
        <ele>720.2</ele>
        <time>2013-05-22T13:33:02Z</time>
      </trkpt>
      <trkpt lat="43.32389" lon="5.73049">
        <ele>721</ele>
        <time>2013-05-22T13:33:10Z</time>
      </trkpt>
      <trkpt lat="43.32391" lon="5.73037">
        <ele>725.7</ele>
        <time>2013-05-22T13:33:17Z</time>
      </trkpt>
      <trkpt lat="43.32391" lon="5.73036">
        <ele>726.4</ele>
        <time>2013-05-22T13:33:18Z</time>
      </trkpt>
      <trkpt lat="43.32386" lon="5.73014">
        <ele>722.9</ele>
        <time>2013-05-22T13:33:35Z</time>
      </trkpt>
      <trkpt lat="43.32386" lon="5.73002">
        <ele>721.5</ele>
        <time>2013-05-22T13:33:43Z</time>
      </trkpt>
      <trkpt lat="43.32384" lon="5.72991">
        <ele>723.2</ele>
        <time>2013-05-22T13:33:51Z</time>
      </trkpt>
      <trkpt lat="43.32381" lon="5.7298">
        <ele>718.7</ele>
        <time>2013-05-22T13:34:02Z</time>
      </trkpt>
      <trkpt lat="43.3238" lon="5.72969">
        <ele>718.9</ele>
        <time>2013-05-22T13:34:09Z</time>
      </trkpt>
      <trkpt lat="43.32379" lon="5.72958">
        <ele>722.7</ele>
        <time>2013-05-22T13:34:16Z</time>
      </trkpt>
      <trkpt lat="43.32378" lon="5.72946">
        <ele>724</ele>
        <time>2013-05-22T13:34:25Z</time>
      </trkpt>
      <trkpt lat="43.32377" lon="5.72946">
        <ele>724.2</ele>
        <time>2013-05-22T13:34:26Z</time>
      </trkpt>
      <trkpt lat="43.32377" lon="5.72923">
        <ele>721.5</ele>
        <time>2013-05-22T13:34:44Z</time>
      </trkpt>
      <trkpt lat="43.32376" lon="5.72913">
        <ele>723</ele>
        <time>2013-05-22T13:34:51Z</time>
      </trkpt>
      <trkpt lat="43.32376" lon="5.72901">
        <ele>725.2</ele>
        <time>2013-05-22T13:34:58Z</time>
      </trkpt>
      <trkpt lat="43.32375" lon="5.7289">
        <ele>728.9</ele>
        <time>2013-05-22T13:35:03Z</time>
      </trkpt>
      <trkpt lat="43.32378" lon="5.72878">
        <ele>726.2</ele>
        <time>2013-05-22T13:35:12Z</time>
      </trkpt>
      <trkpt lat="43.32376" lon="5.72868">
        <ele>724.2</ele>
        <time>2013-05-22T13:35:20Z</time>
      </trkpt>
      <trkpt lat="43.32376" lon="5.72856">
        <ele>724.7</ele>
        <time>2013-05-22T13:35:28Z</time>
      </trkpt>
      <trkpt lat="43.32377" lon="5.72855">
        <ele>724.7</ele>
        <time>2013-05-22T13:35:29Z</time>
      </trkpt>
      <trkpt lat="43.32374" lon="5.72833">
        <ele>727.5</ele>
        <time>2013-05-22T13:35:42Z</time>
      </trkpt>
      <trkpt lat="43.32375" lon="5.72822">
        <ele>730.2</ele>
        <time>2013-05-22T13:35:51Z</time>
      </trkpt>
      <trkpt lat="43.32374" lon="5.7281">
        <ele>732.4</ele>
        <time>2013-05-22T13:35:57Z</time>
      </trkpt>
      <trkpt lat="43.32371" lon="5.72798">
        <ele>731.4</ele>
        <time>2013-05-22T13:36:07Z</time>
      </trkpt>
      <trkpt lat="43.32372" lon="5.72786">
        <ele>730.2</ele>
        <time>2013-05-22T13:36:15Z</time>
      </trkpt>
      <trkpt lat="43.32374" lon="5.72775">
        <ele>733.2</ele>
        <time>2013-05-22T13:36:22Z</time>
      </trkpt>
      <trkpt lat="43.32374" lon="5.72763">
        <ele>731.4</ele>
        <time>2013-05-22T13:36:29Z</time>
      </trkpt>
      <trkpt lat="43.32374" lon="5.72761">
        <ele>731.9</ele>
        <time>2013-05-22T13:36:30Z</time>
      </trkpt>
      <trkpt lat="43.32376" lon="5.7274">
        <ele>730</ele>
        <time>2013-05-22T13:36:44Z</time>
      </trkpt>
      <trkpt lat="43.32374" lon="5.7273">
        <ele>723.5</ele>
        <time>2013-05-22T13:36:54Z</time>
      </trkpt>
      <trkpt lat="43.32373" lon="5.72718">
        <ele>726.4</ele>
        <time>2013-05-22T13:37:00Z</time>
      </trkpt>
      <trkpt lat="43.32373" lon="5.72707">
        <ele>727</ele>
        <time>2013-05-22T13:37:08Z</time>
      </trkpt>
      <trkpt lat="43.32371" lon="5.72696">
        <ele>729.5</ele>
        <time>2013-05-22T13:37:14Z</time>
      </trkpt>
      <trkpt lat="43.32371" lon="5.72683">
        <ele>726.2</ele>
        <time>2013-05-22T13:37:25Z</time>
      </trkpt>
      <trkpt lat="43.3237" lon="5.72672">
        <ele>718.2</ele>
        <time>2013-05-22T13:37:36Z</time>
      </trkpt>
      <trkpt lat="43.3237" lon="5.7267">
        <ele>718.2</ele>
        <time>2013-05-22T13:37:37Z</time>
      </trkpt>
      <trkpt lat="43.32369" lon="5.72651">
        <ele>722.5</ele>
        <time>2013-05-22T13:37:46Z</time>
      </trkpt>
      <trkpt lat="43.32368" lon="5.72641">
        <ele>726.9</ele>
        <time>2013-05-22T13:37:50Z</time>
      </trkpt>
      <trkpt lat="43.32367" lon="5.72629">
        <ele>730.2</ele>
        <time>2013-05-22T13:37:57Z</time>
      </trkpt>
      <trkpt lat="43.32367" lon="5.72618">
        <ele>732</ele>
        <time>2013-05-22T13:38:06Z</time>
      </trkpt>
      <trkpt lat="43.32366" lon="5.72607">
        <ele>732.9</ele>
        <time>2013-05-22T13:38:12Z</time>
      </trkpt>
      <trkpt lat="43.32365" lon="5.72596">
        <ele>731.2</ele>
        <time>2013-05-22T13:38:20Z</time>
      </trkpt>
      <trkpt lat="43.32364" lon="5.72584">
        <ele>728.7</ele>
        <time>2013-05-22T13:38:29Z</time>
      </trkpt>
      <trkpt lat="43.32361" lon="5.72573">
        <ele>725.5</ele>
        <time>2013-05-22T13:38:38Z</time>
      </trkpt>
      <trkpt lat="43.32361" lon="5.72572">
        <ele>725.7</ele>
        <time>2013-05-22T13:38:39Z</time>
      </trkpt>
      <trkpt lat="43.32359" lon="5.7255">
        <ele>718.2</ele>
        <time>2013-05-22T13:38:59Z</time>
      </trkpt>
      <trkpt lat="43.32358" lon="5.72539">
        <ele>714.5</ele>
        <time>2013-05-22T13:39:08Z</time>
      </trkpt>
      <trkpt lat="43.32356" lon="5.72528">
        <ele>715</ele>
        <time>2013-05-22T13:39:15Z</time>
      </trkpt>
      <trkpt lat="43.32355" lon="5.72516">
        <ele>717.5</ele>
        <time>2013-05-22T13:39:23Z</time>
      </trkpt>
      <trkpt lat="43.32354" lon="5.72504">
        <ele>719</ele>
        <time>2013-05-22T13:39:32Z</time>
      </trkpt>
      <trkpt lat="43.32353" lon="5.72494">
        <ele>719.5</ele>
        <time>2013-05-22T13:39:40Z</time>
      </trkpt>
      <trkpt lat="43.32353" lon="5.72492">
        <ele>720</ele>
        <time>2013-05-22T13:39:41Z</time>
      </trkpt>
      <trkpt lat="43.32348" lon="5.72473">
        <ele>721</ele>
        <time>2013-05-22T13:39:52Z</time>
      </trkpt>
      <trkpt lat="43.32348" lon="5.72462">
        <ele>719</ele>
        <time>2013-05-22T13:40:00Z</time>
      </trkpt>
      <trkpt lat="43.32348" lon="5.7245">
        <ele>720</ele>
        <time>2013-05-22T13:40:08Z</time>
      </trkpt>
      <trkpt lat="43.32345" lon="5.72439">
        <ele>718.4</ele>
        <time>2013-05-22T13:40:17Z</time>
      </trkpt>
      <trkpt lat="43.32342" lon="5.72428">
        <ele>720.2</ele>
        <time>2013-05-22T13:40:23Z</time>
      </trkpt>
      <trkpt lat="43.3234" lon="5.72416">
        <ele>724</ele>
        <time>2013-05-22T13:40:29Z</time>
      </trkpt>
      <trkpt lat="43.32338" lon="5.72405">
        <ele>726</ele>
        <time>2013-05-22T13:40:34Z</time>
      </trkpt>
      <trkpt lat="43.32332" lon="5.72397">
        <ele>724.9</ele>
        <time>2013-05-22T13:40:41Z</time>
      </trkpt>
      <trkpt lat="43.32331" lon="5.72395">
        <ele>725</ele>
        <time>2013-05-22T13:40:42Z</time>
      </trkpt>
      <trkpt lat="43.32324" lon="5.72377">
        <ele>721.2</ele>
        <time>2013-05-22T13:40:57Z</time>
      </trkpt>
      <trkpt lat="43.32319" lon="5.72367">
        <ele>721.7</ele>
        <time>2013-05-22T13:41:05Z</time>
      </trkpt>
      <trkpt lat="43.32314" lon="5.72358">
        <ele>722.7</ele>
        <time>2013-05-22T13:41:12Z</time>
      </trkpt>
      <trkpt lat="43.32313" lon="5.72347">
        <ele>726.7</ele>
        <time>2013-05-22T13:41:18Z</time>
      </trkpt>
      <trkpt lat="43.32316" lon="5.72335">
        <ele>731.2</ele>
        <time>2013-05-22T13:41:24Z</time>
      </trkpt>
      <trkpt lat="43.32315" lon="5.72324">
        <ele>734.9</ele>
        <time>2013-05-22T13:41:31Z</time>
      </trkpt>
      <trkpt lat="43.32315" lon="5.72312">
        <ele>737.5</ele>
        <time>2013-05-22T13:41:40Z</time>
      </trkpt>
      <trkpt lat="43.32319" lon="5.72301">
        <ele>740.9</ele>
        <time>2013-05-22T13:41:47Z</time>
      </trkpt>
      <trkpt lat="43.32319" lon="5.723">
        <ele>741.5</ele>
        <time>2013-05-22T13:41:48Z</time>
      </trkpt>
      <trkpt lat="43.32317" lon="5.72277">
        <ele>739.2</ele>
        <time>2013-05-22T13:42:06Z</time>
      </trkpt>
      <trkpt lat="43.32318" lon="5.72265">
        <ele>739.4</ele>
        <time>2013-05-22T13:42:14Z</time>
      </trkpt>
      <trkpt lat="43.32319" lon="5.72253">
        <ele>739.9</ele>
        <time>2013-05-22T13:42:25Z</time>
      </trkpt>
      <trkpt lat="43.32321" lon="5.72241">
        <ele>734</ele>
        <time>2013-05-22T13:42:33Z</time>
      </trkpt>
      <trkpt lat="43.32327" lon="5.72233">
        <ele>736.5</ele>
        <time>2013-05-22T13:42:38Z</time>
      </trkpt>
      <trkpt lat="43.32332" lon="5.72225">
        <ele>740</ele>
        <time>2013-05-22T13:42:45Z</time>
      </trkpt>
      <trkpt lat="43.32339" lon="5.72219">
        <ele>738.5</ele>
        <time>2013-05-22T13:42:52Z</time>
      </trkpt>
      <trkpt lat="43.32339" lon="5.72217">
        <ele>737.5</ele>
        <time>2013-05-22T13:42:53Z</time>
      </trkpt>
      <trkpt lat="43.32342" lon="5.72195">
        <ele>732.4</ele>
        <time>2013-05-22T13:43:10Z</time>
      </trkpt>
      <trkpt lat="43.32341" lon="5.72184">
        <ele>733.7</ele>
        <time>2013-05-22T13:43:16Z</time>
      </trkpt>
      <trkpt lat="43.32339" lon="5.72173">
        <ele>731.4</ele>
        <time>2013-05-22T13:43:25Z</time>
      </trkpt>
      <trkpt lat="43.32334" lon="5.72163">
        <ele>730.5</ele>
        <time>2013-05-22T13:43:32Z</time>
      </trkpt>
      <trkpt lat="43.32329" lon="5.72154">
        <ele>729</ele>
        <time>2013-05-22T13:43:40Z</time>
      </trkpt>
      <trkpt lat="43.32325" lon="5.72144">
        <ele>730.4</ele>
        <time>2013-05-22T13:43:48Z</time>
      </trkpt>
      <trkpt lat="43.32321" lon="5.72133">
        <ele>730.7</ele>
        <time>2013-05-22T13:43:56Z</time>
      </trkpt>
      <trkpt lat="43.32321" lon="5.72132">
        <ele>731</ele>
        <time>2013-05-22T13:43:57Z</time>
      </trkpt>
      <trkpt lat="43.3231" lon="5.72114">
        <ele>737</ele>
        <time>2013-05-22T13:44:11Z</time>
      </trkpt>
      <trkpt lat="43.32304" lon="5.72107">
        <ele>737</ele>
        <time>2013-05-22T13:44:17Z</time>
      </trkpt>
      <trkpt lat="43.32298" lon="5.72099">
        <ele>732.5</ele>
        <time>2013-05-22T13:44:25Z</time>
      </trkpt>
      <trkpt lat="43.32294" lon="5.72089">
        <ele>731</ele>
        <time>2013-05-22T13:44:34Z</time>
      </trkpt>
      <trkpt lat="43.32289" lon="5.7208">
        <ele>730.5</ele>
        <time>2013-05-22T13:44:42Z</time>
      </trkpt>
      <trkpt lat="43.32285" lon="5.7207">
        <ele>728.5</ele>
        <time>2013-05-22T13:44:52Z</time>
      </trkpt>
      <trkpt lat="43.32281" lon="5.72059">
        <ele>727.4</ele>
        <time>2013-05-22T13:45:00Z</time>
      </trkpt>
      <trkpt lat="43.3228" lon="5.72058">
        <ele>727.5</ele>
        <time>2013-05-22T13:45:01Z</time>
      </trkpt>
      <trkpt lat="43.32276" lon="5.72038">
        <ele>727.5</ele>
        <time>2013-05-22T13:45:15Z</time>
      </trkpt>
      <trkpt lat="43.32273" lon="5.72027">
        <ele>726.4</ele>
        <time>2013-05-22T13:45:23Z</time>
      </trkpt>
      <trkpt lat="43.3227" lon="5.72016">
        <ele>728.9</ele>
        <time>2013-05-22T13:45:32Z</time>
      </trkpt>
      <trkpt lat="43.32266" lon="5.72007">
        <ele>733.9</ele>
        <time>2013-05-22T13:45:35Z</time>
      </trkpt>
      <trkpt lat="43.32265" lon="5.71996">
        <ele>733.5</ele>
        <time>2013-05-22T13:45:42Z</time>
      </trkpt>
      <trkpt lat="43.32263" lon="5.71985">
        <ele>734</ele>
        <time>2013-05-22T13:45:50Z</time>
      </trkpt>
      <trkpt lat="43.32259" lon="5.71974">
        <ele>736.7</ele>
        <time>2013-05-22T13:46:00Z</time>
      </trkpt>
      <trkpt lat="43.32253" lon="5.71967">
        <ele>733</ele>
        <time>2013-05-22T13:46:06Z</time>
      </trkpt>
      <trkpt lat="43.32253" lon="5.71965">
        <ele>732.5</ele>
        <time>2013-05-22T13:46:07Z</time>
      </trkpt>
      <trkpt lat="43.32247" lon="5.71947">
        <ele>731.7</ele>
        <time>2013-05-22T13:46:21Z</time>
      </trkpt>
      <trkpt lat="43.32242" lon="5.71938">
        <ele>732.7</ele>
        <time>2013-05-22T13:46:26Z</time>
      </trkpt>
      <trkpt lat="43.32238" lon="5.71927">
        <ele>735.2</ele>
        <time>2013-05-22T13:46:33Z</time>
      </trkpt>
      <trkpt lat="43.32236" lon="5.71916">
        <ele>736</ele>
        <time>2013-05-22T13:46:41Z</time>
      </trkpt>
      <trkpt lat="43.32231" lon="5.71907">
        <ele>737.2</ele>
        <time>2013-05-22T13:46:48Z</time>
      </trkpt>
      <trkpt lat="43.32227" lon="5.71896">
        <ele>743.9</ele>
        <time>2013-05-22T13:47:02Z</time>
      </trkpt>
      <trkpt lat="43.32227" lon="5.71885">
        <ele>741.7</ele>
        <time>2013-05-22T13:47:08Z</time>
      </trkpt>
      <trkpt lat="43.32227" lon="5.71884">
        <ele>741.2</ele>
        <time>2013-05-22T13:47:09Z</time>
      </trkpt>
      <trkpt lat="43.32225" lon="5.71861">
        <ele>738.7</ele>
        <time>2013-05-22T13:47:47Z</time>
      </trkpt>
      <trkpt lat="43.32227" lon="5.71849">
        <ele>743.7</ele>
        <time>2013-05-22T13:47:56Z</time>
      </trkpt>
      <trkpt lat="43.32226" lon="5.71839">
        <ele>744.9</ele>
        <time>2013-05-22T13:48:04Z</time>
      </trkpt>
      <trkpt lat="43.32221" lon="5.71829">
        <ele>745.2</ele>
        <time>2013-05-22T13:48:15Z</time>
      </trkpt>
      <trkpt lat="43.32221" lon="5.71828">
        <ele>745.7</ele>
        <time>2013-05-22T13:48:16Z</time>
      </trkpt>
      <trkpt lat="43.32218" lon="5.71805">
        <ele>741</ele>
        <time>2013-05-22T13:48:31Z</time>
      </trkpt>
      <trkpt lat="43.32217" lon="5.71794">
        <ele>742</ele>
        <time>2013-05-22T13:48:38Z</time>
      </trkpt>
      <trkpt lat="43.32216" lon="5.71782">
        <ele>741.2</ele>
        <time>2013-05-22T13:48:45Z</time>
      </trkpt>
      <trkpt lat="43.32214" lon="5.71771">
        <ele>741.2</ele>
        <time>2013-05-22T13:48:53Z</time>
      </trkpt>
      <trkpt lat="43.3221" lon="5.71761">
        <ele>740.2</ele>
        <time>2013-05-22T13:49:02Z</time>
      </trkpt>
      <trkpt lat="43.3221" lon="5.71749">
        <ele>738.7</ele>
        <time>2013-05-22T13:49:11Z</time>
      </trkpt>
      <trkpt lat="43.32208" lon="5.71738">
        <ele>737.4</ele>
        <time>2013-05-22T13:49:19Z</time>
      </trkpt>
      <trkpt lat="43.32207" lon="5.71736">
        <ele>738.2</ele>
        <time>2013-05-22T13:49:20Z</time>
      </trkpt>
      <trkpt lat="43.32199" lon="5.71719">
        <ele>739.2</ele>
        <time>2013-05-22T13:49:37Z</time>
      </trkpt>
      <trkpt lat="43.32193" lon="5.71711">
        <ele>742.5</ele>
        <time>2013-05-22T13:49:45Z</time>
      </trkpt>
      <trkpt lat="43.32188" lon="5.71702">
        <ele>746.7</ele>
        <time>2013-05-22T13:49:52Z</time>
      </trkpt>
      <trkpt lat="43.32183" lon="5.71692">
        <ele>744.9</ele>
        <time>2013-05-22T13:50:01Z</time>
      </trkpt>
      <trkpt lat="43.32181" lon="5.71681">
        <ele>745</ele>
        <time>2013-05-22T13:50:10Z</time>
      </trkpt>
      <trkpt lat="43.32182" lon="5.71669">
        <ele>746.9</ele>
        <time>2013-05-22T13:50:19Z</time>
      </trkpt>
      <trkpt lat="43.32182" lon="5.71657">
        <ele>745.5</ele>
        <time>2013-05-22T13:50:29Z</time>
      </trkpt>
      <trkpt lat="43.32182" lon="5.71655">
        <ele>745.7</ele>
        <time>2013-05-22T13:50:30Z</time>
      </trkpt>
      <trkpt lat="43.32181" lon="5.71634">
        <ele>745</ele>
        <time>2013-05-22T13:50:45Z</time>
      </trkpt>
      <trkpt lat="43.32179" lon="5.71623">
        <ele>745.7</ele>
        <time>2013-05-22T13:50:55Z</time>
      </trkpt>
      <trkpt lat="43.32179" lon="5.71611">
        <ele>746</ele>
        <time>2013-05-22T13:51:03Z</time>
      </trkpt>
      <trkpt lat="43.32178" lon="5.71599">
        <ele>749.2</ele>
        <time>2013-05-22T13:51:11Z</time>
      </trkpt>
      <trkpt lat="43.32175" lon="5.71589">
        <ele>750.5</ele>
        <time>2013-05-22T13:51:18Z</time>
      </trkpt>
      <trkpt lat="43.32177" lon="5.71578">
        <ele>753</ele>
        <time>2013-05-22T13:51:24Z</time>
      </trkpt>
      <trkpt lat="43.32176" lon="5.71567">
        <ele>752</ele>
        <time>2013-05-22T13:51:32Z</time>
      </trkpt>
      <trkpt lat="43.32175" lon="5.71565">
        <ele>752.5</ele>
        <time>2013-05-22T13:51:33Z</time>
      </trkpt>
      <trkpt lat="43.32171" lon="5.71545">
        <ele>753.5</ele>
        <time>2013-05-22T13:51:47Z</time>
      </trkpt>
      <trkpt lat="43.32172" lon="5.71533">
        <ele>752.9</ele>
        <time>2013-05-22T13:51:54Z</time>
      </trkpt>
      <trkpt lat="43.32172" lon="5.71522">
        <ele>751.4</ele>
        <time>2013-05-22T13:52:02Z</time>
      </trkpt>
      <trkpt lat="43.32169" lon="5.71511">
        <ele>753</ele>
        <time>2013-05-22T13:52:09Z</time>
      </trkpt>
      <trkpt lat="43.32164" lon="5.71503">
        <ele>752.2</ele>
        <time>2013-05-22T13:52:16Z</time>
      </trkpt>
      <trkpt lat="43.32159" lon="5.71493">
        <ele>750.4</ele>
        <time>2013-05-22T13:52:23Z</time>
      </trkpt>
      <trkpt lat="43.32154" lon="5.71485">
        <ele>745.7</ele>
        <time>2013-05-22T13:52:32Z</time>
      </trkpt>
      <trkpt lat="43.3215" lon="5.71475">
        <ele>746.9</ele>
        <time>2013-05-22T13:52:40Z</time>
      </trkpt>
      <trkpt lat="43.32149" lon="5.71473">
        <ele>747</ele>
        <time>2013-05-22T13:52:41Z</time>
      </trkpt>
      <trkpt lat="43.32139" lon="5.71457">
        <ele>747.4</ele>
        <time>2013-05-22T13:52:56Z</time>
      </trkpt>
      <trkpt lat="43.32134" lon="5.71448">
        <ele>747</ele>
        <time>2013-05-22T13:53:02Z</time>
      </trkpt>
      <trkpt lat="43.32129" lon="5.71439">
        <ele>748.4</ele>
        <time>2013-05-22T13:53:08Z</time>
      </trkpt>
      <trkpt lat="43.32127" lon="5.71428">
        <ele>750.5</ele>
        <time>2013-05-22T13:53:17Z</time>
      </trkpt>
      <trkpt lat="43.32126" lon="5.71416">
        <ele>752.5</ele>
        <time>2013-05-22T13:53:24Z</time>
      </trkpt>
      <trkpt lat="43.32127" lon="5.71405">
        <ele>753</ele>
        <time>2013-05-22T13:53:30Z</time>
      </trkpt>
      <trkpt lat="43.32126" lon="5.71394">
        <ele>753.7</ele>
        <time>2013-05-22T13:53:38Z</time>
      </trkpt>
      <trkpt lat="43.32125" lon="5.71382">
        <ele>751.2</ele>
        <time>2013-05-22T13:53:48Z</time>
      </trkpt>
      <trkpt lat="43.32124" lon="5.71381">
        <ele>750.7</ele>
        <time>2013-05-22T13:53:49Z</time>
      </trkpt>
      <trkpt lat="43.32113" lon="5.71369">
        <ele>750.4</ele>
        <time>2013-05-22T13:54:03Z</time>
      </trkpt>
      <trkpt lat="43.32105" lon="5.71365">
        <ele>753</ele>
        <time>2013-05-22T13:54:10Z</time>
      </trkpt>
      <trkpt lat="43.32098" lon="5.71356">
        <ele>750.2</ele>
        <time>2013-05-22T13:54:17Z</time>
      </trkpt>
      <trkpt lat="43.32098" lon="5.71344">
        <ele>753</ele>
        <time>2013-05-22T13:54:26Z</time>
      </trkpt>
      <trkpt lat="43.32097" lon="5.71333">
        <ele>756.9</ele>
        <time>2013-05-22T13:54:32Z</time>
      </trkpt>
      <trkpt lat="43.32093" lon="5.71322">
        <ele>759.9</ele>
        <time>2013-05-22T13:54:39Z</time>
      </trkpt>
      <trkpt lat="43.32093" lon="5.7131">
        <ele>759.7</ele>
        <time>2013-05-22T13:54:52Z</time>
      </trkpt>
      <trkpt lat="43.32093" lon="5.7131">
        <ele>759.2</ele>
        <time>2013-05-22T13:54:53Z</time>
      </trkpt>
      <trkpt lat="43.32101" lon="5.7129">
        <ele>750.7</ele>
        <time>2013-05-22T13:56:20Z</time>
      </trkpt>
      <trkpt lat="43.32101" lon="5.71289">
        <ele>751</ele>
        <time>2013-05-22T13:56:21Z</time>
      </trkpt>
      <trkpt lat="43.32108" lon="5.71268">
        <ele>750</ele>
        <time>2013-05-22T13:56:43Z</time>
      </trkpt>
      <trkpt lat="43.32116" lon="5.71262">
        <ele>745</ele>
        <time>2013-05-22T13:56:58Z</time>
      </trkpt>
      <trkpt lat="43.32125" lon="5.71264">
        <ele>742</ele>
        <time>2013-05-22T13:57:10Z</time>
      </trkpt>
      <trkpt lat="43.3213" lon="5.71273">
        <ele>739.5</ele>
        <time>2013-05-22T13:57:22Z</time>
      </trkpt>
      <trkpt lat="43.3213" lon="5.71275">
        <ele>739.2</ele>
        <time>2013-05-22T13:57:23Z</time>
      </trkpt>
      <trkpt lat="43.32137" lon="5.71293">
        <ele>735.7</ele>
        <time>2013-05-22T13:57:39Z</time>
      </trkpt>
      <trkpt lat="43.32145" lon="5.71298">
        <ele>739.4</ele>
        <time>2013-05-22T13:57:46Z</time>
      </trkpt>
      <trkpt lat="43.32151" lon="5.71305">
        <ele>739</ele>
        <time>2013-05-22T13:57:54Z</time>
      </trkpt>
      <trkpt lat="43.32155" lon="5.71316">
        <ele>731.7</ele>
        <time>2013-05-22T13:58:06Z</time>
      </trkpt>
      <trkpt lat="43.32162" lon="5.71321">
        <ele>733.2</ele>
        <time>2013-05-22T13:58:16Z</time>
      </trkpt>
      <trkpt lat="43.3217" lon="5.71325">
        <ele>735.2</ele>
        <time>2013-05-22T13:58:24Z</time>
      </trkpt>
      <trkpt lat="43.32171" lon="5.71326">
        <ele>735</ele>
        <time>2013-05-22T13:58:25Z</time>
      </trkpt>
      <trkpt lat="43.32182" lon="5.7134">
        <ele>730</ele>
        <time>2013-05-22T13:58:47Z</time>
      </trkpt>
      <trkpt lat="43.3219" lon="5.71342">
        <ele>728.2</ele>
        <time>2013-05-22T13:58:57Z</time>
      </trkpt>
      <trkpt lat="43.32199" lon="5.71346">
        <ele>727.5</ele>
        <time>2013-05-22T13:59:06Z</time>
      </trkpt>
      <trkpt lat="43.32207" lon="5.71346">
        <ele>730.5</ele>
        <time>2013-05-22T13:59:13Z</time>
      </trkpt>
      <trkpt lat="43.32216" lon="5.71347">
        <ele>728.5</ele>
        <time>2013-05-22T13:59:26Z</time>
      </trkpt>
      <trkpt lat="43.32217" lon="5.71348">
        <ele>728.2</ele>
        <time>2013-05-22T13:59:27Z</time>
      </trkpt>
      <trkpt lat="43.32232" lon="5.71348">
        <ele>720.7</ele>
        <time>2013-05-22T13:59:49Z</time>
      </trkpt>
      <trkpt lat="43.32241" lon="5.71351">
        <ele>712.9</ele>
        <time>2013-05-22T14:00:06Z</time>
      </trkpt>
      <trkpt lat="43.32249" lon="5.7135">
        <ele>718.7</ele>
        <time>2013-05-22T14:00:15Z</time>
      </trkpt>
      <trkpt lat="43.32256" lon="5.71342">
        <ele>721.5</ele>
        <time>2013-05-22T14:00:20Z</time>
      </trkpt>
      <trkpt lat="43.32264" lon="5.71342">
        <ele>722.5</ele>
        <time>2013-05-22T14:00:26Z</time>
      </trkpt>
      <trkpt lat="43.32272" lon="5.71346">
        <ele>720.7</ele>
        <time>2013-05-22T14:00:37Z</time>
      </trkpt>
      <trkpt lat="43.32273" lon="5.71347">
        <ele>720.5</ele>
        <time>2013-05-22T14:00:38Z</time>
      </trkpt>
      <trkpt lat="43.32288" lon="5.71335">
        <ele>708.2</ele>
        <time>2013-05-22T14:01:06Z</time>
      </trkpt>
      <trkpt lat="43.32292" lon="5.71328">
        <ele>707.2</ele>
        <time>2013-05-22T14:01:14Z</time>
      </trkpt>
      <trkpt lat="43.32299" lon="5.71325">
        <ele>709.7</ele>
        <time>2013-05-22T14:01:18Z</time>
      </trkpt>
      <trkpt lat="43.32308" lon="5.71324">
        <ele>710.4</ele>
        <time>2013-05-22T14:01:23Z</time>
      </trkpt>
      <trkpt lat="43.32316" lon="5.71321">
        <ele>709.5</ele>
        <time>2013-05-22T14:01:31Z</time>
      </trkpt>
      <trkpt lat="43.32324" lon="5.71318">
        <ele>708.7</ele>
        <time>2013-05-22T14:01:41Z</time>
      </trkpt>
      <trkpt lat="43.32325" lon="5.71318">
        <ele>708.5</ele>
        <time>2013-05-22T14:01:42Z</time>
      </trkpt>
      <trkpt lat="43.3234" lon="5.71314">
        <ele>705</ele>
        <time>2013-05-22T14:01:55Z</time>
      </trkpt>
      <trkpt lat="43.32349" lon="5.71312">
        <ele>704.5</ele>
        <time>2013-05-22T14:02:03Z</time>
      </trkpt>
      <trkpt lat="43.32357" lon="5.71314">
        <ele>705.9</ele>
        <time>2013-05-22T14:02:10Z</time>
      </trkpt>
      <trkpt lat="43.32366" lon="5.71316">
        <ele>703.5</ele>
        <time>2013-05-22T14:02:19Z</time>
      </trkpt>
      <trkpt lat="43.32373" lon="5.71317">
        <ele>705.7</ele>
        <time>2013-05-22T14:02:24Z</time>
      </trkpt>
      <trkpt lat="43.32382" lon="5.71315">
        <ele>704.7</ele>
        <time>2013-05-22T14:02:31Z</time>
      </trkpt>
      <trkpt lat="43.32389" lon="5.71315">
        <ele>702.7</ele>
        <time>2013-05-22T14:02:36Z</time>
      </trkpt>
      <trkpt lat="43.32396" lon="5.71317">
        <ele>701.7</ele>
        <time>2013-05-22T14:02:43Z</time>
      </trkpt>
      <trkpt lat="43.32399" lon="5.71317">
        <ele>702.4</ele>
        <time>2013-05-22T14:02:44Z</time>
      </trkpt>
      <trkpt lat="43.32412" lon="5.71319">
        <ele>698</ele>
        <time>2013-05-22T14:02:55Z</time>
      </trkpt>
      <trkpt lat="43.3242" lon="5.71319">
        <ele>696.5</ele>
        <time>2013-05-22T14:03:01Z</time>
      </trkpt>
      <trkpt lat="43.32428" lon="5.71321">
        <ele>695.7</ele>
        <time>2013-05-22T14:03:09Z</time>
      </trkpt>
      <trkpt lat="43.32436" lon="5.71326">
        <ele>696.9</ele>
        <time>2013-05-22T14:03:17Z</time>
      </trkpt>
      <trkpt lat="43.32444" lon="5.71326">
        <ele>699</ele>
        <time>2013-05-22T14:03:22Z</time>
      </trkpt>
      <trkpt lat="43.32453" lon="5.71327">
        <ele>699</ele>
        <time>2013-05-22T14:03:30Z</time>
      </trkpt>
      <trkpt lat="43.32461" lon="5.71327">
        <ele>699.4</ele>
        <time>2013-05-22T14:03:36Z</time>
      </trkpt>
      <trkpt lat="43.32469" lon="5.7133">
        <ele>697.5</ele>
        <time>2013-05-22T14:03:46Z</time>
      </trkpt>
      <trkpt lat="43.3247" lon="5.71331">
        <ele>697.7</ele>
        <time>2013-05-22T14:03:47Z</time>
      </trkpt>
      <trkpt lat="43.32485" lon="5.7133">
        <ele>694.9</ele>
        <time>2013-05-22T14:04:00Z</time>
      </trkpt>
      <trkpt lat="43.32492" lon="5.71328">
        <ele>695.4</ele>
        <time>2013-05-22T14:04:05Z</time>
      </trkpt>
      <trkpt lat="43.32501" lon="5.71326">
        <ele>694.2</ele>
        <time>2013-05-22T14:04:11Z</time>
      </trkpt>
      <trkpt lat="43.32509" lon="5.71324">
        <ele>693.2</ele>
        <time>2013-05-22T14:04:17Z</time>
      </trkpt>
      <trkpt lat="43.32518" lon="5.71324">
        <ele>691.9</ele>
        <time>2013-05-22T14:04:24Z</time>
      </trkpt>
      <trkpt lat="43.32526" lon="5.71323">
        <ele>691.5</ele>
        <time>2013-05-22T14:04:29Z</time>
      </trkpt>
      <trkpt lat="43.32535" lon="5.71324">
        <ele>690</ele>
        <time>2013-05-22T14:04:37Z</time>
      </trkpt>
      <trkpt lat="43.32543" lon="5.71322">
        <ele>691.2</ele>
        <time>2013-05-22T14:04:44Z</time>
      </trkpt>
      <trkpt lat="43.32552" lon="5.71323">
        <ele>689.5</ele>
        <time>2013-05-22T14:04:53Z</time>
      </trkpt>
      <trkpt lat="43.32553" lon="5.71323">
        <ele>689.4</ele>
        <time>2013-05-22T14:04:54Z</time>
      </trkpt>
      <trkpt lat="43.32568" lon="5.71325">
        <ele>687.5</ele>
        <time>2013-05-22T14:05:10Z</time>
      </trkpt>
      <trkpt lat="43.32576" lon="5.71325">
        <ele>690</ele>
        <time>2013-05-22T14:05:15Z</time>
      </trkpt>
      <trkpt lat="43.32585" lon="5.71323">
        <ele>690.9</ele>
        <time>2013-05-22T14:05:20Z</time>
      </trkpt>
      <trkpt lat="43.32593" lon="5.71324">
        <ele>690.5</ele>
        <time>2013-05-22T14:05:29Z</time>
      </trkpt>
      <trkpt lat="43.32602" lon="5.71324">
        <ele>689.9</ele>
        <time>2013-05-22T14:05:36Z</time>
      </trkpt>
      <trkpt lat="43.32611" lon="5.71323">
        <ele>689.5</ele>
        <time>2013-05-22T14:05:42Z</time>
      </trkpt>
      <trkpt lat="43.32619" lon="5.71325">
        <ele>690.9</ele>
        <time>2013-05-22T14:05:48Z</time>
      </trkpt>
      <trkpt lat="43.32627" lon="5.71325">
        <ele>691</ele>
        <time>2013-05-22T14:05:55Z</time>
      </trkpt>
      <trkpt lat="43.32629" lon="5.71325">
        <ele>690.7</ele>
        <time>2013-05-22T14:05:56Z</time>
      </trkpt>
      <trkpt lat="43.32644" lon="5.7133">
        <ele>691.7</ele>
        <time>2013-05-22T14:06:08Z</time>
      </trkpt>
      <trkpt lat="43.32652" lon="5.7133">
        <ele>691</ele>
        <time>2013-05-22T14:06:14Z</time>
      </trkpt>
      <trkpt lat="43.32661" lon="5.7133">
        <ele>688.7</ele>
        <time>2013-05-22T14:06:22Z</time>
      </trkpt>
      <trkpt lat="43.3267" lon="5.71329">
        <ele>687.7</ele>
        <time>2013-05-22T14:06:31Z</time>
      </trkpt>
      <trkpt lat="43.32673" lon="5.71318">
        <ele>688.7</ele>
        <time>2013-05-22T14:06:44Z</time>
      </trkpt>
      <trkpt lat="43.32671" lon="5.71306">
        <ele>689.2</ele>
        <time>2013-05-22T14:06:52Z</time>
      </trkpt>
      <trkpt lat="43.32668" lon="5.71295">
        <ele>690.5</ele>
        <time>2013-05-22T14:06:58Z</time>
      </trkpt>
      <trkpt lat="43.32668" lon="5.71293">
        <ele>690.9</ele>
        <time>2013-05-22T14:06:59Z</time>
      </trkpt>
      <trkpt lat="43.32666" lon="5.71274">
        <ele>692.5</ele>
        <time>2013-05-22T14:07:10Z</time>
      </trkpt>
      <trkpt lat="43.32665" lon="5.71262">
        <ele>692.7</ele>
        <time>2013-05-22T14:07:17Z</time>
      </trkpt>
      <trkpt lat="43.32663" lon="5.7125">
        <ele>693.5</ele>
        <time>2013-05-22T14:07:25Z</time>
      </trkpt>
      <trkpt lat="43.3266" lon="5.71239">
        <ele>693.4</ele>
        <time>2013-05-22T14:07:34Z</time>
      </trkpt>
      <trkpt lat="43.32659" lon="5.71228">
        <ele>690.2</ele>
        <time>2013-05-22T14:07:42Z</time>
      </trkpt>
      <trkpt lat="43.32658" lon="5.71216">
        <ele>690.2</ele>
        <time>2013-05-22T14:07:50Z</time>
      </trkpt>
      <trkpt lat="43.32658" lon="5.71203">
        <ele>690.2</ele>
        <time>2013-05-22T14:07:58Z</time>
      </trkpt>
      <trkpt lat="43.32658" lon="5.71192">
        <ele>687.9</ele>
        <time>2013-05-22T14:08:06Z</time>
      </trkpt>
      <trkpt lat="43.32658" lon="5.7119">
        <ele>687.9</ele>
        <time>2013-05-22T14:08:07Z</time>
      </trkpt>
      <trkpt lat="43.32649" lon="5.71172">
        <ele>685</ele>
        <time>2013-05-22T14:08:23Z</time>
      </trkpt>
      <trkpt lat="43.32642" lon="5.71164">
        <ele>684.7</ele>
        <time>2013-05-22T14:08:31Z</time>
      </trkpt>
      <trkpt lat="43.32637" lon="5.71155">
        <ele>686</ele>
        <time>2013-05-22T14:08:38Z</time>
      </trkpt>
      <trkpt lat="43.3263" lon="5.71148">
        <ele>683.7</ele>
        <time>2013-05-22T14:08:46Z</time>
      </trkpt>
      <trkpt lat="43.32625" lon="5.7114">
        <ele>682.7</ele>
        <time>2013-05-22T14:08:53Z</time>
      </trkpt>
      <trkpt lat="43.3262" lon="5.71132">
        <ele>682.7</ele>
        <time>2013-05-22T14:08:59Z</time>
      </trkpt>
      <trkpt lat="43.32613" lon="5.71124">
        <ele>681.5</ele>
        <time>2013-05-22T14:09:05Z</time>
      </trkpt>
      <trkpt lat="43.32608" lon="5.71116">
        <ele>680.4</ele>
        <time>2013-05-22T14:09:11Z</time>
      </trkpt>
      <trkpt lat="43.32607" lon="5.71115">
        <ele>680.5</ele>
        <time>2013-05-22T14:09:12Z</time>
      </trkpt>
      <trkpt lat="43.32596" lon="5.711">
        <ele>681</ele>
        <time>2013-05-22T14:09:24Z</time>
      </trkpt>
      <trkpt lat="43.32591" lon="5.71091">
        <ele>684.4</ele>
        <time>2013-05-22T14:09:29Z</time>
      </trkpt>
      <trkpt lat="43.32585" lon="5.71085">
        <ele>681.9</ele>
        <time>2013-05-22T14:09:37Z</time>
      </trkpt>
      <trkpt lat="43.32579" lon="5.71077">
        <ele>683</ele>
        <time>2013-05-22T14:09:43Z</time>
      </trkpt>
      <trkpt lat="43.32574" lon="5.71067">
        <ele>681.4</ele>
        <time>2013-05-22T14:09:52Z</time>
      </trkpt>
      <trkpt lat="43.32568" lon="5.71059">
        <ele>679.7</ele>
        <time>2013-05-22T14:10:00Z</time>
      </trkpt>
      <trkpt lat="43.32562" lon="5.71051">
        <ele>680.7</ele>
        <time>2013-05-22T14:10:05Z</time>
      </trkpt>
      <trkpt lat="43.32558" lon="5.71041">
        <ele>683</ele>
        <time>2013-05-22T14:10:12Z</time>
      </trkpt>
      <trkpt lat="43.32557" lon="5.71039">
        <ele>683</ele>
        <time>2013-05-22T14:10:13Z</time>
      </trkpt>
      <trkpt lat="43.32547" lon="5.71022">
        <ele>681.2</ele>
        <time>2013-05-22T14:10:26Z</time>
      </trkpt>
      <trkpt lat="43.32542" lon="5.71013">
        <ele>682.9</ele>
        <time>2013-05-22T14:10:31Z</time>
      </trkpt>
      <trkpt lat="43.32538" lon="5.71005">
        <ele>681.9</ele>
        <time>2013-05-22T14:10:37Z</time>
      </trkpt>
      <trkpt lat="43.32534" lon="5.70995">
        <ele>680.2</ele>
        <time>2013-05-22T14:10:44Z</time>
      </trkpt>
      <trkpt lat="43.32529" lon="5.70985">
        <ele>679.5</ele>
        <time>2013-05-22T14:10:51Z</time>
      </trkpt>
      <trkpt lat="43.32523" lon="5.70976">
        <ele>679.5</ele>
        <time>2013-05-22T14:10:57Z</time>
      </trkpt>
      <trkpt lat="43.32515" lon="5.70971">
        <ele>678.5</ele>
        <time>2013-05-22T14:11:04Z</time>
      </trkpt>
      <trkpt lat="43.32509" lon="5.70962">
        <ele>683.7</ele>
        <time>2013-05-22T14:11:14Z</time>
      </trkpt>
      <trkpt lat="43.32508" lon="5.70962">
        <ele>684.2</ele>
        <time>2013-05-22T14:11:15Z</time>
      </trkpt>
      <trkpt lat="43.32494" lon="5.70951">
        <ele>685.4</ele>
        <time>2013-05-22T14:11:37Z</time>
      </trkpt>
      <trkpt lat="43.3249" lon="5.70941">
        <ele>683.4</ele>
        <time>2013-05-22T14:11:45Z</time>
      </trkpt>
      <trkpt lat="43.32484" lon="5.70932">
        <ele>682</ele>
        <time>2013-05-22T14:11:53Z</time>
      </trkpt>
      <trkpt lat="43.3248" lon="5.70923">
        <ele>681.9</ele>
        <time>2013-05-22T14:12:02Z</time>
      </trkpt>
      <trkpt lat="43.32475" lon="5.70913">
        <ele>680.9</ele>
        <time>2013-05-22T14:12:10Z</time>
      </trkpt>
      <trkpt lat="43.32472" lon="5.70902">
        <ele>681.7</ele>
        <time>2013-05-22T14:12:16Z</time>
      </trkpt>
      <trkpt lat="43.32472" lon="5.709">
        <ele>681.7</ele>
        <time>2013-05-22T14:12:17Z</time>
      </trkpt>
      <trkpt lat="43.32464" lon="5.70881">
        <ele>685</ele>
        <time>2013-05-22T14:12:31Z</time>
      </trkpt>
      <trkpt lat="43.32458" lon="5.70872">
        <ele>683</ele>
        <time>2013-05-22T14:12:38Z</time>
      </trkpt>
      <trkpt lat="43.32452" lon="5.70864">
        <ele>680.7</ele>
        <time>2013-05-22T14:12:45Z</time>
      </trkpt>
      <trkpt lat="43.32445" lon="5.70856">
        <ele>684</ele>
        <time>2013-05-22T14:12:52Z</time>
      </trkpt>
      <trkpt lat="43.32441" lon="5.70846">
        <ele>689.7</ele>
        <time>2013-05-22T14:13:00Z</time>
      </trkpt>
      <trkpt lat="43.32435" lon="5.70839">
        <ele>689.2</ele>
        <time>2013-05-22T14:13:06Z</time>
      </trkpt>
      <trkpt lat="43.32429" lon="5.70832">
        <ele>689.7</ele>
        <time>2013-05-22T14:13:11Z</time>
      </trkpt>
      <trkpt lat="43.32423" lon="5.70823">
        <ele>687.4</ele>
        <time>2013-05-22T14:13:18Z</time>
      </trkpt>
      <trkpt lat="43.32422" lon="5.70823">
        <ele>688.2</ele>
        <time>2013-05-22T14:13:19Z</time>
      </trkpt>
    </trkseg>
  </trk>
</gpx>